<?xml version="1.0" encoding="UTF-8" standalone="no" ?>
<gpx xmlns="http://www.topografix.com/GPX/1/1" xmlns:xsi="http://www.w3.org/2001/XMLSchema-instance" xsi:schemaLocation="http://www.topografix.com/GPX/1/1 http://www.topografix.com/GPX/1/1/gpx.xsd" version="1.1" creator="VisuGPX - https://www.visugpx.com">
  <metadata>
    <name>Rando liré 2011 45km</name>
    <desc><![CDATA[Randonée vtt liré (49) boucle 45km]]></desc>
  </metadata>
  <wpt lat="47.33088" lon="-1.09389">
    <ele>83.8</ele>
    <name><![CDATA[Route non pvée]]></name>
  </wpt>
  <trk>
    <name><![CDATA[ACTIVE LOG]]></name>
    <trkseg>
      <trkpt lat="47.33361" lon="-1.1728">
        <ele>45.3192139</ele>
        <time>2011-09-25T06:47:05Z</time>
      </trkpt>
      <trkpt lat="47.33363" lon="-1.17279">
        <ele>47.7225342</ele>
        <time>2011-09-25T06:47:12Z</time>
      </trkpt>
      <trkpt lat="47.33367" lon="-1.17277">
        <ele>49.6452637</ele>
        <time>2011-09-25T06:47:16Z</time>
      </trkpt>
      <trkpt lat="47.33383" lon="-1.17284">
        <ele>53.0097656</ele>
        <time>2011-09-25T06:47:27Z</time>
      </trkpt>
      <trkpt lat="47.33412" lon="-1.173">
        <ele>55.4130859</ele>
        <time>2011-09-25T06:47:40Z</time>
      </trkpt>
      <trkpt lat="47.33424" lon="-1.17318">
        <ele>56.8551025</ele>
        <time>2011-09-25T06:47:46Z</time>
      </trkpt>
      <trkpt lat="47.33426" lon="-1.17324">
        <ele>57.3358154</ele>
        <time>2011-09-25T06:47:48Z</time>
      </trkpt>
      <trkpt lat="47.33443" lon="-1.17351">
        <ele>59.7391357</ele>
        <time>2011-09-25T06:48:04Z</time>
      </trkpt>
      <trkpt lat="47.33447" lon="-1.17359">
        <ele>60.7003174</ele>
        <time>2011-09-25T06:48:09Z</time>
      </trkpt>
      <trkpt lat="47.33455" lon="-1.17371">
        <ele>61.1810303</ele>
        <time>2011-09-25T06:48:18Z</time>
      </trkpt>
      <trkpt lat="47.33465" lon="-1.1739">
        <ele>62.142334</ele>
        <time>2011-09-25T06:48:28Z</time>
      </trkpt>
      <trkpt lat="47.33469" lon="-1.17394">
        <ele>62.6229248</ele>
        <time>2011-09-25T06:48:31Z</time>
      </trkpt>
      <trkpt lat="47.33477" lon="-1.17409">
        <ele>63.1036377</ele>
        <time>2011-09-25T06:48:37Z</time>
      </trkpt>
      <trkpt lat="47.33515" lon="-1.17417">
        <ele>63.5843506</ele>
        <time>2011-09-25T06:48:49Z</time>
      </trkpt>
      <trkpt lat="47.33521" lon="-1.17429">
        <ele>64.5456543</ele>
        <time>2011-09-25T06:48:53Z</time>
      </trkpt>
      <trkpt lat="47.33526" lon="-1.17522">
        <ele>64.5456543</ele>
        <time>2011-09-25T06:49:10Z</time>
      </trkpt>
      <trkpt lat="47.33529" lon="-1.17634">
        <ele>63.1036377</ele>
        <time>2011-09-25T06:49:27Z</time>
      </trkpt>
      <trkpt lat="47.33529" lon="-1.17655">
        <ele>62.6229248</ele>
        <time>2011-09-25T06:49:30Z</time>
      </trkpt>
      <trkpt lat="47.33529" lon="-1.1768">
        <ele>62.6229248</ele>
        <time>2011-09-25T06:49:34Z</time>
      </trkpt>
      <trkpt lat="47.33503" lon="-1.17814">
        <ele>59.7391357</ele>
        <time>2011-09-25T06:49:54Z</time>
      </trkpt>
      <trkpt lat="47.33509" lon="-1.17834">
        <ele>59.2584229</ele>
        <time>2011-09-25T06:49:59Z</time>
      </trkpt>
      <trkpt lat="47.33597" lon="-1.17812">
        <ele>60.7003174</ele>
        <time>2011-09-25T06:50:20Z</time>
      </trkpt>
      <trkpt lat="47.33658" lon="-1.17789">
        <ele>64.0650635</ele>
        <time>2011-09-25T06:50:36Z</time>
      </trkpt>
      <trkpt lat="47.33666" lon="-1.17798">
        <ele>64.5456543</ele>
        <time>2011-09-25T06:50:40Z</time>
      </trkpt>
      <trkpt lat="47.33675" lon="-1.17829">
        <ele>64.5456543</ele>
        <time>2011-09-25T06:50:47Z</time>
      </trkpt>
      <trkpt lat="47.33647" lon="-1.17868">
        <ele>63.1036377</ele>
        <time>2011-09-25T06:50:57Z</time>
      </trkpt>
      <trkpt lat="47.3364" lon="-1.17876">
        <ele>62.6229248</ele>
        <time>2011-09-25T06:50:59Z</time>
      </trkpt>
      <trkpt lat="47.33575" lon="-1.17913">
        <ele>58.77771</ele>
        <time>2011-09-25T06:51:12Z</time>
      </trkpt>
      <trkpt lat="47.33518" lon="-1.17949">
        <ele>56.3745117</ele>
        <time>2011-09-25T06:51:23Z</time>
      </trkpt>
      <trkpt lat="47.33529" lon="-1.17978">
        <ele>56.8551025</ele>
        <time>2011-09-25T06:51:30Z</time>
      </trkpt>
      <trkpt lat="47.33533" lon="-1.17978">
        <ele>57.3358154</ele>
        <time>2011-09-25T06:51:31Z</time>
      </trkpt>
      <trkpt lat="47.33594" lon="-1.17992">
        <ele>60.2197266</ele>
        <time>2011-09-25T06:51:47Z</time>
      </trkpt>
      <trkpt lat="47.33615" lon="-1.17999">
        <ele>61.1810303</ele>
        <time>2011-09-25T06:51:53Z</time>
      </trkpt>
      <trkpt lat="47.3361" lon="-1.1801">
        <ele>61.1810303</ele>
        <time>2011-09-25T06:51:59Z</time>
      </trkpt>
      <trkpt lat="47.33578" lon="-1.18">
        <ele>59.2584229</ele>
        <time>2011-09-25T06:52:07Z</time>
      </trkpt>
      <trkpt lat="47.33573" lon="-1.18008">
        <ele>60.7003174</ele>
        <time>2011-09-25T06:52:12Z</time>
      </trkpt>
      <trkpt lat="47.33581" lon="-1.18015">
        <ele>60.2197266</ele>
        <time>2011-09-25T06:52:18Z</time>
      </trkpt>
      <trkpt lat="47.33621" lon="-1.18026">
        <ele>61.1810303</ele>
        <time>2011-09-25T06:52:31Z</time>
      </trkpt>
      <trkpt lat="47.33625" lon="-1.18026">
        <ele>61.1810303</ele>
        <time>2011-09-25T06:52:32Z</time>
      </trkpt>
      <trkpt lat="47.33639" lon="-1.1803">
        <ele>61.6617432</ele>
        <time>2011-09-25T06:52:36Z</time>
      </trkpt>
      <trkpt lat="47.3368" lon="-1.18039">
        <ele>62.6229248</ele>
        <time>2011-09-25T06:52:48Z</time>
      </trkpt>
      <trkpt lat="47.33709" lon="-1.18046">
        <ele>63.1036377</ele>
        <time>2011-09-25T06:52:56Z</time>
      </trkpt>
      <trkpt lat="47.33715" lon="-1.18049">
        <ele>63.1036377</ele>
        <time>2011-09-25T06:52:58Z</time>
      </trkpt>
      <trkpt lat="47.33725" lon="-1.18054">
        <ele>63.1036377</ele>
        <time>2011-09-25T06:53:01Z</time>
      </trkpt>
      <trkpt lat="47.33764" lon="-1.18059">
        <ele>64.0650635</ele>
        <time>2011-09-25T06:53:11Z</time>
      </trkpt>
      <trkpt lat="47.33779" lon="-1.18065">
        <ele>64.0650635</ele>
        <time>2011-09-25T06:53:15Z</time>
      </trkpt>
      <trkpt lat="47.338" lon="-1.18071">
        <ele>63.5843506</ele>
        <time>2011-09-25T06:53:21Z</time>
      </trkpt>
      <trkpt lat="47.33842" lon="-1.18086">
        <ele>64.0650635</ele>
        <time>2011-09-25T06:53:33Z</time>
      </trkpt>
      <trkpt lat="47.33845" lon="-1.18088">
        <ele>64.0650635</ele>
        <time>2011-09-25T06:53:34Z</time>
      </trkpt>
      <trkpt lat="47.33863" lon="-1.18087">
        <ele>63.5843506</ele>
        <time>2011-09-25T06:53:38Z</time>
      </trkpt>
      <trkpt lat="47.33879" lon="-1.18091">
        <ele>63.5843506</ele>
        <time>2011-09-25T06:53:42Z</time>
      </trkpt>
      <trkpt lat="47.3391" lon="-1.18098">
        <ele>62.6229248</ele>
        <time>2011-09-25T06:53:51Z</time>
      </trkpt>
      <trkpt lat="47.33943" lon="-1.18108">
        <ele>62.6229248</ele>
        <time>2011-09-25T06:53:59Z</time>
      </trkpt>
      <trkpt lat="47.33947" lon="-1.18109">
        <ele>63.1036377</ele>
        <time>2011-09-25T06:54:00Z</time>
      </trkpt>
      <trkpt lat="47.33989" lon="-1.18124">
        <ele>62.142334</ele>
        <time>2011-09-25T06:54:10Z</time>
      </trkpt>
      <trkpt lat="47.3399" lon="-1.18155">
        <ele>62.142334</ele>
        <time>2011-09-25T06:54:18Z</time>
      </trkpt>
      <trkpt lat="47.33923" lon="-1.18189">
        <ele>62.6229248</ele>
        <time>2011-09-25T06:54:37Z</time>
      </trkpt>
      <trkpt lat="47.33895" lon="-1.18211">
        <ele>62.6229248</ele>
        <time>2011-09-25T06:54:45Z</time>
      </trkpt>
      <trkpt lat="47.33858" lon="-1.18279">
        <ele>63.1036377</ele>
        <time>2011-09-25T06:55:00Z</time>
      </trkpt>
      <trkpt lat="47.33843" lon="-1.18319">
        <ele>63.5843506</ele>
        <time>2011-09-25T06:55:10Z</time>
      </trkpt>
      <trkpt lat="47.33868" lon="-1.18374">
        <ele>64.0650635</ele>
        <time>2011-09-25T06:55:22Z</time>
      </trkpt>
      <trkpt lat="47.33885" lon="-1.18396">
        <ele>63.5843506</ele>
        <time>2011-09-25T06:55:27Z</time>
      </trkpt>
      <trkpt lat="47.33947" lon="-1.1845">
        <ele>62.6229248</ele>
        <time>2011-09-25T06:55:43Z</time>
      </trkpt>
      <trkpt lat="47.33956" lon="-1.18461">
        <ele>61.6617432</ele>
        <time>2011-09-25T06:55:45Z</time>
      </trkpt>
      <trkpt lat="47.34017" lon="-1.18488">
        <ele>57.3358154</ele>
        <time>2011-09-25T06:55:56Z</time>
      </trkpt>
      <trkpt lat="47.34036" lon="-1.18497">
        <ele>55.8937988</ele>
        <time>2011-09-25T06:55:59Z</time>
      </trkpt>
      <trkpt lat="47.3405" lon="-1.18504">
        <ele>54.4517822</ele>
        <time>2011-09-25T06:56:01Z</time>
      </trkpt>
      <trkpt lat="47.34067" lon="-1.18516">
        <ele>52.048584</ele>
        <time>2011-09-25T06:56:04Z</time>
      </trkpt>
      <trkpt lat="47.34078" lon="-1.18521">
        <ele>50.1259766</ele>
        <time>2011-09-25T06:56:06Z</time>
      </trkpt>
      <trkpt lat="47.34087" lon="-1.18525">
        <ele>48.68396</ele>
        <time>2011-09-25T06:56:08Z</time>
      </trkpt>
      <trkpt lat="47.34094" lon="-1.18536">
        <ele>46.7612305</ele>
        <time>2011-09-25T06:56:11Z</time>
      </trkpt>
      <trkpt lat="47.34091" lon="-1.18559">
        <ele>43.8773193</ele>
        <time>2011-09-25T06:56:16Z</time>
      </trkpt>
      <trkpt lat="47.34088" lon="-1.18586">
        <ele>42.9160156</ele>
        <time>2011-09-25T06:56:21Z</time>
      </trkpt>
      <trkpt lat="47.34097" lon="-1.18599">
        <ele>39.5512695</ele>
        <time>2011-09-25T06:56:26Z</time>
      </trkpt>
      <trkpt lat="47.34099" lon="-1.18599">
        <ele>39.5512695</ele>
        <time>2011-09-25T06:56:27Z</time>
      </trkpt>
      <trkpt lat="47.34104" lon="-1.18599">
        <ele>37.6286621</ele>
        <time>2011-09-25T06:56:29Z</time>
      </trkpt>
      <trkpt lat="47.34109" lon="-1.186">
        <ele>36.6674805</ele>
        <time>2011-09-25T06:56:31Z</time>
      </trkpt>
      <trkpt lat="47.34114" lon="-1.18599">
        <ele>32.8222656</ele>
        <time>2011-09-25T06:56:33Z</time>
      </trkpt>
      <trkpt lat="47.34117" lon="-1.18599">
        <ele>32.8222656</ele>
        <time>2011-09-25T06:56:34Z</time>
      </trkpt>
      <trkpt lat="47.34122" lon="-1.18602">
        <ele>31.380127</ele>
        <time>2011-09-25T06:56:36Z</time>
      </trkpt>
      <trkpt lat="47.34128" lon="-1.18602">
        <ele>29.4575195</ele>
        <time>2011-09-25T06:56:38Z</time>
      </trkpt>
      <trkpt lat="47.34133" lon="-1.18603">
        <ele>26.0928955</ele>
        <time>2011-09-25T06:56:40Z</time>
      </trkpt>
      <trkpt lat="47.34136" lon="-1.18605">
        <ele>26.0928955</ele>
        <time>2011-09-25T06:56:41Z</time>
      </trkpt>
      <trkpt lat="47.34145" lon="-1.18606">
        <ele>23.6895752</ele>
        <time>2011-09-25T06:56:45Z</time>
      </trkpt>
      <trkpt lat="47.34154" lon="-1.18606">
        <ele>21.286377</ele>
        <time>2011-09-25T06:56:48Z</time>
      </trkpt>
      <trkpt lat="47.3416" lon="-1.18607">
        <ele>19.3637695</ele>
        <time>2011-09-25T06:56:50Z</time>
      </trkpt>
      <trkpt lat="47.34166" lon="-1.1861">
        <ele>17.9217529</ele>
        <time>2011-09-25T06:56:52Z</time>
      </trkpt>
      <trkpt lat="47.34173" lon="-1.1861">
        <ele>14.5570068</ele>
        <time>2011-09-25T06:56:54Z</time>
      </trkpt>
      <trkpt lat="47.34176" lon="-1.1861">
        <ele>14.5570068</ele>
        <time>2011-09-25T06:56:55Z</time>
      </trkpt>
      <trkpt lat="47.34183" lon="-1.18612">
        <ele>13.1151123</ele>
        <time>2011-09-25T06:56:57Z</time>
      </trkpt>
      <trkpt lat="47.34189" lon="-1.18613">
        <ele>11.6732178</ele>
        <time>2011-09-25T06:56:59Z</time>
      </trkpt>
      <trkpt lat="47.34194" lon="-1.18618">
        <ele>10.2312012</ele>
        <time>2011-09-25T06:57:01Z</time>
      </trkpt>
      <trkpt lat="47.34191" lon="-1.18672">
        <ele>7.347168</ele>
        <time>2011-09-25T06:57:14Z</time>
      </trkpt>
      <trkpt lat="47.34176" lon="-1.18693">
        <ele>6.8664551</ele>
        <time>2011-09-25T06:57:20Z</time>
      </trkpt>
      <trkpt lat="47.34167" lon="-1.18709">
        <ele>6.8664551</ele>
        <time>2011-09-25T06:57:24Z</time>
      </trkpt>
      <trkpt lat="47.34151" lon="-1.1872">
        <ele>7.347168</ele>
        <time>2011-09-25T06:57:29Z</time>
      </trkpt>
      <trkpt lat="47.3414" lon="-1.18731">
        <ele>6.8664551</ele>
        <time>2011-09-25T06:57:33Z</time>
      </trkpt>
      <trkpt lat="47.34111" lon="-1.18758">
        <ele>6.8664551</ele>
        <time>2011-09-25T06:57:42Z</time>
      </trkpt>
      <trkpt lat="47.34092" lon="-1.18775">
        <ele>6.3858643</ele>
        <time>2011-09-25T06:57:48Z</time>
      </trkpt>
      <trkpt lat="47.34073" lon="-1.18812">
        <ele>6.8664551</ele>
        <time>2011-09-25T06:57:57Z</time>
      </trkpt>
      <trkpt lat="47.3405" lon="-1.18853">
        <ele>6.8664551</ele>
        <time>2011-09-25T06:58:06Z</time>
      </trkpt>
      <trkpt lat="47.34028" lon="-1.18892">
        <ele>6.8664551</ele>
        <time>2011-09-25T06:58:16Z</time>
      </trkpt>
      <trkpt lat="47.34007" lon="-1.18939">
        <ele>6.8664551</ele>
        <time>2011-09-25T06:58:26Z</time>
      </trkpt>
      <trkpt lat="47.33999" lon="-1.18971">
        <ele>7.347168</ele>
        <time>2011-09-25T06:58:31Z</time>
      </trkpt>
      <trkpt lat="47.3398" lon="-1.18964">
        <ele>6.8664551</ele>
        <time>2011-09-25T06:58:36Z</time>
      </trkpt>
      <trkpt lat="47.33965" lon="-1.18962">
        <ele>7.8278809</ele>
        <time>2011-09-25T06:58:40Z</time>
      </trkpt>
      <trkpt lat="47.33954" lon="-1.18958">
        <ele>6.8664551</ele>
        <time>2011-09-25T06:58:43Z</time>
      </trkpt>
      <trkpt lat="47.33882" lon="-1.18948">
        <ele>6.8664551</ele>
        <time>2011-09-25T06:59:01Z</time>
      </trkpt>
      <trkpt lat="47.33862" lon="-1.18958">
        <ele>7.347168</ele>
        <time>2011-09-25T06:59:06Z</time>
      </trkpt>
      <trkpt lat="47.33846" lon="-1.18961">
        <ele>6.8664551</ele>
        <time>2011-09-25T06:59:10Z</time>
      </trkpt>
      <trkpt lat="47.3383" lon="-1.18972">
        <ele>6.8664551</ele>
        <time>2011-09-25T06:59:14Z</time>
      </trkpt>
      <trkpt lat="47.33806" lon="-1.18979">
        <ele>7.347168</ele>
        <time>2011-09-25T06:59:20Z</time>
      </trkpt>
      <trkpt lat="47.33794" lon="-1.18979">
        <ele>7.347168</ele>
        <time>2011-09-25T06:59:23Z</time>
      </trkpt>
      <trkpt lat="47.33781" lon="-1.18977">
        <ele>8.3085938</ele>
        <time>2011-09-25T06:59:26Z</time>
      </trkpt>
      <trkpt lat="47.33749" lon="-1.1896">
        <ele>10.2312012</ele>
        <time>2011-09-25T06:59:35Z</time>
      </trkpt>
      <trkpt lat="47.3373" lon="-1.1895">
        <ele>13.1151123</ele>
        <time>2011-09-25T06:59:45Z</time>
      </trkpt>
      <trkpt lat="47.3371" lon="-1.18943">
        <ele>16.4797363</ele>
        <time>2011-09-25T06:59:57Z</time>
      </trkpt>
      <trkpt lat="47.33673" lon="-1.18931">
        <ele>17.9217529</ele>
        <time>2011-09-25T07:00:22Z</time>
      </trkpt>
      <trkpt lat="47.3364" lon="-1.18922">
        <ele>17.9217529</ele>
        <time>2011-09-25T07:00:37Z</time>
      </trkpt>
      <trkpt lat="47.3362" lon="-1.18919">
        <ele>19.3637695</ele>
        <time>2011-09-25T07:00:50Z</time>
      </trkpt>
      <trkpt lat="47.33619" lon="-1.1892">
        <ele>18.8830566</ele>
        <time>2011-09-25T07:01:08Z</time>
      </trkpt>
      <trkpt lat="47.33611" lon="-1.18925">
        <ele>18.4023438</ele>
        <time>2011-09-25T07:01:13Z</time>
      </trkpt>
      <trkpt lat="47.33585" lon="-1.18931">
        <ele>18.4023438</ele>
        <time>2011-09-25T07:01:25Z</time>
      </trkpt>
      <trkpt lat="47.33558" lon="-1.18925">
        <ele>21.286377</ele>
        <time>2011-09-25T07:01:37Z</time>
      </trkpt>
      <trkpt lat="47.33538" lon="-1.18925">
        <ele>24.651001</ele>
        <time>2011-09-25T07:01:50Z</time>
      </trkpt>
      <trkpt lat="47.33519" lon="-1.18919">
        <ele>27.5349121</ele>
        <time>2011-09-25T07:02:01Z</time>
      </trkpt>
      <trkpt lat="47.33515" lon="-1.18917">
        <ele>28.0155029</ele>
        <time>2011-09-25T07:02:03Z</time>
      </trkpt>
      <trkpt lat="47.33502" lon="-1.18909">
        <ele>28.9769287</ele>
        <time>2011-09-25T07:02:10Z</time>
      </trkpt>
      <trkpt lat="47.33484" lon="-1.18881">
        <ele>31.380127</ele>
        <time>2011-09-25T07:02:24Z</time>
      </trkpt>
      <trkpt lat="47.33486" lon="-1.18874">
        <ele>31.380127</ele>
        <time>2011-09-25T07:02:27Z</time>
      </trkpt>
      <trkpt lat="47.335" lon="-1.18852">
        <ele>35.2254639</ele>
        <time>2011-09-25T07:02:40Z</time>
      </trkpt>
      <trkpt lat="47.33506" lon="-1.18845">
        <ele>36.1867676</ele>
        <time>2011-09-25T07:02:44Z</time>
      </trkpt>
      <trkpt lat="47.33524" lon="-1.18817">
        <ele>40.0321045</ele>
        <time>2011-09-25T07:03:00Z</time>
      </trkpt>
      <trkpt lat="47.33551" lon="-1.18777">
        <ele>42.9160156</ele>
        <time>2011-09-25T07:03:21Z</time>
      </trkpt>
      <trkpt lat="47.33581" lon="-1.18732">
        <ele>45.7999268</ele>
        <time>2011-09-25T07:03:42Z</time>
      </trkpt>
      <trkpt lat="47.33595" lon="-1.1872">
        <ele>47.7225342</ele>
        <time>2011-09-25T07:03:51Z</time>
      </trkpt>
      <trkpt lat="47.33581" lon="-1.18685">
        <ele>48.2033691</ele>
        <time>2011-09-25T07:04:04Z</time>
      </trkpt>
      <trkpt lat="47.33546" lon="-1.18589">
        <ele>45.3192139</ele>
        <time>2011-09-25T07:04:21Z</time>
      </trkpt>
      <trkpt lat="47.33542" lon="-1.18577">
        <ele>44.838623</ele>
        <time>2011-09-25T07:04:23Z</time>
      </trkpt>
      <trkpt lat="47.33517" lon="-1.18509">
        <ele>43.8773193</ele>
        <time>2011-09-25T07:04:34Z</time>
      </trkpt>
      <trkpt lat="47.3351" lon="-1.18436">
        <ele>47.2418213</ele>
        <time>2011-09-25T07:04:48Z</time>
      </trkpt>
      <trkpt lat="47.3351" lon="-1.18432">
        <ele>47.7225342</ele>
        <time>2011-09-25T07:04:49Z</time>
      </trkpt>
      <trkpt lat="47.33531" lon="-1.18413">
        <ele>51.0871582</ele>
        <time>2011-09-25T07:05:00Z</time>
      </trkpt>
      <trkpt lat="47.33557" lon="-1.18401">
        <ele>54.4517822</ele>
        <time>2011-09-25T07:05:12Z</time>
      </trkpt>
      <trkpt lat="47.33577" lon="-1.18371">
        <ele>53.9711914</ele>
        <time>2011-09-25T07:05:26Z</time>
      </trkpt>
      <trkpt lat="47.33556" lon="-1.18357">
        <ele>52.5291748</ele>
        <time>2011-09-25T07:05:36Z</time>
      </trkpt>
      <trkpt lat="47.33549" lon="-1.18373">
        <ele>50.1259766</ele>
        <time>2011-09-25T07:05:40Z</time>
      </trkpt>
      <trkpt lat="47.33542" lon="-1.18385">
        <ele>49.1645508</ele>
        <time>2011-09-25T07:05:43Z</time>
      </trkpt>
      <trkpt lat="47.33532" lon="-1.18392">
        <ele>46.7612305</ele>
        <time>2011-09-25T07:05:45Z</time>
      </trkpt>
      <trkpt lat="47.33527" lon="-1.18397">
        <ele>45.7999268</ele>
        <time>2011-09-25T07:05:46Z</time>
      </trkpt>
      <trkpt lat="47.33518" lon="-1.18407">
        <ele>44.3580322</ele>
        <time>2011-09-25T07:05:48Z</time>
      </trkpt>
      <trkpt lat="47.33508" lon="-1.18417">
        <ele>42.9160156</ele>
        <time>2011-09-25T07:05:50Z</time>
      </trkpt>
      <trkpt lat="47.33504" lon="-1.18421">
        <ele>41.473999</ele>
        <time>2011-09-25T07:05:51Z</time>
      </trkpt>
      <trkpt lat="47.33492" lon="-1.18453">
        <ele>40.9934082</ele>
        <time>2011-09-25T07:05:58Z</time>
      </trkpt>
      <trkpt lat="47.33485" lon="-1.18451">
        <ele>40.5128174</ele>
        <time>2011-09-25T07:06:00Z</time>
      </trkpt>
      <trkpt lat="47.33465" lon="-1.18429">
        <ele>40.0321045</ele>
        <time>2011-09-25T07:06:08Z</time>
      </trkpt>
      <trkpt lat="47.33452" lon="-1.18417">
        <ele>35.2254639</ele>
        <time>2011-09-25T07:06:11Z</time>
      </trkpt>
      <trkpt lat="47.33443" lon="-1.18399">
        <ele>34.744873</ele>
        <time>2011-09-25T07:06:14Z</time>
      </trkpt>
      <trkpt lat="47.33441" lon="-1.18388">
        <ele>36.6674805</ele>
        <time>2011-09-25T07:06:25Z</time>
      </trkpt>
      <trkpt lat="47.33444" lon="-1.18379">
        <ele>39.0706787</ele>
        <time>2011-09-25T07:06:37Z</time>
      </trkpt>
      <trkpt lat="47.33446" lon="-1.18375">
        <ele>39.5512695</ele>
        <time>2011-09-25T07:06:41Z</time>
      </trkpt>
      <trkpt lat="47.3345" lon="-1.18373">
        <ele>40.0321045</ele>
        <time>2011-09-25T07:06:58Z</time>
      </trkpt>
      <trkpt lat="47.33449" lon="-1.18373">
        <ele>40.0321045</ele>
        <time>2011-09-25T07:06:59Z</time>
      </trkpt>
      <trkpt lat="47.33448" lon="-1.18366">
        <ele>40.0321045</ele>
        <time>2011-09-25T07:07:03Z</time>
      </trkpt>
      <trkpt lat="47.3345" lon="-1.18357">
        <ele>42.4354248</ele>
        <time>2011-09-25T07:07:07Z</time>
      </trkpt>
      <trkpt lat="47.33452" lon="-1.18356">
        <ele>43.8773193</ele>
        <time>2011-09-25T07:07:09Z</time>
      </trkpt>
      <trkpt lat="47.33454" lon="-1.18358">
        <ele>43.8773193</ele>
        <time>2011-09-25T07:07:13Z</time>
      </trkpt>
      <trkpt lat="47.33467" lon="-1.18359">
        <ele>47.2418213</ele>
        <time>2011-09-25T07:07:26Z</time>
      </trkpt>
      <trkpt lat="47.33485" lon="-1.18362">
        <ele>49.6452637</ele>
        <time>2011-09-25T07:07:36Z</time>
      </trkpt>
      <trkpt lat="47.33492" lon="-1.18362">
        <ele>50.6065674</ele>
        <time>2011-09-25T07:07:40Z</time>
      </trkpt>
      <trkpt lat="47.33519" lon="-1.18353">
        <ele>52.5291748</ele>
        <time>2011-09-25T07:07:56Z</time>
      </trkpt>
      <trkpt lat="47.33541" lon="-1.18348">
        <ele>53.4904785</ele>
        <time>2011-09-25T07:08:07Z</time>
      </trkpt>
      <trkpt lat="47.33559" lon="-1.18336">
        <ele>56.3745117</ele>
        <time>2011-09-25T07:08:18Z</time>
      </trkpt>
      <trkpt lat="47.33548" lon="-1.18301">
        <ele>56.8551025</ele>
        <time>2011-09-25T07:08:32Z</time>
      </trkpt>
      <trkpt lat="47.3354" lon="-1.18278">
        <ele>56.8551025</ele>
        <time>2011-09-25T07:08:40Z</time>
      </trkpt>
      <trkpt lat="47.33523" lon="-1.18238">
        <ele>56.8551025</ele>
        <time>2011-09-25T07:08:51Z</time>
      </trkpt>
      <trkpt lat="47.33503" lon="-1.18193">
        <ele>56.8551025</ele>
        <time>2011-09-25T07:09:01Z</time>
      </trkpt>
      <trkpt lat="47.33481" lon="-1.18136">
        <ele>55.4130859</ele>
        <time>2011-09-25T07:09:12Z</time>
      </trkpt>
      <trkpt lat="47.33452" lon="-1.18069">
        <ele>53.4904785</ele>
        <time>2011-09-25T07:09:21Z</time>
      </trkpt>
      <trkpt lat="47.33449" lon="-1.18031">
        <ele>53.4904785</ele>
        <time>2011-09-25T07:09:26Z</time>
      </trkpt>
      <trkpt lat="47.3347" lon="-1.17976">
        <ele>54.4517822</ele>
        <time>2011-09-25T07:09:36Z</time>
      </trkpt>
      <trkpt lat="47.33445" lon="-1.17961">
        <ele>53.9711914</ele>
        <time>2011-09-25T07:09:44Z</time>
      </trkpt>
      <trkpt lat="47.33382" lon="-1.17944">
        <ele>54.932373</ele>
        <time>2011-09-25T07:10:00Z</time>
      </trkpt>
      <trkpt lat="47.33374" lon="-1.1794">
        <ele>54.932373</ele>
        <time>2011-09-25T07:10:02Z</time>
      </trkpt>
      <trkpt lat="47.33358" lon="-1.17921">
        <ele>55.4130859</ele>
        <time>2011-09-25T07:10:07Z</time>
      </trkpt>
      <trkpt lat="47.33301" lon="-1.17789">
        <ele>55.8937988</ele>
        <time>2011-09-25T07:10:33Z</time>
      </trkpt>
      <trkpt lat="47.33264" lon="-1.17673">
        <ele>55.4130859</ele>
        <time>2011-09-25T07:10:55Z</time>
      </trkpt>
      <trkpt lat="47.33242" lon="-1.17585">
        <ele>57.3358154</ele>
        <time>2011-09-25T07:11:12Z</time>
      </trkpt>
      <trkpt lat="47.3323" lon="-1.17585">
        <ele>56.8551025</ele>
        <time>2011-09-25T07:11:16Z</time>
      </trkpt>
      <trkpt lat="47.33175" lon="-1.17648">
        <ele>53.0097656</ele>
        <time>2011-09-25T07:11:30Z</time>
      </trkpt>
      <trkpt lat="47.33171" lon="-1.17652">
        <ele>53.0097656</ele>
        <time>2011-09-25T07:11:31Z</time>
      </trkpt>
      <trkpt lat="47.33159" lon="-1.17664">
        <ele>53.0097656</ele>
        <time>2011-09-25T07:11:34Z</time>
      </trkpt>
      <trkpt lat="47.33149" lon="-1.1768">
        <ele>51.0871582</ele>
        <time>2011-09-25T07:11:37Z</time>
      </trkpt>
      <trkpt lat="47.33129" lon="-1.17705">
        <ele>48.68396</ele>
        <time>2011-09-25T07:11:41Z</time>
      </trkpt>
      <trkpt lat="47.33119" lon="-1.17721">
        <ele>47.2418213</ele>
        <time>2011-09-25T07:11:43Z</time>
      </trkpt>
      <trkpt lat="47.33113" lon="-1.1773">
        <ele>46.2806396</ele>
        <time>2011-09-25T07:11:44Z</time>
      </trkpt>
      <trkpt lat="47.33091" lon="-1.17766">
        <ele>44.3580322</ele>
        <time>2011-09-25T07:11:48Z</time>
      </trkpt>
      <trkpt lat="47.33068" lon="-1.17792">
        <ele>42.4354248</ele>
        <time>2011-09-25T07:11:52Z</time>
      </trkpt>
      <trkpt lat="47.33046" lon="-1.17803">
        <ele>40.0321045</ele>
        <time>2011-09-25T07:11:55Z</time>
      </trkpt>
      <trkpt lat="47.33032" lon="-1.17817">
        <ele>38.5900879</ele>
        <time>2011-09-25T07:11:57Z</time>
      </trkpt>
      <trkpt lat="47.33009" lon="-1.17867">
        <ele>36.6674805</ele>
        <time>2011-09-25T07:12:02Z</time>
      </trkpt>
      <trkpt lat="47.32999" lon="-1.17886">
        <ele>35.2254639</ele>
        <time>2011-09-25T07:12:04Z</time>
      </trkpt>
      <trkpt lat="47.32977" lon="-1.17926">
        <ele>31.8607178</ele>
        <time>2011-09-25T07:12:08Z</time>
      </trkpt>
      <trkpt lat="47.32971" lon="-1.17936">
        <ele>31.8607178</ele>
        <time>2011-09-25T07:12:09Z</time>
      </trkpt>
      <trkpt lat="47.32956" lon="-1.17994">
        <ele>29.4575195</ele>
        <time>2011-09-25T07:12:14Z</time>
      </trkpt>
      <trkpt lat="47.32928" lon="-1.18038">
        <ele>27.0543213</ele>
        <time>2011-09-25T07:12:21Z</time>
      </trkpt>
      <trkpt lat="47.32915" lon="-1.18045">
        <ele>26.5736084</ele>
        <time>2011-09-25T07:12:23Z</time>
      </trkpt>
      <trkpt lat="47.32877" lon="-1.18034">
        <ele>24.1702881</ele>
        <time>2011-09-25T07:12:29Z</time>
      </trkpt>
      <trkpt lat="47.32864" lon="-1.18021">
        <ele>23.2089844</ele>
        <time>2011-09-25T07:12:32Z</time>
      </trkpt>
      <trkpt lat="47.32863" lon="-1.18035">
        <ele>21.286377</ele>
        <time>2011-09-25T07:12:37Z</time>
      </trkpt>
      <trkpt lat="47.32871" lon="-1.18049">
        <ele>19.3637695</ele>
        <time>2011-09-25T07:12:39Z</time>
      </trkpt>
      <trkpt lat="47.32879" lon="-1.18066">
        <ele>17.9217529</ele>
        <time>2011-09-25T07:12:41Z</time>
      </trkpt>
      <trkpt lat="47.32884" lon="-1.18079">
        <ele>16.9604492</ele>
        <time>2011-09-25T07:12:43Z</time>
      </trkpt>
      <trkpt lat="47.32877" lon="-1.18089">
        <ele>15.5184326</ele>
        <time>2011-09-25T07:12:46Z</time>
      </trkpt>
      <trkpt lat="47.32872" lon="-1.18085">
        <ele>14.5570068</ele>
        <time>2011-09-25T07:12:48Z</time>
      </trkpt>
      <trkpt lat="47.32863" lon="-1.18076">
        <ele>14.5570068</ele>
        <time>2011-09-25T07:12:50Z</time>
      </trkpt>
      <trkpt lat="47.32838" lon="-1.18069">
        <ele>13.1151123</ele>
        <time>2011-09-25T07:12:55Z</time>
      </trkpt>
      <trkpt lat="47.32829" lon="-1.18074">
        <ele>13.5958252</ele>
        <time>2011-09-25T07:12:57Z</time>
      </trkpt>
      <trkpt lat="47.32812" lon="-1.18087">
        <ele>12.6343994</ele>
        <time>2011-09-25T07:13:01Z</time>
      </trkpt>
      <trkpt lat="47.32796" lon="-1.18085">
        <ele>13.5958252</ele>
        <time>2011-09-25T07:13:05Z</time>
      </trkpt>
      <trkpt lat="47.32768" lon="-1.18109">
        <ele>15.5184326</ele>
        <time>2011-09-25T07:13:14Z</time>
      </trkpt>
      <trkpt lat="47.32765" lon="-1.18125">
        <ele>16.4797363</ele>
        <time>2011-09-25T07:13:17Z</time>
      </trkpt>
      <trkpt lat="47.32763" lon="-1.18181">
        <ele>19.8443604</ele>
        <time>2011-09-25T07:13:28Z</time>
      </trkpt>
      <trkpt lat="47.32763" lon="-1.18189">
        <ele>20.8056641</ele>
        <time>2011-09-25T07:13:38Z</time>
      </trkpt>
      <trkpt lat="47.32757" lon="-1.18218">
        <ele>23.2089844</ele>
        <time>2011-09-25T07:13:55Z</time>
      </trkpt>
      <trkpt lat="47.32748" lon="-1.18249">
        <ele>26.0928955</ele>
        <time>2011-09-25T07:14:06Z</time>
      </trkpt>
      <trkpt lat="47.3273" lon="-1.18283">
        <ele>29.4575195</ele>
        <time>2011-09-25T07:14:20Z</time>
      </trkpt>
      <trkpt lat="47.32716" lon="-1.18309">
        <ele>32.3415527</ele>
        <time>2011-09-25T07:14:33Z</time>
      </trkpt>
      <trkpt lat="47.32705" lon="-1.18326">
        <ele>34.2641602</ele>
        <time>2011-09-25T07:14:41Z</time>
      </trkpt>
      <trkpt lat="47.3269" lon="-1.18345">
        <ele>37.6286621</ele>
        <time>2011-09-25T07:14:50Z</time>
      </trkpt>
      <trkpt lat="47.32675" lon="-1.18362">
        <ele>40.9934082</ele>
        <time>2011-09-25T07:14:59Z</time>
      </trkpt>
      <trkpt lat="47.32674" lon="-1.18364">
        <ele>40.9934082</ele>
        <time>2011-09-25T07:15:00Z</time>
      </trkpt>
      <trkpt lat="47.32657" lon="-1.18389">
        <ele>43.8773193</ele>
        <time>2011-09-25T07:15:11Z</time>
      </trkpt>
      <trkpt lat="47.32635" lon="-1.18411">
        <ele>47.7225342</ele>
        <time>2011-09-25T07:15:24Z</time>
      </trkpt>
      <trkpt lat="47.32595" lon="-1.18425">
        <ele>50.6065674</ele>
        <time>2011-09-25T07:15:43Z</time>
      </trkpt>
      <trkpt lat="47.32552" lon="-1.18448">
        <ele>53.9711914</ele>
        <time>2011-09-25T07:16:02Z</time>
      </trkpt>
      <trkpt lat="47.32511" lon="-1.18473">
        <ele>56.8551025</ele>
        <time>2011-09-25T07:16:21Z</time>
      </trkpt>
      <trkpt lat="47.32468" lon="-1.18505">
        <ele>60.2197266</ele>
        <time>2011-09-25T07:16:40Z</time>
      </trkpt>
      <trkpt lat="47.32436" lon="-1.1853">
        <ele>63.1036377</ele>
        <time>2011-09-25T07:16:54Z</time>
      </trkpt>
      <trkpt lat="47.32403" lon="-1.18557">
        <ele>66.4682617</ele>
        <time>2011-09-25T07:17:09Z</time>
      </trkpt>
      <trkpt lat="47.32344" lon="-1.18598">
        <ele>69.8328857</ele>
        <time>2011-09-25T07:17:35Z</time>
      </trkpt>
      <trkpt lat="47.32289" lon="-1.1862">
        <ele>72.7169189</ele>
        <time>2011-09-25T07:17:58Z</time>
      </trkpt>
      <trkpt lat="47.32231" lon="-1.18653">
        <ele>75.1202393</ele>
        <time>2011-09-25T07:18:23Z</time>
      </trkpt>
      <trkpt lat="47.32184" lon="-1.18676">
        <ele>77.5234375</ele>
        <time>2011-09-25T07:18:42Z</time>
      </trkpt>
      <trkpt lat="47.32165" lon="-1.1869">
        <ele>78.4847412</ele>
        <time>2011-09-25T07:18:51Z</time>
      </trkpt>
      <trkpt lat="47.32182" lon="-1.18743">
        <ele>78.0040283</ele>
        <time>2011-09-25T07:19:06Z</time>
      </trkpt>
      <trkpt lat="47.32199" lon="-1.18796">
        <ele>76.5621338</ele>
        <time>2011-09-25T07:19:17Z</time>
      </trkpt>
      <trkpt lat="47.3221" lon="-1.18813">
        <ele>76.5621338</ele>
        <time>2011-09-25T07:19:21Z</time>
      </trkpt>
      <trkpt lat="47.32271" lon="-1.18884">
        <ele>76.5621338</ele>
        <time>2011-09-25T07:19:41Z</time>
      </trkpt>
      <trkpt lat="47.3231" lon="-1.18949">
        <ele>74.6395264</ele>
        <time>2011-09-25T07:19:54Z</time>
      </trkpt>
      <trkpt lat="47.32339" lon="-1.19074">
        <ele>73.6782227</ele>
        <time>2011-09-25T07:20:13Z</time>
      </trkpt>
      <trkpt lat="47.32366" lon="-1.19197">
        <ele>75.1202393</ele>
        <time>2011-09-25T07:20:32Z</time>
      </trkpt>
      <trkpt lat="47.32401" lon="-1.1928">
        <ele>73.6782227</ele>
        <time>2011-09-25T07:20:46Z</time>
      </trkpt>
      <trkpt lat="47.32441" lon="-1.19371">
        <ele>75.1202393</ele>
        <time>2011-09-25T07:21:02Z</time>
      </trkpt>
      <trkpt lat="47.32482" lon="-1.19441">
        <ele>76.5621338</ele>
        <time>2011-09-25T07:21:16Z</time>
      </trkpt>
      <trkpt lat="47.32537" lon="-1.19477">
        <ele>78.4847412</ele>
        <time>2011-09-25T07:21:30Z</time>
      </trkpt>
      <trkpt lat="47.32554" lon="-1.19474">
        <ele>78.0040283</ele>
        <time>2011-09-25T07:21:34Z</time>
      </trkpt>
      <trkpt lat="47.3264" lon="-1.19441">
        <ele>74.1588135</ele>
        <time>2011-09-25T07:21:51Z</time>
      </trkpt>
      <trkpt lat="47.3268" lon="-1.19429">
        <ele>73.1976318</ele>
        <time>2011-09-25T07:21:58Z</time>
      </trkpt>
      <trkpt lat="47.32697" lon="-1.1941">
        <ele>72.2362061</ele>
        <time>2011-09-25T07:22:02Z</time>
      </trkpt>
      <trkpt lat="47.32702" lon="-1.19386">
        <ele>71.7554932</ele>
        <time>2011-09-25T07:22:05Z</time>
      </trkpt>
      <trkpt lat="47.32708" lon="-1.19345">
        <ele>71.2749023</ele>
        <time>2011-09-25T07:22:10Z</time>
      </trkpt>
      <trkpt lat="47.32735" lon="-1.19325">
        <ele>68.871582</ele>
        <time>2011-09-25T07:22:15Z</time>
      </trkpt>
      <trkpt lat="47.3275" lon="-1.19328">
        <ele>65.9876709</ele>
        <time>2011-09-25T07:22:17Z</time>
      </trkpt>
      <trkpt lat="47.32767" lon="-1.19345">
        <ele>66.4682617</ele>
        <time>2011-09-25T07:22:21Z</time>
      </trkpt>
      <trkpt lat="47.32774" lon="-1.19356">
        <ele>65.5070801</ele>
        <time>2011-09-25T07:22:23Z</time>
      </trkpt>
      <trkpt lat="47.32785" lon="-1.19362">
        <ele>64.5456543</ele>
        <time>2011-09-25T07:22:25Z</time>
      </trkpt>
      <trkpt lat="47.32791" lon="-1.19364">
        <ele>63.5843506</ele>
        <time>2011-09-25T07:22:26Z</time>
      </trkpt>
      <trkpt lat="47.32804" lon="-1.19394">
        <ele>59.2584229</ele>
        <time>2011-09-25T07:22:31Z</time>
      </trkpt>
      <trkpt lat="47.32802" lon="-1.19414">
        <ele>56.8551025</ele>
        <time>2011-09-25T07:22:33Z</time>
      </trkpt>
      <trkpt lat="47.32803" lon="-1.19448">
        <ele>55.4130859</ele>
        <time>2011-09-25T07:22:36Z</time>
      </trkpt>
      <trkpt lat="47.32804" lon="-1.19469">
        <ele>54.4517822</ele>
        <time>2011-09-25T07:22:38Z</time>
      </trkpt>
      <trkpt lat="47.32831" lon="-1.19496">
        <ele>54.932373</ele>
        <time>2011-09-25T07:22:44Z</time>
      </trkpt>
      <trkpt lat="47.32843" lon="-1.19508">
        <ele>55.8937988</ele>
        <time>2011-09-25T07:22:46Z</time>
      </trkpt>
      <trkpt lat="47.32854" lon="-1.19517">
        <ele>57.8165283</ele>
        <time>2011-09-25T07:22:48Z</time>
      </trkpt>
      <trkpt lat="47.32864" lon="-1.19525">
        <ele>60.2197266</ele>
        <time>2011-09-25T07:22:50Z</time>
      </trkpt>
      <trkpt lat="47.32871" lon="-1.19531">
        <ele>62.142334</ele>
        <time>2011-09-25T07:22:52Z</time>
      </trkpt>
      <trkpt lat="47.32878" lon="-1.19535">
        <ele>65.0263672</ele>
        <time>2011-09-25T07:22:54Z</time>
      </trkpt>
      <trkpt lat="47.32881" lon="-1.19539">
        <ele>65.0263672</ele>
        <time>2011-09-25T07:22:55Z</time>
      </trkpt>
      <trkpt lat="47.32922" lon="-1.19565">
        <ele>66.9489746</ele>
        <time>2011-09-25T07:23:07Z</time>
      </trkpt>
      <trkpt lat="47.32947" lon="-1.19609">
        <ele>66.9489746</ele>
        <time>2011-09-25T07:23:17Z</time>
      </trkpt>
      <trkpt lat="47.32959" lon="-1.19597">
        <ele>66.4682617</ele>
        <time>2011-09-25T07:23:23Z</time>
      </trkpt>
      <trkpt lat="47.32968" lon="-1.19546">
        <ele>64.5456543</ele>
        <time>2011-09-25T07:23:32Z</time>
      </trkpt>
      <trkpt lat="47.32989" lon="-1.19521">
        <ele>63.1036377</ele>
        <time>2011-09-25T07:23:38Z</time>
      </trkpt>
      <trkpt lat="47.33021" lon="-1.19508">
        <ele>63.1036377</ele>
        <time>2011-09-25T07:23:45Z</time>
      </trkpt>
      <trkpt lat="47.33029" lon="-1.19503">
        <ele>63.1036377</ele>
        <time>2011-09-25T07:23:47Z</time>
      </trkpt>
      <trkpt lat="47.33076" lon="-1.19449">
        <ele>62.6229248</ele>
        <time>2011-09-25T07:24:00Z</time>
      </trkpt>
      <trkpt lat="47.33094" lon="-1.19444">
        <ele>63.1036377</ele>
        <time>2011-09-25T07:24:04Z</time>
      </trkpt>
      <trkpt lat="47.33175" lon="-1.19477">
        <ele>62.6229248</ele>
        <time>2011-09-25T07:24:24Z</time>
      </trkpt>
      <trkpt lat="47.33182" lon="-1.19464">
        <ele>62.142334</ele>
        <time>2011-09-25T07:24:28Z</time>
      </trkpt>
      <trkpt lat="47.33194" lon="-1.19455">
        <ele>61.6617432</ele>
        <time>2011-09-25T07:24:32Z</time>
      </trkpt>
      <trkpt lat="47.33235" lon="-1.19443">
        <ele>59.7391357</ele>
        <time>2011-09-25T07:24:42Z</time>
      </trkpt>
      <trkpt lat="47.33264" lon="-1.1945">
        <ele>58.77771</ele>
        <time>2011-09-25T07:24:48Z</time>
      </trkpt>
      <trkpt lat="47.33274" lon="-1.19458">
        <ele>57.8165283</ele>
        <time>2011-09-25T07:24:50Z</time>
      </trkpt>
      <trkpt lat="47.33307" lon="-1.19492">
        <ele>55.8937988</ele>
        <time>2011-09-25T07:24:57Z</time>
      </trkpt>
      <trkpt lat="47.33323" lon="-1.19502">
        <ele>54.4517822</ele>
        <time>2011-09-25T07:25:00Z</time>
      </trkpt>
      <trkpt lat="47.33363" lon="-1.19512">
        <ele>50.6065674</ele>
        <time>2011-09-25T07:25:10Z</time>
      </trkpt>
      <trkpt lat="47.33372" lon="-1.19513">
        <ele>49.1645508</ele>
        <time>2011-09-25T07:25:20Z</time>
      </trkpt>
      <trkpt lat="47.33374" lon="-1.19513">
        <ele>48.2033691</ele>
        <time>2011-09-25T07:25:34Z</time>
      </trkpt>
      <trkpt lat="47.33375" lon="-1.19515">
        <ele>48.68396</ele>
        <time>2011-09-25T07:25:50Z</time>
      </trkpt>
      <trkpt lat="47.33384" lon="-1.19515">
        <ele>47.2418213</ele>
        <time>2011-09-25T07:25:55Z</time>
      </trkpt>
      <trkpt lat="47.33394" lon="-1.19501">
        <ele>44.3580322</ele>
        <time>2011-09-25T07:25:58Z</time>
      </trkpt>
      <trkpt lat="47.33411" lon="-1.19494">
        <ele>41.9547119</ele>
        <time>2011-09-25T07:26:02Z</time>
      </trkpt>
      <trkpt lat="47.33419" lon="-1.19501">
        <ele>38.109375</ele>
        <time>2011-09-25T07:26:04Z</time>
      </trkpt>
      <trkpt lat="47.33422" lon="-1.19504">
        <ele>38.109375</ele>
        <time>2011-09-25T07:26:05Z</time>
      </trkpt>
      <trkpt lat="47.33424" lon="-1.19509">
        <ele>35.7060547</ele>
        <time>2011-09-25T07:26:06Z</time>
      </trkpt>
      <trkpt lat="47.33431" lon="-1.19518">
        <ele>33.7834473</ele>
        <time>2011-09-25T07:26:08Z</time>
      </trkpt>
      <trkpt lat="47.33444" lon="-1.1953">
        <ele>30.4188232</ele>
        <time>2011-09-25T07:26:11Z</time>
      </trkpt>
      <trkpt lat="47.33446" lon="-1.19533">
        <ele>30.4188232</ele>
        <time>2011-09-25T07:26:12Z</time>
      </trkpt>
      <trkpt lat="47.33452" lon="-1.19546">
        <ele>27.5349121</ele>
        <time>2011-09-25T07:26:15Z</time>
      </trkpt>
      <trkpt lat="47.3346" lon="-1.19556">
        <ele>25.6123047</ele>
        <time>2011-09-25T07:26:18Z</time>
      </trkpt>
      <trkpt lat="47.33464" lon="-1.19558">
        <ele>25.6123047</ele>
        <time>2011-09-25T07:26:26Z</time>
      </trkpt>
      <trkpt lat="47.33466" lon="-1.19555">
        <ele>24.651001</ele>
        <time>2011-09-25T07:26:31Z</time>
      </trkpt>
      <trkpt lat="47.33469" lon="-1.19553">
        <ele>24.1702881</ele>
        <time>2011-09-25T07:26:34Z</time>
      </trkpt>
      <trkpt lat="47.33475" lon="-1.19558">
        <ele>24.1702881</ele>
        <time>2011-09-25T07:26:38Z</time>
      </trkpt>
      <trkpt lat="47.33502" lon="-1.19562">
        <ele>27.5349121</ele>
        <time>2011-09-25T07:26:52Z</time>
      </trkpt>
      <trkpt lat="47.3351" lon="-1.19563">
        <ele>28.9769287</ele>
        <time>2011-09-25T07:26:56Z</time>
      </trkpt>
      <trkpt lat="47.33514" lon="-1.19568">
        <ele>31.380127</ele>
        <time>2011-09-25T07:27:06Z</time>
      </trkpt>
      <trkpt lat="47.33514" lon="-1.19579">
        <ele>32.8222656</ele>
        <time>2011-09-25T07:27:12Z</time>
      </trkpt>
      <trkpt lat="47.33515" lon="-1.19581">
        <ele>33.3028564</ele>
        <time>2011-09-25T07:27:13Z</time>
      </trkpt>
      <trkpt lat="47.33518" lon="-1.19583">
        <ele>34.2641602</ele>
        <time>2011-09-25T07:27:15Z</time>
      </trkpt>
      <trkpt lat="47.33528" lon="-1.19607">
        <ele>37.6286621</ele>
        <time>2011-09-25T07:27:25Z</time>
      </trkpt>
      <trkpt lat="47.33529" lon="-1.19609">
        <ele>37.6286621</ele>
        <time>2011-09-25T07:27:26Z</time>
      </trkpt>
      <trkpt lat="47.33534" lon="-1.19629">
        <ele>40.9934082</ele>
        <time>2011-09-25T07:27:34Z</time>
      </trkpt>
      <trkpt lat="47.33539" lon="-1.1966">
        <ele>44.3580322</ele>
        <time>2011-09-25T07:27:47Z</time>
      </trkpt>
      <trkpt lat="47.33545" lon="-1.19685">
        <ele>47.7225342</ele>
        <time>2011-09-25T07:28:00Z</time>
      </trkpt>
      <trkpt lat="47.33545" lon="-1.19686">
        <ele>47.7225342</ele>
        <time>2011-09-25T07:28:01Z</time>
      </trkpt>
      <trkpt lat="47.33549" lon="-1.19727">
        <ele>51.0871582</ele>
        <time>2011-09-25T07:28:19Z</time>
      </trkpt>
      <trkpt lat="47.33554" lon="-1.19768">
        <ele>54.4517822</ele>
        <time>2011-09-25T07:28:35Z</time>
      </trkpt>
      <trkpt lat="47.33558" lon="-1.19779">
        <ele>54.932373</ele>
        <time>2011-09-25T07:28:43Z</time>
      </trkpt>
      <trkpt lat="47.33556" lon="-1.1978">
        <ele>54.932373</ele>
        <time>2011-09-25T07:28:53Z</time>
      </trkpt>
      <trkpt lat="47.33556" lon="-1.19779">
        <ele>55.4130859</ele>
        <time>2011-09-25T07:29:20Z</time>
      </trkpt>
      <trkpt lat="47.33592" lon="-1.19777">
        <ele>52.5291748</ele>
        <time>2011-09-25T07:29:34Z</time>
      </trkpt>
      <trkpt lat="47.33654" lon="-1.19772">
        <ele>51.5678711</ele>
        <time>2011-09-25T07:29:51Z</time>
      </trkpt>
      <trkpt lat="47.33753" lon="-1.19751">
        <ele>53.4904785</ele>
        <time>2011-09-25T07:30:19Z</time>
      </trkpt>
      <trkpt lat="47.33787" lon="-1.19727">
        <ele>52.5291748</ele>
        <time>2011-09-25T07:30:29Z</time>
      </trkpt>
      <trkpt lat="47.33798" lon="-1.19677">
        <ele>50.1259766</ele>
        <time>2011-09-25T07:30:37Z</time>
      </trkpt>
      <trkpt lat="47.33789" lon="-1.19587">
        <ele>46.7612305</ele>
        <time>2011-09-25T07:30:48Z</time>
      </trkpt>
      <trkpt lat="47.33787" lon="-1.19546">
        <ele>45.7999268</ele>
        <time>2011-09-25T07:30:53Z</time>
      </trkpt>
      <trkpt lat="47.33802" lon="-1.19524">
        <ele>46.7612305</ele>
        <time>2011-09-25T07:30:59Z</time>
      </trkpt>
      <trkpt lat="47.33876" lon="-1.19526">
        <ele>47.7225342</ele>
        <time>2011-09-25T07:31:19Z</time>
      </trkpt>
      <trkpt lat="47.33964" lon="-1.19541">
        <ele>49.1645508</ele>
        <time>2011-09-25T07:31:39Z</time>
      </trkpt>
      <trkpt lat="47.34025" lon="-1.19575">
        <ele>49.6452637</ele>
        <time>2011-09-25T07:31:53Z</time>
      </trkpt>
      <trkpt lat="47.34068" lon="-1.19564">
        <ele>50.1259766</ele>
        <time>2011-09-25T07:32:02Z</time>
      </trkpt>
      <trkpt lat="47.34091" lon="-1.19535">
        <ele>49.1645508</ele>
        <time>2011-09-25T07:32:08Z</time>
      </trkpt>
      <trkpt lat="47.34106" lon="-1.19504">
        <ele>48.2033691</ele>
        <time>2011-09-25T07:32:13Z</time>
      </trkpt>
      <trkpt lat="47.34131" lon="-1.19473">
        <ele>47.2418213</ele>
        <time>2011-09-25T07:32:19Z</time>
      </trkpt>
      <trkpt lat="47.34147" lon="-1.19479">
        <ele>48.2033691</ele>
        <time>2011-09-25T07:32:26Z</time>
      </trkpt>
      <trkpt lat="47.34145" lon="-1.19484">
        <ele>48.68396</ele>
        <time>2011-09-25T07:32:27Z</time>
      </trkpt>
      <trkpt lat="47.34155" lon="-1.19502">
        <ele>49.1645508</ele>
        <time>2011-09-25T07:32:33Z</time>
      </trkpt>
      <trkpt lat="47.34195" lon="-1.19497">
        <ele>49.6452637</ele>
        <time>2011-09-25T07:32:42Z</time>
      </trkpt>
      <trkpt lat="47.34212" lon="-1.19513">
        <ele>49.6452637</ele>
        <time>2011-09-25T07:32:48Z</time>
      </trkpt>
      <trkpt lat="47.3419" lon="-1.19615">
        <ele>50.1259766</ele>
        <time>2011-09-25T07:33:07Z</time>
      </trkpt>
      <trkpt lat="47.34176" lon="-1.19648">
        <ele>50.6065674</ele>
        <time>2011-09-25T07:33:14Z</time>
      </trkpt>
      <trkpt lat="47.34164" lon="-1.19756">
        <ele>50.6065674</ele>
        <time>2011-09-25T07:33:31Z</time>
      </trkpt>
      <trkpt lat="47.34156" lon="-1.19803">
        <ele>51.0871582</ele>
        <time>2011-09-25T07:33:40Z</time>
      </trkpt>
      <trkpt lat="47.34165" lon="-1.19813">
        <ele>50.6065674</ele>
        <time>2011-09-25T07:33:44Z</time>
      </trkpt>
      <trkpt lat="47.34217" lon="-1.19819">
        <ele>46.7612305</ele>
        <time>2011-09-25T07:33:55Z</time>
      </trkpt>
      <trkpt lat="47.34253" lon="-1.19826">
        <ele>42.9160156</ele>
        <time>2011-09-25T07:34:02Z</time>
      </trkpt>
      <trkpt lat="47.34256" lon="-1.19826">
        <ele>42.4354248</ele>
        <time>2011-09-25T07:34:03Z</time>
      </trkpt>
      <trkpt lat="47.34263" lon="-1.19798">
        <ele>42.4354248</ele>
        <time>2011-09-25T07:34:10Z</time>
      </trkpt>
      <trkpt lat="47.34266" lon="-1.19763">
        <ele>42.4354248</ele>
        <time>2011-09-25T07:34:17Z</time>
      </trkpt>
      <trkpt lat="47.34276" lon="-1.19737">
        <ele>39.5512695</ele>
        <time>2011-09-25T07:34:21Z</time>
      </trkpt>
      <trkpt lat="47.34279" lon="-1.1973">
        <ele>39.5512695</ele>
        <time>2011-09-25T07:34:22Z</time>
      </trkpt>
      <trkpt lat="47.34314" lon="-1.19644">
        <ele>36.1867676</ele>
        <time>2011-09-25T07:34:33Z</time>
      </trkpt>
      <trkpt lat="47.34333" lon="-1.19565">
        <ele>35.2254639</ele>
        <time>2011-09-25T07:34:43Z</time>
      </trkpt>
      <trkpt lat="47.34333" lon="-1.19451">
        <ele>34.744873</ele>
        <time>2011-09-25T07:34:58Z</time>
      </trkpt>
      <trkpt lat="47.3434" lon="-1.19375">
        <ele>37.1480713</ele>
        <time>2011-09-25T07:35:09Z</time>
      </trkpt>
      <trkpt lat="47.34342" lon="-1.19371">
        <ele>37.6286621</ele>
        <time>2011-09-25T07:35:10Z</time>
      </trkpt>
      <trkpt lat="47.34359" lon="-1.19356">
        <ele>34.2641602</ele>
        <time>2011-09-25T07:35:14Z</time>
      </trkpt>
      <trkpt lat="47.34367" lon="-1.19331">
        <ele>32.8222656</ele>
        <time>2011-09-25T07:35:17Z</time>
      </trkpt>
      <trkpt lat="47.34368" lon="-1.19313">
        <ele>33.3028564</ele>
        <time>2011-09-25T07:35:19Z</time>
      </trkpt>
      <trkpt lat="47.34372" lon="-1.19232">
        <ele>34.2641602</ele>
        <time>2011-09-25T07:35:30Z</time>
      </trkpt>
      <trkpt lat="47.34373" lon="-1.19215">
        <ele>33.3028564</ele>
        <time>2011-09-25T07:35:32Z</time>
      </trkpt>
      <trkpt lat="47.34372" lon="-1.19198">
        <ele>33.7834473</ele>
        <time>2011-09-25T07:35:34Z</time>
      </trkpt>
      <trkpt lat="47.34386" lon="-1.19085">
        <ele>33.7834473</ele>
        <time>2011-09-25T07:35:48Z</time>
      </trkpt>
      <trkpt lat="47.34395" lon="-1.19043">
        <ele>31.8607178</ele>
        <time>2011-09-25T07:35:53Z</time>
      </trkpt>
      <trkpt lat="47.34402" lon="-1.19004">
        <ele>29.4575195</ele>
        <time>2011-09-25T07:35:57Z</time>
      </trkpt>
      <trkpt lat="47.34406" lon="-1.18952">
        <ele>27.5349121</ele>
        <time>2011-09-25T07:36:02Z</time>
      </trkpt>
      <trkpt lat="47.34408" lon="-1.18931">
        <ele>26.5736084</ele>
        <time>2011-09-25T07:36:04Z</time>
      </trkpt>
      <trkpt lat="47.34413" lon="-1.18904">
        <ele>26.0928955</ele>
        <time>2011-09-25T07:36:10Z</time>
      </trkpt>
      <trkpt lat="47.3443" lon="-1.18908">
        <ele>24.651001</ele>
        <time>2011-09-25T07:36:13Z</time>
      </trkpt>
      <trkpt lat="47.34445" lon="-1.1891">
        <ele>22.7282715</ele>
        <time>2011-09-25T07:36:15Z</time>
      </trkpt>
      <trkpt lat="47.34454" lon="-1.1891">
        <ele>19.3637695</ele>
        <time>2011-09-25T07:36:16Z</time>
      </trkpt>
      <trkpt lat="47.34471" lon="-1.18905">
        <ele>16.4797363</ele>
        <time>2011-09-25T07:36:18Z</time>
      </trkpt>
      <trkpt lat="47.34486" lon="-1.1889">
        <ele>14.076416</ele>
        <time>2011-09-25T07:36:20Z</time>
      </trkpt>
      <trkpt lat="47.34496" lon="-1.18866">
        <ele>11.1925049</ele>
        <time>2011-09-25T07:36:22Z</time>
      </trkpt>
      <trkpt lat="47.34502" lon="-1.18848">
        <ele>9.7506104</ele>
        <time>2011-09-25T07:36:24Z</time>
      </trkpt>
      <trkpt lat="47.34507" lon="-1.18833">
        <ele>10.711792</ele>
        <time>2011-09-25T07:36:29Z</time>
      </trkpt>
      <trkpt lat="47.34519" lon="-1.18821">
        <ele>9.7506104</ele>
        <time>2011-09-25T07:36:34Z</time>
      </trkpt>
      <trkpt lat="47.34527" lon="-1.18812">
        <ele>7.8278809</ele>
        <time>2011-09-25T07:36:36Z</time>
      </trkpt>
      <trkpt lat="47.34532" lon="-1.18807">
        <ele>6.8664551</ele>
        <time>2011-09-25T07:36:37Z</time>
      </trkpt>
      <trkpt lat="47.34537" lon="-1.18757">
        <ele>5.4245605</ele>
        <time>2011-09-25T07:36:45Z</time>
      </trkpt>
      <trkpt lat="47.34534" lon="-1.1868">
        <ele>3.982666</ele>
        <time>2011-09-25T07:36:56Z</time>
      </trkpt>
      <trkpt lat="47.34539" lon="-1.18629">
        <ele>3.5019531</ele>
        <time>2011-09-25T07:37:03Z</time>
      </trkpt>
      <trkpt lat="47.34548" lon="-1.18587">
        <ele>3.5019531</ele>
        <time>2011-09-25T07:37:09Z</time>
      </trkpt>
      <trkpt lat="47.34555" lon="-1.18558">
        <ele>3.5019531</ele>
        <time>2011-09-25T07:37:13Z</time>
      </trkpt>
      <trkpt lat="47.34562" lon="-1.18522">
        <ele>3.0212402</ele>
        <time>2011-09-25T07:37:18Z</time>
      </trkpt>
      <trkpt lat="47.34572" lon="-1.18494">
        <ele>3.0212402</ele>
        <time>2011-09-25T07:37:22Z</time>
      </trkpt>
      <trkpt lat="47.34581" lon="-1.18475">
        <ele>3.0212402</ele>
        <time>2011-09-25T07:37:25Z</time>
      </trkpt>
      <trkpt lat="47.34624" lon="-1.18377">
        <ele>3.5019531</ele>
        <time>2011-09-25T07:37:41Z</time>
      </trkpt>
      <trkpt lat="47.34632" lon="-1.18359">
        <ele>3.5019531</ele>
        <time>2011-09-25T07:37:44Z</time>
      </trkpt>
      <trkpt lat="47.34656" lon="-1.18301">
        <ele>3.982666</ele>
        <time>2011-09-25T07:37:54Z</time>
      </trkpt>
      <trkpt lat="47.34664" lon="-1.18281">
        <ele>3.5019531</ele>
        <time>2011-09-25T07:37:57Z</time>
      </trkpt>
      <trkpt lat="47.34678" lon="-1.18252">
        <ele>4.4632568</ele>
        <time>2011-09-25T07:38:02Z</time>
      </trkpt>
      <trkpt lat="47.34692" lon="-1.18222">
        <ele>3.982666</ele>
        <time>2011-09-25T07:38:08Z</time>
      </trkpt>
      <trkpt lat="47.34693" lon="-1.18194">
        <ele>3.982666</ele>
        <time>2011-09-25T07:38:12Z</time>
      </trkpt>
      <trkpt lat="47.34692" lon="-1.1818">
        <ele>3.5019531</ele>
        <time>2011-09-25T07:38:14Z</time>
      </trkpt>
      <trkpt lat="47.3469" lon="-1.18124">
        <ele>3.982666</ele>
        <time>2011-09-25T07:38:21Z</time>
      </trkpt>
      <trkpt lat="47.3469" lon="-1.18079">
        <ele>3.982666</ele>
        <time>2011-09-25T07:38:27Z</time>
      </trkpt>
      <trkpt lat="47.34683" lon="-1.18044">
        <ele>3.982666</ele>
        <time>2011-09-25T07:38:32Z</time>
      </trkpt>
      <trkpt lat="47.3468" lon="-1.1801">
        <ele>3.982666</ele>
        <time>2011-09-25T07:38:37Z</time>
      </trkpt>
      <trkpt lat="47.34671" lon="-1.1796">
        <ele>3.982666</ele>
        <time>2011-09-25T07:38:43Z</time>
      </trkpt>
      <trkpt lat="47.34669" lon="-1.1793">
        <ele>3.982666</ele>
        <time>2011-09-25T07:38:47Z</time>
      </trkpt>
      <trkpt lat="47.34665" lon="-1.17903">
        <ele>3.982666</ele>
        <time>2011-09-25T07:38:51Z</time>
      </trkpt>
      <trkpt lat="47.34665" lon="-1.17877">
        <ele>3.982666</ele>
        <time>2011-09-25T07:38:54Z</time>
      </trkpt>
      <trkpt lat="47.34662" lon="-1.17747">
        <ele>3.982666</ele>
        <time>2011-09-25T07:39:11Z</time>
      </trkpt>
      <trkpt lat="47.34658" lon="-1.17717">
        <ele>3.982666</ele>
        <time>2011-09-25T07:39:15Z</time>
      </trkpt>
      <trkpt lat="47.3464" lon="-1.17687">
        <ele>3.5019531</ele>
        <time>2011-09-25T07:39:20Z</time>
      </trkpt>
      <trkpt lat="47.34629" lon="-1.17653">
        <ele>3.5019531</ele>
        <time>2011-09-25T07:39:25Z</time>
      </trkpt>
      <trkpt lat="47.34624" lon="-1.17612">
        <ele>3.982666</ele>
        <time>2011-09-25T07:39:31Z</time>
      </trkpt>
      <trkpt lat="47.34621" lon="-1.17599">
        <ele>3.982666</ele>
        <time>2011-09-25T07:39:33Z</time>
      </trkpt>
      <trkpt lat="47.34596" lon="-1.17588">
        <ele>3.982666</ele>
        <time>2011-09-25T07:39:39Z</time>
      </trkpt>
      <trkpt lat="47.34559" lon="-1.1762">
        <ele>3.5019531</ele>
        <time>2011-09-25T07:39:49Z</time>
      </trkpt>
      <trkpt lat="47.34526" lon="-1.17628">
        <ele>6.8664551</ele>
        <time>2011-09-25T07:39:57Z</time>
      </trkpt>
      <trkpt lat="47.34522" lon="-1.17628">
        <ele>6.8664551</ele>
        <time>2011-09-25T07:39:58Z</time>
      </trkpt>
      <trkpt lat="47.3451" lon="-1.17632">
        <ele>8.3085938</ele>
        <time>2011-09-25T07:40:03Z</time>
      </trkpt>
      <trkpt lat="47.34507" lon="-1.17633">
        <ele>9.2698975</ele>
        <time>2011-09-25T07:40:05Z</time>
      </trkpt>
      <trkpt lat="47.34505" lon="-1.17635">
        <ele>8.7891846</ele>
        <time>2011-09-25T07:40:13Z</time>
      </trkpt>
      <trkpt lat="47.34473" lon="-1.17641">
        <ele>9.2698975</ele>
        <time>2011-09-25T07:40:25Z</time>
      </trkpt>
      <trkpt lat="47.34441" lon="-1.17658">
        <ele>10.711792</ele>
        <time>2011-09-25T07:40:40Z</time>
      </trkpt>
      <trkpt lat="47.34417" lon="-1.17657">
        <ele>14.076416</ele>
        <time>2011-09-25T07:40:54Z</time>
      </trkpt>
      <trkpt lat="47.34407" lon="-1.17658">
        <ele>16.4797363</ele>
        <time>2011-09-25T07:41:01Z</time>
      </trkpt>
      <trkpt lat="47.34412" lon="-1.17646">
        <ele>17.4411621</ele>
        <time>2011-09-25T07:41:09Z</time>
      </trkpt>
      <trkpt lat="47.34431" lon="-1.17621">
        <ele>20.8056641</ele>
        <time>2011-09-25T07:41:26Z</time>
      </trkpt>
      <trkpt lat="47.34443" lon="-1.17584">
        <ele>23.6895752</ele>
        <time>2011-09-25T07:41:41Z</time>
      </trkpt>
      <trkpt lat="47.34453" lon="-1.17536">
        <ele>24.651001</ele>
        <time>2011-09-25T07:42:01Z</time>
      </trkpt>
      <trkpt lat="47.34447" lon="-1.17486">
        <ele>27.0543213</ele>
        <time>2011-09-25T07:42:20Z</time>
      </trkpt>
      <trkpt lat="47.34443" lon="-1.17452">
        <ele>29.4575195</ele>
        <time>2011-09-25T07:42:32Z</time>
      </trkpt>
      <trkpt lat="47.34448" lon="-1.17437">
        <ele>29.4575195</ele>
        <time>2011-09-25T07:42:37Z</time>
      </trkpt>
      <trkpt lat="47.34453" lon="-1.1743">
        <ele>28.9769287</ele>
        <time>2011-09-25T07:42:39Z</time>
      </trkpt>
      <trkpt lat="47.34456" lon="-1.1742">
        <ele>27.5349121</ele>
        <time>2011-09-25T07:42:41Z</time>
      </trkpt>
      <trkpt lat="47.34456" lon="-1.17408">
        <ele>27.5349121</ele>
        <time>2011-09-25T07:42:43Z</time>
      </trkpt>
      <trkpt lat="47.3446" lon="-1.1735">
        <ele>26.0928955</ele>
        <time>2011-09-25T07:42:53Z</time>
      </trkpt>
      <trkpt lat="47.34458" lon="-1.17313">
        <ele>25.6123047</ele>
        <time>2011-09-25T07:42:59Z</time>
      </trkpt>
      <trkpt lat="47.34464" lon="-1.17251">
        <ele>22.7282715</ele>
        <time>2011-09-25T07:43:08Z</time>
      </trkpt>
      <trkpt lat="47.34463" lon="-1.17221">
        <ele>21.286377</ele>
        <time>2011-09-25T07:43:12Z</time>
      </trkpt>
      <trkpt lat="47.34461" lon="-1.17205">
        <ele>21.286377</ele>
        <time>2011-09-25T07:43:14Z</time>
      </trkpt>
      <trkpt lat="47.34469" lon="-1.17187">
        <ele>19.8443604</ele>
        <time>2011-09-25T07:43:19Z</time>
      </trkpt>
      <trkpt lat="47.34476" lon="-1.17187">
        <ele>18.4023438</ele>
        <time>2011-09-25T07:43:21Z</time>
      </trkpt>
      <trkpt lat="47.34484" lon="-1.17189">
        <ele>17.4411621</ele>
        <time>2011-09-25T07:43:23Z</time>
      </trkpt>
      <trkpt lat="47.34495" lon="-1.17182">
        <ele>14.5570068</ele>
        <time>2011-09-25T07:43:26Z</time>
      </trkpt>
      <trkpt lat="47.34497" lon="-1.17167">
        <ele>12.1538086</ele>
        <time>2011-09-25T07:43:28Z</time>
      </trkpt>
      <trkpt lat="47.34499" lon="-1.17145">
        <ele>10.2312012</ele>
        <time>2011-09-25T07:43:31Z</time>
      </trkpt>
      <trkpt lat="47.3449" lon="-1.17136">
        <ele>11.1925049</ele>
        <time>2011-09-25T07:43:36Z</time>
      </trkpt>
      <trkpt lat="47.34463" lon="-1.17141">
        <ele>14.076416</ele>
        <time>2011-09-25T07:43:50Z</time>
      </trkpt>
      <trkpt lat="47.34449" lon="-1.17143">
        <ele>15.5184326</ele>
        <time>2011-09-25T07:44:04Z</time>
      </trkpt>
      <trkpt lat="47.34449" lon="-1.17145">
        <ele>15.9990234</ele>
        <time>2011-09-25T07:44:19Z</time>
      </trkpt>
      <trkpt lat="47.34449" lon="-1.17144">
        <ele>15.5184326</ele>
        <time>2011-09-25T07:45:27Z</time>
      </trkpt>
      <trkpt lat="47.34448" lon="-1.17144">
        <ele>15.9990234</ele>
        <time>2011-09-25T07:45:43Z</time>
      </trkpt>
      <trkpt lat="47.34449" lon="-1.17144">
        <ele>15.5184326</ele>
        <time>2011-09-25T07:46:05Z</time>
      </trkpt>
      <trkpt lat="47.34449" lon="-1.17145">
        <ele>15.9990234</ele>
        <time>2011-09-25T07:46:10Z</time>
      </trkpt>
      <trkpt lat="47.34422" lon="-1.17149">
        <ele>17.9217529</ele>
        <time>2011-09-25T07:46:24Z</time>
      </trkpt>
      <trkpt lat="47.34391" lon="-1.17153">
        <ele>21.286377</ele>
        <time>2011-09-25T07:46:35Z</time>
      </trkpt>
      <trkpt lat="47.34359" lon="-1.17161">
        <ele>24.1702881</ele>
        <time>2011-09-25T07:46:47Z</time>
      </trkpt>
      <trkpt lat="47.34349" lon="-1.17143">
        <ele>27.0543213</ele>
        <time>2011-09-25T07:46:54Z</time>
      </trkpt>
      <trkpt lat="47.34324" lon="-1.17136">
        <ele>29.9381104</ele>
        <time>2011-09-25T07:47:05Z</time>
      </trkpt>
      <trkpt lat="47.34294" lon="-1.17142">
        <ele>33.3028564</ele>
        <time>2011-09-25T07:47:19Z</time>
      </trkpt>
      <trkpt lat="47.34256" lon="-1.17181">
        <ele>36.1867676</ele>
        <time>2011-09-25T07:47:38Z</time>
      </trkpt>
      <trkpt lat="47.34223" lon="-1.17217">
        <ele>39.0706787</ele>
        <time>2011-09-25T07:47:55Z</time>
      </trkpt>
      <trkpt lat="47.34206" lon="-1.17263">
        <ele>41.9547119</ele>
        <time>2011-09-25T07:48:11Z</time>
      </trkpt>
      <trkpt lat="47.34191" lon="-1.1728">
        <ele>45.3192139</ele>
        <time>2011-09-25T07:48:19Z</time>
      </trkpt>
      <trkpt lat="47.34189" lon="-1.17283">
        <ele>45.3192139</ele>
        <time>2011-09-25T07:48:20Z</time>
      </trkpt>
      <trkpt lat="47.34167" lon="-1.17288">
        <ele>48.68396</ele>
        <time>2011-09-25T07:48:31Z</time>
      </trkpt>
      <trkpt lat="47.3416" lon="-1.17285">
        <ele>49.6452637</ele>
        <time>2011-09-25T07:48:34Z</time>
      </trkpt>
      <trkpt lat="47.3415" lon="-1.17277">
        <ele>52.5291748</ele>
        <time>2011-09-25T07:48:39Z</time>
      </trkpt>
      <trkpt lat="47.34142" lon="-1.17273">
        <ele>53.4904785</ele>
        <time>2011-09-25T07:48:44Z</time>
      </trkpt>
      <trkpt lat="47.34133" lon="-1.17275">
        <ele>53.9711914</ele>
        <time>2011-09-25T07:48:49Z</time>
      </trkpt>
      <trkpt lat="47.34127" lon="-1.17269">
        <ele>55.8937988</ele>
        <time>2011-09-25T07:48:54Z</time>
      </trkpt>
      <trkpt lat="47.3412" lon="-1.17217">
        <ele>55.8937988</ele>
        <time>2011-09-25T07:49:13Z</time>
      </trkpt>
      <trkpt lat="47.34113" lon="-1.17145">
        <ele>55.8937988</ele>
        <time>2011-09-25T07:49:30Z</time>
      </trkpt>
      <trkpt lat="47.34098" lon="-1.17012">
        <ele>57.3358154</ele>
        <time>2011-09-25T07:49:57Z</time>
      </trkpt>
      <trkpt lat="47.34085" lon="-1.16916">
        <ele>56.3745117</ele>
        <time>2011-09-25T07:50:14Z</time>
      </trkpt>
      <trkpt lat="47.34082" lon="-1.16879">
        <ele>55.8937988</ele>
        <time>2011-09-25T07:50:20Z</time>
      </trkpt>
      <trkpt lat="47.34083" lon="-1.16854">
        <ele>55.4130859</ele>
        <time>2011-09-25T07:50:24Z</time>
      </trkpt>
      <trkpt lat="47.34091" lon="-1.16807">
        <ele>54.4517822</ele>
        <time>2011-09-25T07:50:31Z</time>
      </trkpt>
      <trkpt lat="47.34098" lon="-1.16741">
        <ele>52.5291748</ele>
        <time>2011-09-25T07:50:40Z</time>
      </trkpt>
      <trkpt lat="47.34092" lon="-1.1671">
        <ele>53.4904785</ele>
        <time>2011-09-25T07:50:47Z</time>
      </trkpt>
      <trkpt lat="47.34091" lon="-1.1671">
        <ele>53.9711914</ele>
        <time>2011-09-25T07:50:48Z</time>
      </trkpt>
      <trkpt lat="47.34088" lon="-1.16709">
        <ele>53.4904785</ele>
        <time>2011-09-25T07:50:51Z</time>
      </trkpt>
      <trkpt lat="47.34091" lon="-1.16689">
        <ele>52.048584</ele>
        <time>2011-09-25T07:50:56Z</time>
      </trkpt>
      <trkpt lat="47.34092" lon="-1.16683">
        <ele>52.048584</ele>
        <time>2011-09-25T07:50:57Z</time>
      </trkpt>
      <trkpt lat="47.34095" lon="-1.16638">
        <ele>52.048584</ele>
        <time>2011-09-25T07:51:08Z</time>
      </trkpt>
      <trkpt lat="47.34098" lon="-1.16598">
        <ele>50.6065674</ele>
        <time>2011-09-25T07:51:17Z</time>
      </trkpt>
      <trkpt lat="47.34106" lon="-1.16496">
        <ele>47.7225342</ele>
        <time>2011-09-25T07:51:31Z</time>
      </trkpt>
      <trkpt lat="47.34106" lon="-1.16479">
        <ele>47.2418213</ele>
        <time>2011-09-25T07:51:33Z</time>
      </trkpt>
      <trkpt lat="47.34114" lon="-1.16423">
        <ele>43.3966064</ele>
        <time>2011-09-25T07:51:39Z</time>
      </trkpt>
      <trkpt lat="47.34115" lon="-1.16413">
        <ele>43.3966064</ele>
        <time>2011-09-25T07:51:40Z</time>
      </trkpt>
      <trkpt lat="47.34106" lon="-1.16396">
        <ele>43.3966064</ele>
        <time>2011-09-25T07:51:45Z</time>
      </trkpt>
      <trkpt lat="47.34098" lon="-1.16397">
        <ele>41.9547119</ele>
        <time>2011-09-25T07:51:47Z</time>
      </trkpt>
      <trkpt lat="47.34089" lon="-1.16398">
        <ele>40.0321045</ele>
        <time>2011-09-25T07:51:49Z</time>
      </trkpt>
      <trkpt lat="47.34081" lon="-1.16401">
        <ele>38.109375</ele>
        <time>2011-09-25T07:51:51Z</time>
      </trkpt>
      <trkpt lat="47.34068" lon="-1.16405">
        <ele>35.7060547</ele>
        <time>2011-09-25T07:51:54Z</time>
      </trkpt>
      <trkpt lat="47.34058" lon="-1.16406">
        <ele>33.7834473</ele>
        <time>2011-09-25T07:51:56Z</time>
      </trkpt>
      <trkpt lat="47.34045" lon="-1.16407">
        <ele>31.380127</ele>
        <time>2011-09-25T07:51:58Z</time>
      </trkpt>
      <trkpt lat="47.34031" lon="-1.1641">
        <ele>27.0543213</ele>
        <time>2011-09-25T07:52:00Z</time>
      </trkpt>
      <trkpt lat="47.34024" lon="-1.16411">
        <ele>27.0543213</ele>
        <time>2011-09-25T07:52:01Z</time>
      </trkpt>
      <trkpt lat="47.34018" lon="-1.16413">
        <ele>26.5736084</ele>
        <time>2011-09-25T07:52:02Z</time>
      </trkpt>
      <trkpt lat="47.33998" lon="-1.16412">
        <ele>23.6895752</ele>
        <time>2011-09-25T07:52:05Z</time>
      </trkpt>
      <trkpt lat="47.33983" lon="-1.16406">
        <ele>19.3637695</ele>
        <time>2011-09-25T07:52:07Z</time>
      </trkpt>
      <trkpt lat="47.33975" lon="-1.16404">
        <ele>19.3637695</ele>
        <time>2011-09-25T07:52:08Z</time>
      </trkpt>
      <trkpt lat="47.33958" lon="-1.164">
        <ele>17.4411621</ele>
        <time>2011-09-25T07:52:10Z</time>
      </trkpt>
      <trkpt lat="47.33939" lon="-1.16395">
        <ele>15.0377197</ele>
        <time>2011-09-25T07:52:12Z</time>
      </trkpt>
      <trkpt lat="47.33922" lon="-1.1639">
        <ele>13.5958252</ele>
        <time>2011-09-25T07:52:14Z</time>
      </trkpt>
      <trkpt lat="47.33909" lon="-1.16385">
        <ele>13.1151123</ele>
        <time>2011-09-25T07:52:16Z</time>
      </trkpt>
      <trkpt lat="47.33841" lon="-1.16401">
        <ele>13.5958252</ele>
        <time>2011-09-25T07:52:28Z</time>
      </trkpt>
      <trkpt lat="47.33829" lon="-1.16384">
        <ele>14.5570068</ele>
        <time>2011-09-25T07:52:38Z</time>
      </trkpt>
      <trkpt lat="47.33819" lon="-1.1637">
        <ele>14.076416</ele>
        <time>2011-09-25T07:52:53Z</time>
      </trkpt>
      <trkpt lat="47.33813" lon="-1.16355">
        <ele>14.5570068</ele>
        <time>2011-09-25T07:53:06Z</time>
      </trkpt>
      <trkpt lat="47.33814" lon="-1.1635">
        <ele>14.5570068</ele>
        <time>2011-09-25T07:53:20Z</time>
      </trkpt>
      <trkpt lat="47.33814" lon="-1.1635">
        <ele>14.5570068</ele>
        <time>2011-09-25T07:53:29Z</time>
      </trkpt>
      <trkpt lat="47.33844" lon="-1.16335">
        <ele>14.076416</ele>
        <time>2011-09-25T07:53:42Z</time>
      </trkpt>
      <trkpt lat="47.33859" lon="-1.16326">
        <ele>14.076416</ele>
        <time>2011-09-25T07:53:52Z</time>
      </trkpt>
      <trkpt lat="47.33873" lon="-1.16321">
        <ele>14.076416</ele>
        <time>2011-09-25T07:54:06Z</time>
      </trkpt>
      <trkpt lat="47.3388" lon="-1.16317">
        <ele>15.9990234</ele>
        <time>2011-09-25T07:54:17Z</time>
      </trkpt>
      <trkpt lat="47.33886" lon="-1.16316">
        <ele>16.4797363</ele>
        <time>2011-09-25T07:54:24Z</time>
      </trkpt>
      <trkpt lat="47.33895" lon="-1.1632">
        <ele>15.5184326</ele>
        <time>2011-09-25T07:54:38Z</time>
      </trkpt>
      <trkpt lat="47.33909" lon="-1.16322">
        <ele>13.1151123</ele>
        <time>2011-09-25T07:54:45Z</time>
      </trkpt>
      <trkpt lat="47.33942" lon="-1.16318">
        <ele>12.6343994</ele>
        <time>2011-09-25T07:54:56Z</time>
      </trkpt>
      <trkpt lat="47.33957" lon="-1.16314">
        <ele>11.6732178</ele>
        <time>2011-09-25T07:55:00Z</time>
      </trkpt>
      <trkpt lat="47.33971" lon="-1.16313">
        <ele>11.1925049</ele>
        <time>2011-09-25T07:55:03Z</time>
      </trkpt>
      <trkpt lat="47.33997" lon="-1.16287">
        <ele>11.1925049</ele>
        <time>2011-09-25T07:55:11Z</time>
      </trkpt>
      <trkpt lat="47.34009" lon="-1.16277">
        <ele>10.711792</ele>
        <time>2011-09-25T07:55:14Z</time>
      </trkpt>
      <trkpt lat="47.34022" lon="-1.16265">
        <ele>11.1925049</ele>
        <time>2011-09-25T07:55:17Z</time>
      </trkpt>
      <trkpt lat="47.34035" lon="-1.1624">
        <ele>10.2312012</ele>
        <time>2011-09-25T07:55:21Z</time>
      </trkpt>
      <trkpt lat="47.34046" lon="-1.16193">
        <ele>9.7506104</ele>
        <time>2011-09-25T07:55:28Z</time>
      </trkpt>
      <trkpt lat="47.34051" lon="-1.16173">
        <ele>9.7506104</ele>
        <time>2011-09-25T07:55:31Z</time>
      </trkpt>
      <trkpt lat="47.34076" lon="-1.16136">
        <ele>9.7506104</ele>
        <time>2011-09-25T07:55:37Z</time>
      </trkpt>
      <trkpt lat="47.34093" lon="-1.16121">
        <ele>10.711792</ele>
        <time>2011-09-25T07:55:41Z</time>
      </trkpt>
      <trkpt lat="47.34102" lon="-1.16109">
        <ele>9.7506104</ele>
        <time>2011-09-25T07:55:44Z</time>
      </trkpt>
      <trkpt lat="47.34146" lon="-1.16087">
        <ele>9.2698975</ele>
        <time>2011-09-25T07:55:55Z</time>
      </trkpt>
      <trkpt lat="47.3416" lon="-1.16082">
        <ele>9.2698975</ele>
        <time>2011-09-25T07:55:58Z</time>
      </trkpt>
      <trkpt lat="47.34199" lon="-1.16095">
        <ele>8.7891846</ele>
        <time>2011-09-25T07:56:07Z</time>
      </trkpt>
      <trkpt lat="47.3421" lon="-1.16103">
        <ele>8.7891846</ele>
        <time>2011-09-25T07:56:10Z</time>
      </trkpt>
      <trkpt lat="47.34232" lon="-1.16108">
        <ele>11.6732178</ele>
        <time>2011-09-25T07:56:15Z</time>
      </trkpt>
      <trkpt lat="47.34244" lon="-1.16108">
        <ele>13.5958252</ele>
        <time>2011-09-25T07:56:18Z</time>
      </trkpt>
      <trkpt lat="47.34291" lon="-1.16097">
        <ele>15.9990234</ele>
        <time>2011-09-25T07:56:31Z</time>
      </trkpt>
      <trkpt lat="47.34333" lon="-1.16084">
        <ele>15.5184326</ele>
        <time>2011-09-25T07:56:42Z</time>
      </trkpt>
      <trkpt lat="47.34362" lon="-1.16088">
        <ele>13.1151123</ele>
        <time>2011-09-25T07:56:48Z</time>
      </trkpt>
      <trkpt lat="47.34375" lon="-1.16091">
        <ele>11.1925049</ele>
        <time>2011-09-25T07:56:50Z</time>
      </trkpt>
      <trkpt lat="47.3439" lon="-1.16094">
        <ele>8.7891846</ele>
        <time>2011-09-25T07:56:52Z</time>
      </trkpt>
      <trkpt lat="47.34419" lon="-1.16095">
        <ele>7.8278809</ele>
        <time>2011-09-25T07:56:56Z</time>
      </trkpt>
      <trkpt lat="47.34431" lon="-1.16126">
        <ele>8.7891846</ele>
        <time>2011-09-25T07:57:03Z</time>
      </trkpt>
      <trkpt lat="47.34429" lon="-1.16131">
        <ele>8.7891846</ele>
        <time>2011-09-25T07:57:04Z</time>
      </trkpt>
      <trkpt lat="47.34425" lon="-1.16138">
        <ele>9.2698975</ele>
        <time>2011-09-25T07:57:06Z</time>
      </trkpt>
      <trkpt lat="47.34423" lon="-1.16149">
        <ele>9.2698975</ele>
        <time>2011-09-25T07:57:14Z</time>
      </trkpt>
      <trkpt lat="47.34423" lon="-1.16151">
        <ele>9.2698975</ele>
        <time>2011-09-25T08:02:47Z</time>
      </trkpt>
      <trkpt lat="47.34423" lon="-1.16154">
        <ele>9.2698975</ele>
        <time>2011-09-25T08:04:01Z</time>
      </trkpt>
      <trkpt lat="47.34426" lon="-1.16153">
        <ele>10.2312012</ele>
        <time>2011-09-25T08:04:21Z</time>
      </trkpt>
      <trkpt lat="47.34429" lon="-1.16156">
        <ele>9.2698975</ele>
        <time>2011-09-25T08:04:24Z</time>
      </trkpt>
      <trkpt lat="47.34452" lon="-1.16164">
        <ele>10.2312012</ele>
        <time>2011-09-25T08:04:37Z</time>
      </trkpt>
      <trkpt lat="47.34468" lon="-1.16187">
        <ele>11.6732178</ele>
        <time>2011-09-25T08:04:47Z</time>
      </trkpt>
      <trkpt lat="47.3447" lon="-1.16185">
        <ele>11.6732178</ele>
        <time>2011-09-25T08:04:48Z</time>
      </trkpt>
      <trkpt lat="47.34498" lon="-1.1613">
        <ele>13.5958252</ele>
        <time>2011-09-25T08:05:06Z</time>
      </trkpt>
      <trkpt lat="47.34513" lon="-1.16071">
        <ele>15.0377197</ele>
        <time>2011-09-25T08:05:22Z</time>
      </trkpt>
      <trkpt lat="47.34528" lon="-1.15975">
        <ele>15.5184326</ele>
        <time>2011-09-25T08:05:46Z</time>
      </trkpt>
      <trkpt lat="47.34522" lon="-1.15861">
        <ele>15.0377197</ele>
        <time>2011-09-25T08:06:05Z</time>
      </trkpt>
      <trkpt lat="47.34505" lon="-1.15764">
        <ele>16.9604492</ele>
        <time>2011-09-25T08:06:23Z</time>
      </trkpt>
      <trkpt lat="47.3453" lon="-1.15719">
        <ele>16.4797363</ele>
        <time>2011-09-25T08:06:34Z</time>
      </trkpt>
      <trkpt lat="47.34528" lon="-1.15635">
        <ele>17.4411621</ele>
        <time>2011-09-25T08:06:49Z</time>
      </trkpt>
      <trkpt lat="47.34534" lon="-1.15557">
        <ele>18.4023438</ele>
        <time>2011-09-25T08:07:03Z</time>
      </trkpt>
      <trkpt lat="47.34569" lon="-1.15553">
        <ele>18.8830566</ele>
        <time>2011-09-25T08:07:13Z</time>
      </trkpt>
      <trkpt lat="47.3458" lon="-1.15556">
        <ele>18.4023438</ele>
        <time>2011-09-25T08:07:16Z</time>
      </trkpt>
      <trkpt lat="47.34677" lon="-1.15579">
        <ele>15.0377197</ele>
        <time>2011-09-25T08:07:37Z</time>
      </trkpt>
      <trkpt lat="47.34777" lon="-1.15604">
        <ele>11.6732178</ele>
        <time>2011-09-25T08:07:56Z</time>
      </trkpt>
      <trkpt lat="47.34782" lon="-1.15606">
        <ele>11.6732178</ele>
        <time>2011-09-25T08:07:57Z</time>
      </trkpt>
      <trkpt lat="47.34807" lon="-1.15612">
        <ele>11.1925049</ele>
        <time>2011-09-25T08:08:02Z</time>
      </trkpt>
      <trkpt lat="47.34841" lon="-1.15596">
        <ele>9.7506104</ele>
        <time>2011-09-25T08:08:10Z</time>
      </trkpt>
      <trkpt lat="47.34853" lon="-1.15601">
        <ele>9.2698975</ele>
        <time>2011-09-25T08:08:13Z</time>
      </trkpt>
      <trkpt lat="47.34867" lon="-1.15611">
        <ele>9.2698975</ele>
        <time>2011-09-25T08:08:17Z</time>
      </trkpt>
      <trkpt lat="47.34887" lon="-1.15619">
        <ele>8.3085938</ele>
        <time>2011-09-25T08:08:22Z</time>
      </trkpt>
      <trkpt lat="47.34939" lon="-1.15647">
        <ele>4.9438477</ele>
        <time>2011-09-25T08:08:33Z</time>
      </trkpt>
      <trkpt lat="47.3495" lon="-1.15654">
        <ele>4.9438477</ele>
        <time>2011-09-25T08:08:36Z</time>
      </trkpt>
      <trkpt lat="47.34965" lon="-1.15636">
        <ele>3.982666</ele>
        <time>2011-09-25T08:08:42Z</time>
      </trkpt>
      <trkpt lat="47.34977" lon="-1.15609">
        <ele>3.5019531</ele>
        <time>2011-09-25T08:08:47Z</time>
      </trkpt>
      <trkpt lat="47.34983" lon="-1.15593">
        <ele>3.5019531</ele>
        <time>2011-09-25T08:08:50Z</time>
      </trkpt>
      <trkpt lat="47.34987" lon="-1.1558">
        <ele>3.982666</ele>
        <time>2011-09-25T08:08:52Z</time>
      </trkpt>
      <trkpt lat="47.34997" lon="-1.15538">
        <ele>3.0212402</ele>
        <time>2011-09-25T08:08:59Z</time>
      </trkpt>
      <trkpt lat="47.35006" lon="-1.15508">
        <ele>3.5019531</ele>
        <time>2011-09-25T08:09:04Z</time>
      </trkpt>
      <trkpt lat="47.3502" lon="-1.15449">
        <ele>3.0212402</ele>
        <time>2011-09-25T08:09:13Z</time>
      </trkpt>
      <trkpt lat="47.35017" lon="-1.15343">
        <ele>4.4632568</ele>
        <time>2011-09-25T08:09:30Z</time>
      </trkpt>
      <trkpt lat="47.35015" lon="-1.15331">
        <ele>4.4632568</ele>
        <time>2011-09-25T08:09:32Z</time>
      </trkpt>
      <trkpt lat="47.35009" lon="-1.15307">
        <ele>5.9052734</ele>
        <time>2011-09-25T08:09:36Z</time>
      </trkpt>
      <trkpt lat="47.35002" lon="-1.1529">
        <ele>4.9438477</ele>
        <time>2011-09-25T08:09:39Z</time>
      </trkpt>
      <trkpt lat="47.35005" lon="-1.15199">
        <ele>5.9052734</ele>
        <time>2011-09-25T08:09:54Z</time>
      </trkpt>
      <trkpt lat="47.35015" lon="-1.15109">
        <ele>5.9052734</ele>
        <time>2011-09-25T08:10:09Z</time>
      </trkpt>
      <trkpt lat="47.35019" lon="-1.15076">
        <ele>5.9052734</ele>
        <time>2011-09-25T08:10:15Z</time>
      </trkpt>
      <trkpt lat="47.35022" lon="-1.15005">
        <ele>6.3858643</ele>
        <time>2011-09-25T08:10:28Z</time>
      </trkpt>
      <trkpt lat="47.35012" lon="-1.14993">
        <ele>5.9052734</ele>
        <time>2011-09-25T08:10:32Z</time>
      </trkpt>
      <trkpt lat="47.34971" lon="-1.1495">
        <ele>8.3085938</ele>
        <time>2011-09-25T08:10:47Z</time>
      </trkpt>
      <trkpt lat="47.34942" lon="-1.14911">
        <ele>11.1925049</ele>
        <time>2011-09-25T08:11:00Z</time>
      </trkpt>
      <trkpt lat="47.34937" lon="-1.14902">
        <ele>11.1925049</ele>
        <time>2011-09-25T08:11:03Z</time>
      </trkpt>
      <trkpt lat="47.34964" lon="-1.14885">
        <ele>9.2698975</ele>
        <time>2011-09-25T08:11:12Z</time>
      </trkpt>
      <trkpt lat="47.35014" lon="-1.14865">
        <ele>5.9052734</ele>
        <time>2011-09-25T08:11:21Z</time>
      </trkpt>
      <trkpt lat="47.3502" lon="-1.14863">
        <ele>5.9052734</ele>
        <time>2011-09-25T08:11:22Z</time>
      </trkpt>
      <trkpt lat="47.35042" lon="-1.14831">
        <ele>5.4245605</ele>
        <time>2011-09-25T08:11:28Z</time>
      </trkpt>
      <trkpt lat="47.35056" lon="-1.14707">
        <ele>4.4632568</ele>
        <time>2011-09-25T08:11:44Z</time>
      </trkpt>
      <trkpt lat="47.35076" lon="-1.14689">
        <ele>4.9438477</ele>
        <time>2011-09-25T08:11:50Z</time>
      </trkpt>
      <trkpt lat="47.35153" lon="-1.1472">
        <ele>4.4632568</ele>
        <time>2011-09-25T08:12:07Z</time>
      </trkpt>
      <trkpt lat="47.35181" lon="-1.1473">
        <ele>3.982666</ele>
        <time>2011-09-25T08:12:13Z</time>
      </trkpt>
      <trkpt lat="47.35189" lon="-1.14735">
        <ele>4.4632568</ele>
        <time>2011-09-25T08:12:15Z</time>
      </trkpt>
      <trkpt lat="47.35199" lon="-1.14727">
        <ele>4.4632568</ele>
        <time>2011-09-25T08:12:19Z</time>
      </trkpt>
      <trkpt lat="47.3521" lon="-1.14658">
        <ele>3.5019531</ele>
        <time>2011-09-25T08:12:30Z</time>
      </trkpt>
      <trkpt lat="47.35223" lon="-1.14626">
        <ele>3.0212402</ele>
        <time>2011-09-25T08:12:35Z</time>
      </trkpt>
      <trkpt lat="47.35247" lon="-1.14585">
        <ele>3.0212402</ele>
        <time>2011-09-25T08:12:42Z</time>
      </trkpt>
      <trkpt lat="47.35256" lon="-1.14556">
        <ele>3.0212402</ele>
        <time>2011-09-25T08:12:46Z</time>
      </trkpt>
      <trkpt lat="47.35267" lon="-1.14465">
        <ele>3.5019531</ele>
        <time>2011-09-25T08:12:58Z</time>
      </trkpt>
      <trkpt lat="47.35267" lon="-1.14442">
        <ele>3.5019531</ele>
        <time>2011-09-25T08:13:01Z</time>
      </trkpt>
      <trkpt lat="47.35248" lon="-1.1436">
        <ele>3.0212402</ele>
        <time>2011-09-25T08:13:12Z</time>
      </trkpt>
      <trkpt lat="47.35244" lon="-1.14323">
        <ele>3.0212402</ele>
        <time>2011-09-25T08:13:17Z</time>
      </trkpt>
      <trkpt lat="47.35252" lon="-1.14244">
        <ele>3.5019531</ele>
        <time>2011-09-25T08:13:27Z</time>
      </trkpt>
      <trkpt lat="47.35253" lon="-1.14162">
        <ele>3.0212402</ele>
        <time>2011-09-25T08:13:37Z</time>
      </trkpt>
      <trkpt lat="47.35258" lon="-1.1413">
        <ele>2.5406494</ele>
        <time>2011-09-25T08:13:41Z</time>
      </trkpt>
      <trkpt lat="47.35284" lon="-1.14026">
        <ele>3.982666</ele>
        <time>2011-09-25T08:13:55Z</time>
      </trkpt>
      <trkpt lat="47.35303" lon="-1.13975">
        <ele>4.4632568</ele>
        <time>2011-09-25T08:14:02Z</time>
      </trkpt>
      <trkpt lat="47.3532" lon="-1.13916">
        <ele>3.982666</ele>
        <time>2011-09-25T08:14:10Z</time>
      </trkpt>
      <trkpt lat="47.35323" lon="-1.13894">
        <ele>3.982666</ele>
        <time>2011-09-25T08:14:13Z</time>
      </trkpt>
      <trkpt lat="47.35327" lon="-1.13879">
        <ele>3.982666</ele>
        <time>2011-09-25T08:14:15Z</time>
      </trkpt>
      <trkpt lat="47.35333" lon="-1.13841">
        <ele>3.982666</ele>
        <time>2011-09-25T08:14:20Z</time>
      </trkpt>
      <trkpt lat="47.35335" lon="-1.13808">
        <ele>3.982666</ele>
        <time>2011-09-25T08:14:24Z</time>
      </trkpt>
      <trkpt lat="47.35338" lon="-1.1376">
        <ele>3.982666</ele>
        <time>2011-09-25T08:14:30Z</time>
      </trkpt>
      <trkpt lat="47.35341" lon="-1.13731">
        <ele>3.982666</ele>
        <time>2011-09-25T08:14:34Z</time>
      </trkpt>
      <trkpt lat="47.35346" lon="-1.13678">
        <ele>3.5019531</ele>
        <time>2011-09-25T08:14:41Z</time>
      </trkpt>
      <trkpt lat="47.35349" lon="-1.13656">
        <ele>3.982666</ele>
        <time>2011-09-25T08:14:44Z</time>
      </trkpt>
      <trkpt lat="47.35362" lon="-1.13608">
        <ele>4.4632568</ele>
        <time>2011-09-25T08:14:51Z</time>
      </trkpt>
      <trkpt lat="47.35389" lon="-1.1355">
        <ele>4.4632568</ele>
        <time>2011-09-25T08:15:01Z</time>
      </trkpt>
      <trkpt lat="47.35409" lon="-1.1352">
        <ele>4.9438477</ele>
        <time>2011-09-25T08:15:07Z</time>
      </trkpt>
      <trkpt lat="47.35439" lon="-1.13437">
        <ele>3.5019531</ele>
        <time>2011-09-25T08:15:19Z</time>
      </trkpt>
      <trkpt lat="47.35478" lon="-1.13308">
        <ele>3.5019531</ele>
        <time>2011-09-25T08:15:37Z</time>
      </trkpt>
      <trkpt lat="47.35504" lon="-1.13222">
        <ele>3.5019531</ele>
        <time>2011-09-25T08:15:50Z</time>
      </trkpt>
      <trkpt lat="47.3551" lon="-1.13196">
        <ele>3.5019531</ele>
        <time>2011-09-25T08:15:54Z</time>
      </trkpt>
      <trkpt lat="47.35525" lon="-1.13134">
        <ele>3.982666</ele>
        <time>2011-09-25T08:16:03Z</time>
      </trkpt>
      <trkpt lat="47.35552" lon="-1.13027">
        <ele>4.4632568</ele>
        <time>2011-09-25T08:16:20Z</time>
      </trkpt>
      <trkpt lat="47.3556" lon="-1.13003">
        <ele>4.9438477</ele>
        <time>2011-09-25T08:16:24Z</time>
      </trkpt>
      <trkpt lat="47.35585" lon="-1.12877">
        <ele>4.4632568</ele>
        <time>2011-09-25T08:16:43Z</time>
      </trkpt>
      <trkpt lat="47.35587" lon="-1.1285">
        <ele>4.4632568</ele>
        <time>2011-09-25T08:16:47Z</time>
      </trkpt>
      <trkpt lat="47.3557" lon="-1.12751">
        <ele>4.9438477</ele>
        <time>2011-09-25T08:17:03Z</time>
      </trkpt>
      <trkpt lat="47.35579" lon="-1.12722">
        <ele>4.9438477</ele>
        <time>2011-09-25T08:17:10Z</time>
      </trkpt>
      <trkpt lat="47.35586" lon="-1.127">
        <ele>4.9438477</ele>
        <time>2011-09-25T08:17:16Z</time>
      </trkpt>
      <trkpt lat="47.35588" lon="-1.12683">
        <ele>4.4632568</ele>
        <time>2011-09-25T08:17:23Z</time>
      </trkpt>
      <trkpt lat="47.35587" lon="-1.12674">
        <ele>3.982666</ele>
        <time>2011-09-25T08:17:25Z</time>
      </trkpt>
      <trkpt lat="47.35601" lon="-1.1261">
        <ele>3.982666</ele>
        <time>2011-09-25T08:17:36Z</time>
      </trkpt>
      <trkpt lat="47.35612" lon="-1.12563">
        <ele>3.5019531</ele>
        <time>2011-09-25T08:17:44Z</time>
      </trkpt>
      <trkpt lat="47.35623" lon="-1.12535">
        <ele>3.5019531</ele>
        <time>2011-09-25T08:17:49Z</time>
      </trkpt>
      <trkpt lat="47.35639" lon="-1.12482">
        <ele>3.5019531</ele>
        <time>2011-09-25T08:17:59Z</time>
      </trkpt>
      <trkpt lat="47.35665" lon="-1.12413">
        <ele>3.0212402</ele>
        <time>2011-09-25T08:18:10Z</time>
      </trkpt>
      <trkpt lat="47.35683" lon="-1.12345">
        <ele>3.5019531</ele>
        <time>2011-09-25T08:18:21Z</time>
      </trkpt>
      <trkpt lat="47.35724" lon="-1.12211">
        <ele>4.4632568</ele>
        <time>2011-09-25T08:18:42Z</time>
      </trkpt>
      <trkpt lat="47.35725" lon="-1.122">
        <ele>4.4632568</ele>
        <time>2011-09-25T08:18:44Z</time>
      </trkpt>
      <trkpt lat="47.3572" lon="-1.12171">
        <ele>3.982666</ele>
        <time>2011-09-25T08:18:49Z</time>
      </trkpt>
      <trkpt lat="47.3568" lon="-1.12113">
        <ele>7.347168</ele>
        <time>2011-09-25T08:19:02Z</time>
      </trkpt>
      <trkpt lat="47.35683" lon="-1.12101">
        <ele>7.347168</ele>
        <time>2011-09-25T08:19:06Z</time>
      </trkpt>
      <trkpt lat="47.35689" lon="-1.12097">
        <ele>7.347168</ele>
        <time>2011-09-25T08:19:08Z</time>
      </trkpt>
      <trkpt lat="47.35685" lon="-1.12062">
        <ele>7.8278809</ele>
        <time>2011-09-25T08:19:16Z</time>
      </trkpt>
      <trkpt lat="47.35672" lon="-1.11993">
        <ele>11.1925049</ele>
        <time>2011-09-25T08:19:30Z</time>
      </trkpt>
      <trkpt lat="47.35675" lon="-1.11911">
        <ele>12.6343994</ele>
        <time>2011-09-25T08:19:45Z</time>
      </trkpt>
      <trkpt lat="47.35694" lon="-1.1182">
        <ele>12.6343994</ele>
        <time>2011-09-25T08:20:02Z</time>
      </trkpt>
      <trkpt lat="47.35699" lon="-1.11804">
        <ele>12.6343994</ele>
        <time>2011-09-25T08:20:05Z</time>
      </trkpt>
      <trkpt lat="47.35682" lon="-1.1177">
        <ele>12.1538086</ele>
        <time>2011-09-25T08:20:13Z</time>
      </trkpt>
      <trkpt lat="47.35613" lon="-1.1175">
        <ele>13.5958252</ele>
        <time>2011-09-25T08:20:29Z</time>
      </trkpt>
      <trkpt lat="47.35561" lon="-1.11665">
        <ele>14.5570068</ele>
        <time>2011-09-25T08:20:46Z</time>
      </trkpt>
      <trkpt lat="47.35554" lon="-1.11656">
        <ele>14.5570068</ele>
        <time>2011-09-25T08:20:48Z</time>
      </trkpt>
      <trkpt lat="47.35529" lon="-1.11574">
        <ele>15.5184326</ele>
        <time>2011-09-25T08:21:02Z</time>
      </trkpt>
      <trkpt lat="47.35492" lon="-1.11495">
        <ele>15.5184326</ele>
        <time>2011-09-25T08:21:16Z</time>
      </trkpt>
      <trkpt lat="47.35431" lon="-1.114">
        <ele>15.0377197</ele>
        <time>2011-09-25T08:21:34Z</time>
      </trkpt>
      <trkpt lat="47.35398" lon="-1.11353">
        <ele>15.0377197</ele>
        <time>2011-09-25T08:21:44Z</time>
      </trkpt>
      <trkpt lat="47.35378" lon="-1.11342">
        <ele>15.9990234</ele>
        <time>2011-09-25T08:21:49Z</time>
      </trkpt>
      <trkpt lat="47.35241" lon="-1.11334">
        <ele>16.9604492</ele>
        <time>2011-09-25T08:22:20Z</time>
      </trkpt>
      <trkpt lat="47.35158" lon="-1.11341">
        <ele>15.9990234</ele>
        <time>2011-09-25T08:22:40Z</time>
      </trkpt>
      <trkpt lat="47.35093" lon="-1.11345">
        <ele>13.1151123</ele>
        <time>2011-09-25T08:22:53Z</time>
      </trkpt>
      <trkpt lat="47.35069" lon="-1.11325">
        <ele>12.6343994</ele>
        <time>2011-09-25T08:22:59Z</time>
      </trkpt>
      <trkpt lat="47.35054" lon="-1.1128">
        <ele>13.1151123</ele>
        <time>2011-09-25T08:23:06Z</time>
      </trkpt>
      <trkpt lat="47.35018" lon="-1.11141">
        <ele>12.6343994</ele>
        <time>2011-09-25T08:23:24Z</time>
      </trkpt>
      <trkpt lat="47.34986" lon="-1.11068">
        <ele>14.5570068</ele>
        <time>2011-09-25T08:23:37Z</time>
      </trkpt>
      <trkpt lat="47.34996" lon="-1.11048">
        <ele>14.5570068</ele>
        <time>2011-09-25T08:23:41Z</time>
      </trkpt>
      <trkpt lat="47.35014" lon="-1.10934">
        <ele>11.1925049</ele>
        <time>2011-09-25T08:23:55Z</time>
      </trkpt>
      <trkpt lat="47.3502" lon="-1.10899">
        <ele>10.2312012</ele>
        <time>2011-09-25T08:23:59Z</time>
      </trkpt>
      <trkpt lat="47.35039" lon="-1.10862">
        <ele>10.2312012</ele>
        <time>2011-09-25T08:24:04Z</time>
      </trkpt>
      <trkpt lat="47.35075" lon="-1.10824">
        <ele>11.6732178</ele>
        <time>2011-09-25T08:24:12Z</time>
      </trkpt>
      <trkpt lat="47.35094" lon="-1.10813">
        <ele>12.1538086</ele>
        <time>2011-09-25T08:24:16Z</time>
      </trkpt>
      <trkpt lat="47.35107" lon="-1.10797">
        <ele>13.5958252</ele>
        <time>2011-09-25T08:24:20Z</time>
      </trkpt>
      <trkpt lat="47.35128" lon="-1.10714">
        <ele>15.9990234</ele>
        <time>2011-09-25T08:24:36Z</time>
      </trkpt>
      <trkpt lat="47.35147" lon="-1.10675">
        <ele>15.5184326</ele>
        <time>2011-09-25T08:24:44Z</time>
      </trkpt>
      <trkpt lat="47.35177" lon="-1.1063">
        <ele>13.1151123</ele>
        <time>2011-09-25T08:24:54Z</time>
      </trkpt>
      <trkpt lat="47.3518" lon="-1.10608">
        <ele>12.6343994</ele>
        <time>2011-09-25T08:24:58Z</time>
      </trkpt>
      <trkpt lat="47.35167" lon="-1.10566">
        <ele>12.6343994</ele>
        <time>2011-09-25T08:25:05Z</time>
      </trkpt>
      <trkpt lat="47.35174" lon="-1.10501">
        <ele>13.1151123</ele>
        <time>2011-09-25T08:25:16Z</time>
      </trkpt>
      <trkpt lat="47.35183" lon="-1.10444">
        <ele>12.1538086</ele>
        <time>2011-09-25T08:25:25Z</time>
      </trkpt>
      <trkpt lat="47.35185" lon="-1.10403">
        <ele>11.6732178</ele>
        <time>2011-09-25T08:25:31Z</time>
      </trkpt>
      <trkpt lat="47.35185" lon="-1.10366">
        <ele>11.6732178</ele>
        <time>2011-09-25T08:25:36Z</time>
      </trkpt>
      <trkpt lat="47.35182" lon="-1.10336">
        <ele>11.6732178</ele>
        <time>2011-09-25T08:25:41Z</time>
      </trkpt>
      <trkpt lat="47.3517" lon="-1.10228">
        <ele>12.1538086</ele>
        <time>2011-09-25T08:25:56Z</time>
      </trkpt>
      <trkpt lat="47.3516" lon="-1.1019">
        <ele>12.6343994</ele>
        <time>2011-09-25T08:26:02Z</time>
      </trkpt>
      <trkpt lat="47.35179" lon="-1.1009">
        <ele>14.5570068</ele>
        <time>2011-09-25T08:26:16Z</time>
      </trkpt>
      <trkpt lat="47.35187" lon="-1.10061">
        <ele>14.5570068</ele>
        <time>2011-09-25T08:26:20Z</time>
      </trkpt>
      <trkpt lat="47.35232" lon="-1.09965">
        <ele>14.5570068</ele>
        <time>2011-09-25T08:26:35Z</time>
      </trkpt>
      <trkpt lat="47.35276" lon="-1.09866">
        <ele>13.5958252</ele>
        <time>2011-09-25T08:26:49Z</time>
      </trkpt>
      <trkpt lat="47.35314" lon="-1.09763">
        <ele>13.5958252</ele>
        <time>2011-09-25T08:27:04Z</time>
      </trkpt>
      <trkpt lat="47.35317" lon="-1.09749">
        <ele>13.1151123</ele>
        <time>2011-09-25T08:27:06Z</time>
      </trkpt>
      <trkpt lat="47.3535" lon="-1.09693">
        <ele>11.6732178</ele>
        <time>2011-09-25T08:27:15Z</time>
      </trkpt>
      <trkpt lat="47.3536" lon="-1.09659">
        <ele>9.7506104</ele>
        <time>2011-09-25T08:27:19Z</time>
      </trkpt>
      <trkpt lat="47.35361" lon="-1.09651">
        <ele>10.2312012</ele>
        <time>2011-09-25T08:27:20Z</time>
      </trkpt>
      <trkpt lat="47.35374" lon="-1.09474">
        <ele>13.5958252</ele>
        <time>2011-09-25T08:27:41Z</time>
      </trkpt>
      <trkpt lat="47.35371" lon="-1.09426">
        <ele>14.076416</ele>
        <time>2011-09-25T08:27:48Z</time>
      </trkpt>
      <trkpt lat="47.35352" lon="-1.09412">
        <ele>13.5958252</ele>
        <time>2011-09-25T08:27:53Z</time>
      </trkpt>
      <trkpt lat="47.35257" lon="-1.09441">
        <ele>16.9604492</ele>
        <time>2011-09-25T08:28:13Z</time>
      </trkpt>
      <trkpt lat="47.35169" lon="-1.09459">
        <ele>20.3249512</ele>
        <time>2011-09-25T08:28:34Z</time>
      </trkpt>
      <trkpt lat="47.3511" lon="-1.09463">
        <ele>21.7669678</ele>
        <time>2011-09-25T08:28:48Z</time>
      </trkpt>
      <trkpt lat="47.35085" lon="-1.09492">
        <ele>22.2475586</ele>
        <time>2011-09-25T08:28:55Z</time>
      </trkpt>
      <trkpt lat="47.35073" lon="-1.09556">
        <ele>22.7282715</ele>
        <time>2011-09-25T08:29:04Z</time>
      </trkpt>
      <trkpt lat="47.3505" lon="-1.09582">
        <ele>22.7282715</ele>
        <time>2011-09-25T08:29:11Z</time>
      </trkpt>
      <trkpt lat="47.34964" lon="-1.09574">
        <ele>22.7282715</ele>
        <time>2011-09-25T08:29:30Z</time>
      </trkpt>
      <trkpt lat="47.34916" lon="-1.09568">
        <ele>22.7282715</ele>
        <time>2011-09-25T08:29:41Z</time>
      </trkpt>
      <trkpt lat="47.34829" lon="-1.09561">
        <ele>23.6895752</ele>
        <time>2011-09-25T08:29:58Z</time>
      </trkpt>
      <trkpt lat="47.34756" lon="-1.09542">
        <ele>25.1317139</ele>
        <time>2011-09-25T08:30:13Z</time>
      </trkpt>
      <trkpt lat="47.34665" lon="-1.09516">
        <ele>25.6123047</ele>
        <time>2011-09-25T08:30:31Z</time>
      </trkpt>
      <trkpt lat="47.34659" lon="-1.09495">
        <ele>25.1317139</ele>
        <time>2011-09-25T08:30:36Z</time>
      </trkpt>
      <trkpt lat="47.34664" lon="-1.09466">
        <ele>25.1317139</ele>
        <time>2011-09-25T08:30:40Z</time>
      </trkpt>
      <trkpt lat="47.34698" lon="-1.09324">
        <ele>22.7282715</ele>
        <time>2011-09-25T08:30:58Z</time>
      </trkpt>
      <trkpt lat="47.34712" lon="-1.09266">
        <ele>21.7669678</ele>
        <time>2011-09-25T08:31:05Z</time>
      </trkpt>
      <trkpt lat="47.34717" lon="-1.09229">
        <ele>20.3249512</ele>
        <time>2011-09-25T08:31:09Z</time>
      </trkpt>
      <trkpt lat="47.34731" lon="-1.09185">
        <ele>19.8443604</ele>
        <time>2011-09-25T08:31:15Z</time>
      </trkpt>
      <trkpt lat="47.34737" lon="-1.0915">
        <ele>19.3637695</ele>
        <time>2011-09-25T08:31:20Z</time>
      </trkpt>
      <trkpt lat="47.34736" lon="-1.09132">
        <ele>19.3637695</ele>
        <time>2011-09-25T08:31:22Z</time>
      </trkpt>
      <trkpt lat="47.34743" lon="-1.0907">
        <ele>19.8443604</ele>
        <time>2011-09-25T08:31:27Z</time>
      </trkpt>
      <trkpt lat="47.34761" lon="-1.09002">
        <ele>20.8056641</ele>
        <time>2011-09-25T08:31:36Z</time>
      </trkpt>
      <trkpt lat="47.34774" lon="-1.09006">
        <ele>20.3249512</ele>
        <time>2011-09-25T08:31:40Z</time>
      </trkpt>
      <trkpt lat="47.34825" lon="-1.09057">
        <ele>16.9604492</ele>
        <time>2011-09-25T08:31:52Z</time>
      </trkpt>
      <trkpt lat="47.34834" lon="-1.09069">
        <ele>15.9990234</ele>
        <time>2011-09-25T08:31:54Z</time>
      </trkpt>
      <trkpt lat="47.34852" lon="-1.09081">
        <ele>13.5958252</ele>
        <time>2011-09-25T08:31:57Z</time>
      </trkpt>
      <trkpt lat="47.34866" lon="-1.09073">
        <ele>13.1151123</ele>
        <time>2011-09-25T08:32:00Z</time>
      </trkpt>
      <trkpt lat="47.34902" lon="-1.09028">
        <ele>13.1151123</ele>
        <time>2011-09-25T08:32:09Z</time>
      </trkpt>
      <trkpt lat="47.34914" lon="-1.09015">
        <ele>12.6343994</ele>
        <time>2011-09-25T08:32:12Z</time>
      </trkpt>
      <trkpt lat="47.34926" lon="-1.09019">
        <ele>13.1151123</ele>
        <time>2011-09-25T08:32:16Z</time>
      </trkpt>
      <trkpt lat="47.34966" lon="-1.09087">
        <ele>13.1151123</ele>
        <time>2011-09-25T08:32:32Z</time>
      </trkpt>
      <trkpt lat="47.34987" lon="-1.09113">
        <ele>14.076416</ele>
        <time>2011-09-25T08:32:40Z</time>
      </trkpt>
      <trkpt lat="47.35031" lon="-1.09151">
        <ele>15.5184326</ele>
        <time>2011-09-25T08:32:53Z</time>
      </trkpt>
      <trkpt lat="47.3505" lon="-1.09157">
        <ele>15.9990234</ele>
        <time>2011-09-25T08:33:00Z</time>
      </trkpt>
      <trkpt lat="47.35057" lon="-1.09144">
        <ele>15.5184326</ele>
        <time>2011-09-25T08:33:04Z</time>
      </trkpt>
      <trkpt lat="47.35084" lon="-1.09028">
        <ele>15.5184326</ele>
        <time>2011-09-25T08:33:25Z</time>
      </trkpt>
      <trkpt lat="47.35104" lon="-1.08946">
        <ele>17.4411621</ele>
        <time>2011-09-25T08:33:39Z</time>
      </trkpt>
      <trkpt lat="47.35123" lon="-1.08864">
        <ele>19.3637695</ele>
        <time>2011-09-25T08:33:54Z</time>
      </trkpt>
      <trkpt lat="47.35169" lon="-1.08676">
        <ele>20.3249512</ele>
        <time>2011-09-25T08:34:24Z</time>
      </trkpt>
      <trkpt lat="47.35219" lon="-1.08471">
        <ele>19.8443604</ele>
        <time>2011-09-25T08:34:54Z</time>
      </trkpt>
      <trkpt lat="47.35258" lon="-1.08316">
        <ele>21.286377</ele>
        <time>2011-09-25T08:35:17Z</time>
      </trkpt>
      <trkpt lat="47.35304" lon="-1.08134">
        <ele>23.2089844</ele>
        <time>2011-09-25T08:35:45Z</time>
      </trkpt>
      <trkpt lat="47.3537" lon="-1.08012">
        <ele>24.1702881</ele>
        <time>2011-09-25T08:36:09Z</time>
      </trkpt>
      <trkpt lat="47.35379" lon="-1.08">
        <ele>25.1317139</ele>
        <time>2011-09-25T08:36:12Z</time>
      </trkpt>
      <trkpt lat="47.3537" lon="-1.07986">
        <ele>24.651001</ele>
        <time>2011-09-25T08:36:17Z</time>
      </trkpt>
      <trkpt lat="47.35285" lon="-1.07991">
        <ele>24.1702881</ele>
        <time>2011-09-25T08:36:38Z</time>
      </trkpt>
      <trkpt lat="47.35244" lon="-1.08006">
        <ele>23.2089844</ele>
        <time>2011-09-25T08:36:48Z</time>
      </trkpt>
      <trkpt lat="47.35166" lon="-1.08062">
        <ele>22.2475586</ele>
        <time>2011-09-25T08:37:07Z</time>
      </trkpt>
      <trkpt lat="47.35109" lon="-1.08077">
        <ele>21.7669678</ele>
        <time>2011-09-25T08:37:19Z</time>
      </trkpt>
      <trkpt lat="47.35086" lon="-1.08071">
        <ele>21.7669678</ele>
        <time>2011-09-25T08:37:24Z</time>
      </trkpt>
      <trkpt lat="47.34982" lon="-1.0802">
        <ele>22.2475586</ele>
        <time>2011-09-25T08:37:46Z</time>
      </trkpt>
      <trkpt lat="47.34937" lon="-1.07999">
        <ele>22.2475586</ele>
        <time>2011-09-25T08:37:56Z</time>
      </trkpt>
      <trkpt lat="47.34923" lon="-1.07949">
        <ele>24.1702881</ele>
        <time>2011-09-25T08:38:05Z</time>
      </trkpt>
      <trkpt lat="47.34923" lon="-1.0782">
        <ele>24.651001</ele>
        <time>2011-09-25T08:38:24Z</time>
      </trkpt>
      <trkpt lat="47.34883" lon="-1.07629">
        <ele>25.6123047</ele>
        <time>2011-09-25T08:38:53Z</time>
      </trkpt>
      <trkpt lat="47.34871" lon="-1.07591">
        <ele>26.0928955</ele>
        <time>2011-09-25T08:38:59Z</time>
      </trkpt>
      <trkpt lat="47.34872" lon="-1.07557">
        <ele>27.0543213</ele>
        <time>2011-09-25T08:39:04Z</time>
      </trkpt>
      <trkpt lat="47.3491" lon="-1.07397">
        <ele>27.5349121</ele>
        <time>2011-09-25T08:39:27Z</time>
      </trkpt>
      <trkpt lat="47.34914" lon="-1.07281">
        <ele>27.5349121</ele>
        <time>2011-09-25T08:39:44Z</time>
      </trkpt>
      <trkpt lat="47.34824" lon="-1.07214">
        <ele>28.4962158</ele>
        <time>2011-09-25T08:40:07Z</time>
      </trkpt>
      <trkpt lat="47.34702" lon="-1.0711">
        <ele>29.9381104</ele>
        <time>2011-09-25T08:40:36Z</time>
      </trkpt>
      <trkpt lat="47.34606" lon="-1.07002">
        <ele>31.380127</ele>
        <time>2011-09-25T08:41:01Z</time>
      </trkpt>
      <trkpt lat="47.34602" lon="-1.06998">
        <ele>30.8995361</ele>
        <time>2011-09-25T08:41:02Z</time>
      </trkpt>
      <trkpt lat="47.34564" lon="-1.06946">
        <ele>31.8607178</ele>
        <time>2011-09-25T08:41:14Z</time>
      </trkpt>
      <trkpt lat="47.3454" lon="-1.06934">
        <ele>31.8607178</ele>
        <time>2011-09-25T08:41:20Z</time>
      </trkpt>
      <trkpt lat="47.34464" lon="-1.0696">
        <ele>32.8222656</ele>
        <time>2011-09-25T08:41:38Z</time>
      </trkpt>
      <trkpt lat="47.34333" lon="-1.07038">
        <ele>34.744873</ele>
        <time>2011-09-25T08:42:10Z</time>
      </trkpt>
      <trkpt lat="47.3426" lon="-1.07146">
        <ele>37.1480713</ele>
        <time>2011-09-25T08:42:34Z</time>
      </trkpt>
      <trkpt lat="47.34206" lon="-1.07233">
        <ele>38.109375</ele>
        <time>2011-09-25T08:42:53Z</time>
      </trkpt>
      <trkpt lat="47.34179" lon="-1.07309">
        <ele>39.5512695</ele>
        <time>2011-09-25T08:43:08Z</time>
      </trkpt>
      <trkpt lat="47.34235" lon="-1.0741">
        <ele>39.0706787</ele>
        <time>2011-09-25T08:43:27Z</time>
      </trkpt>
      <trkpt lat="47.34249" lon="-1.07434">
        <ele>38.5900879</ele>
        <time>2011-09-25T08:43:32Z</time>
      </trkpt>
      <trkpt lat="47.34237" lon="-1.0746">
        <ele>38.5900879</ele>
        <time>2011-09-25T08:43:39Z</time>
      </trkpt>
      <trkpt lat="47.34171" lon="-1.07455">
        <ele>40.9934082</ele>
        <time>2011-09-25T08:43:54Z</time>
      </trkpt>
      <trkpt lat="47.34081" lon="-1.07447">
        <ele>44.3580322</ele>
        <time>2011-09-25T08:44:16Z</time>
      </trkpt>
      <trkpt lat="47.34007" lon="-1.07456">
        <ele>47.2418213</ele>
        <time>2011-09-25T08:44:36Z</time>
      </trkpt>
      <trkpt lat="47.33984" lon="-1.07463">
        <ele>50.1259766</ele>
        <time>2011-09-25T08:44:47Z</time>
      </trkpt>
      <trkpt lat="47.33985" lon="-1.07461">
        <ele>49.6452637</ele>
        <time>2011-09-25T08:45:10Z</time>
      </trkpt>
      <trkpt lat="47.33986" lon="-1.07462">
        <ele>51.0871582</ele>
        <time>2011-09-25T08:50:01Z</time>
      </trkpt>
      <trkpt lat="47.33986" lon="-1.07462">
        <ele>51.5678711</ele>
        <time>2011-09-25T08:50:13Z</time>
      </trkpt>
      <trkpt lat="47.33988" lon="-1.07473">
        <ele>51.0871582</ele>
        <time>2011-09-25T08:50:18Z</time>
      </trkpt>
      <trkpt lat="47.3398" lon="-1.07524">
        <ele>51.5678711</ele>
        <time>2011-09-25T08:50:32Z</time>
      </trkpt>
      <trkpt lat="47.33951" lon="-1.07521">
        <ele>52.5291748</ele>
        <time>2011-09-25T08:50:43Z</time>
      </trkpt>
      <trkpt lat="47.33901" lon="-1.0751">
        <ele>55.8937988</ele>
        <time>2011-09-25T08:51:00Z</time>
      </trkpt>
      <trkpt lat="47.3386" lon="-1.07501">
        <ele>55.8937988</ele>
        <time>2011-09-25T08:51:17Z</time>
      </trkpt>
      <trkpt lat="47.33834" lon="-1.075">
        <ele>57.3358154</ele>
        <time>2011-09-25T08:51:26Z</time>
      </trkpt>
      <trkpt lat="47.33838" lon="-1.07545">
        <ele>59.2584229</ele>
        <time>2011-09-25T08:51:39Z</time>
      </trkpt>
      <trkpt lat="47.33849" lon="-1.07631">
        <ele>59.2584229</ele>
        <time>2011-09-25T08:51:58Z</time>
      </trkpt>
      <trkpt lat="47.33823" lon="-1.07636">
        <ele>59.7391357</ele>
        <time>2011-09-25T08:52:07Z</time>
      </trkpt>
      <trkpt lat="47.33777" lon="-1.07639">
        <ele>61.6617432</ele>
        <time>2011-09-25T08:52:19Z</time>
      </trkpt>
      <trkpt lat="47.33772" lon="-1.07654">
        <ele>63.1036377</ele>
        <time>2011-09-25T08:52:23Z</time>
      </trkpt>
      <trkpt lat="47.33776" lon="-1.07694">
        <ele>63.5843506</ele>
        <time>2011-09-25T08:52:30Z</time>
      </trkpt>
      <trkpt lat="47.33765" lon="-1.07702">
        <ele>63.1036377</ele>
        <time>2011-09-25T08:52:35Z</time>
      </trkpt>
      <trkpt lat="47.33722" lon="-1.07688">
        <ele>65.5070801</ele>
        <time>2011-09-25T08:52:48Z</time>
      </trkpt>
      <trkpt lat="47.3372" lon="-1.0773">
        <ele>66.9489746</ele>
        <time>2011-09-25T08:52:57Z</time>
      </trkpt>
      <trkpt lat="47.33728" lon="-1.0781">
        <ele>65.5070801</ele>
        <time>2011-09-25T08:53:10Z</time>
      </trkpt>
      <trkpt lat="47.33728" lon="-1.07825">
        <ele>64.5456543</ele>
        <time>2011-09-25T08:53:12Z</time>
      </trkpt>
      <trkpt lat="47.3372" lon="-1.07918">
        <ele>60.7003174</ele>
        <time>2011-09-25T08:53:23Z</time>
      </trkpt>
      <trkpt lat="47.33716" lon="-1.08039">
        <ele>59.7391357</ele>
        <time>2011-09-25T08:53:38Z</time>
      </trkpt>
      <trkpt lat="47.33716" lon="-1.08052">
        <ele>59.2584229</ele>
        <time>2011-09-25T08:53:40Z</time>
      </trkpt>
      <trkpt lat="47.33703" lon="-1.08061">
        <ele>60.7003174</ele>
        <time>2011-09-25T08:53:45Z</time>
      </trkpt>
      <trkpt lat="47.33655" lon="-1.08074">
        <ele>65.0263672</ele>
        <time>2011-09-25T08:54:00Z</time>
      </trkpt>
      <trkpt lat="47.33635" lon="-1.08078">
        <ele>66.4682617</ele>
        <time>2011-09-25T08:54:06Z</time>
      </trkpt>
      <trkpt lat="47.33584" lon="-1.08075">
        <ele>69.8328857</ele>
        <time>2011-09-25T08:54:21Z</time>
      </trkpt>
      <trkpt lat="47.33552" lon="-1.0805">
        <ele>72.7169189</ele>
        <time>2011-09-25T08:54:34Z</time>
      </trkpt>
      <trkpt lat="47.33512" lon="-1.08016">
        <ele>73.6782227</ele>
        <time>2011-09-25T08:54:48Z</time>
      </trkpt>
      <trkpt lat="47.33443" lon="-1.07937">
        <ele>75.6008301</ele>
        <time>2011-09-25T08:55:11Z</time>
      </trkpt>
      <trkpt lat="47.33384" lon="-1.07857">
        <ele>77.5234375</ele>
        <time>2011-09-25T08:55:32Z</time>
      </trkpt>
      <trkpt lat="47.33325" lon="-1.0775">
        <ele>79.9266357</ele>
        <time>2011-09-25T08:55:56Z</time>
      </trkpt>
      <trkpt lat="47.33274" lon="-1.07651">
        <ele>79.9266357</ele>
        <time>2011-09-25T08:56:18Z</time>
      </trkpt>
      <trkpt lat="47.33193" lon="-1.07558">
        <ele>81.3687744</ele>
        <time>2011-09-25T08:56:43Z</time>
      </trkpt>
      <trkpt lat="47.33092" lon="-1.0745">
        <ele>83.2913818</ele>
        <time>2011-09-25T08:57:11Z</time>
      </trkpt>
      <trkpt lat="47.33042" lon="-1.07393">
        <ele>84.2526855</ele>
        <time>2011-09-25T08:57:25Z</time>
      </trkpt>
      <trkpt lat="47.3302" lon="-1.07365">
        <ele>85.2139893</ele>
        <time>2011-09-25T08:57:31Z</time>
      </trkpt>
      <trkpt lat="47.33003" lon="-1.07363">
        <ele>85.2139893</ele>
        <time>2011-09-25T08:57:36Z</time>
      </trkpt>
      <trkpt lat="47.32929" lon="-1.07522">
        <ele>82.3300781</ele>
        <time>2011-09-25T08:57:59Z</time>
      </trkpt>
      <trkpt lat="47.32914" lon="-1.07557">
        <ele>81.3687744</ele>
        <time>2011-09-25T08:58:04Z</time>
      </trkpt>
      <trkpt lat="47.32865" lon="-1.07694">
        <ele>80.4074707</ele>
        <time>2011-09-25T08:58:22Z</time>
      </trkpt>
      <trkpt lat="47.32857" lon="-1.0772">
        <ele>78.0040283</ele>
        <time>2011-09-25T08:58:25Z</time>
      </trkpt>
      <trkpt lat="47.32851" lon="-1.07738">
        <ele>77.5234375</ele>
        <time>2011-09-25T08:58:27Z</time>
      </trkpt>
      <trkpt lat="47.32839" lon="-1.07784">
        <ele>73.6782227</ele>
        <time>2011-09-25T08:58:31Z</time>
      </trkpt>
      <trkpt lat="47.32836" lon="-1.07796">
        <ele>73.6782227</ele>
        <time>2011-09-25T08:58:32Z</time>
      </trkpt>
      <trkpt lat="47.32825" lon="-1.07834">
        <ele>73.1976318</ele>
        <time>2011-09-25T08:58:35Z</time>
      </trkpt>
      <trkpt lat="47.32807" lon="-1.07899">
        <ele>73.1976318</ele>
        <time>2011-09-25T08:58:41Z</time>
      </trkpt>
      <trkpt lat="47.32799" lon="-1.07932">
        <ele>69.8328857</ele>
        <time>2011-09-25T08:58:44Z</time>
      </trkpt>
      <trkpt lat="47.32794" lon="-1.07955">
        <ele>68.871582</ele>
        <time>2011-09-25T08:58:46Z</time>
      </trkpt>
      <trkpt lat="47.32783" lon="-1.0799">
        <ele>66.9489746</ele>
        <time>2011-09-25T08:58:50Z</time>
      </trkpt>
      <trkpt lat="47.32776" lon="-1.08012">
        <ele>62.6229248</ele>
        <time>2011-09-25T08:58:52Z</time>
      </trkpt>
      <trkpt lat="47.32779" lon="-1.08068">
        <ele>60.2197266</ele>
        <time>2011-09-25T08:58:58Z</time>
      </trkpt>
      <trkpt lat="47.32786" lon="-1.0808">
        <ele>59.2584229</ele>
        <time>2011-09-25T08:59:00Z</time>
      </trkpt>
      <trkpt lat="47.32787" lon="-1.08084">
        <ele>59.7391357</ele>
        <time>2011-09-25T08:59:01Z</time>
      </trkpt>
      <trkpt lat="47.32787" lon="-1.08098">
        <ele>57.3358154</ele>
        <time>2011-09-25T08:59:03Z</time>
      </trkpt>
      <trkpt lat="47.32777" lon="-1.0811">
        <ele>59.2584229</ele>
        <time>2011-09-25T08:59:07Z</time>
      </trkpt>
      <trkpt lat="47.32757" lon="-1.08098">
        <ele>60.2197266</ele>
        <time>2011-09-25T08:59:14Z</time>
      </trkpt>
      <trkpt lat="47.32749" lon="-1.08092">
        <ele>59.2584229</ele>
        <time>2011-09-25T08:59:16Z</time>
      </trkpt>
      <trkpt lat="47.32715" lon="-1.08068">
        <ele>59.7391357</ele>
        <time>2011-09-25T08:59:25Z</time>
      </trkpt>
      <trkpt lat="47.32678" lon="-1.08055">
        <ele>60.7003174</ele>
        <time>2011-09-25T08:59:36Z</time>
      </trkpt>
      <trkpt lat="47.32638" lon="-1.08062">
        <ele>62.142334</ele>
        <time>2011-09-25T08:59:49Z</time>
      </trkpt>
      <trkpt lat="47.32583" lon="-1.08062">
        <ele>64.5456543</ele>
        <time>2011-09-25T09:00:08Z</time>
      </trkpt>
      <trkpt lat="47.32559" lon="-1.08065">
        <ele>68.3908691</ele>
        <time>2011-09-25T09:00:17Z</time>
      </trkpt>
      <trkpt lat="47.32527" lon="-1.08067">
        <ele>71.7554932</ele>
        <time>2011-09-25T09:00:28Z</time>
      </trkpt>
      <trkpt lat="47.32512" lon="-1.08036">
        <ele>71.2749023</ele>
        <time>2011-09-25T09:00:38Z</time>
      </trkpt>
      <trkpt lat="47.32509" lon="-1.08037">
        <ele>71.7554932</ele>
        <time>2011-09-25T09:00:39Z</time>
      </trkpt>
      <trkpt lat="47.32451" lon="-1.08058">
        <ele>75.1202393</ele>
        <time>2011-09-25T09:00:58Z</time>
      </trkpt>
      <trkpt lat="47.32403" lon="-1.08075">
        <ele>78.4847412</ele>
        <time>2011-09-25T09:01:14Z</time>
      </trkpt>
      <trkpt lat="47.3235" lon="-1.08083">
        <ele>81.3687744</ele>
        <time>2011-09-25T09:01:31Z</time>
      </trkpt>
      <trkpt lat="47.32302" lon="-1.08081">
        <ele>85.2139893</ele>
        <time>2011-09-25T09:01:48Z</time>
      </trkpt>
      <trkpt lat="47.32298" lon="-1.08091">
        <ele>86.175293</ele>
        <time>2011-09-25T09:01:53Z</time>
      </trkpt>
      <trkpt lat="47.32302" lon="-1.08163">
        <ele>84.7333984</ele>
        <time>2011-09-25T09:02:07Z</time>
      </trkpt>
      <trkpt lat="47.32314" lon="-1.0825">
        <ele>82.3300781</ele>
        <time>2011-09-25T09:02:21Z</time>
      </trkpt>
      <trkpt lat="47.32372" lon="-1.08372">
        <ele>79.9266357</ele>
        <time>2011-09-25T09:02:39Z</time>
      </trkpt>
      <trkpt lat="47.32448" lon="-1.0851">
        <ele>78.0040283</ele>
        <time>2011-09-25T09:03:00Z</time>
      </trkpt>
      <trkpt lat="47.32501" lon="-1.08653">
        <ele>75.6008301</ele>
        <time>2011-09-25T09:03:19Z</time>
      </trkpt>
      <trkpt lat="47.3253" lon="-1.08728">
        <ele>73.1976318</ele>
        <time>2011-09-25T09:03:28Z</time>
      </trkpt>
      <trkpt lat="47.32565" lon="-1.08823">
        <ele>69.8328857</ele>
        <time>2011-09-25T09:03:38Z</time>
      </trkpt>
      <trkpt lat="47.32577" lon="-1.0886">
        <ele>68.3908691</ele>
        <time>2011-09-25T09:03:42Z</time>
      </trkpt>
      <trkpt lat="47.32566" lon="-1.08931">
        <ele>70.7941895</ele>
        <time>2011-09-25T09:03:50Z</time>
      </trkpt>
      <trkpt lat="47.32509" lon="-1.0903">
        <ele>74.1588135</ele>
        <time>2011-09-25T09:04:06Z</time>
      </trkpt>
      <trkpt lat="47.32503" lon="-1.09041">
        <ele>75.1202393</ele>
        <time>2011-09-25T09:04:08Z</time>
      </trkpt>
      <trkpt lat="47.32509" lon="-1.09061">
        <ele>75.6008301</ele>
        <time>2011-09-25T09:04:13Z</time>
      </trkpt>
      <trkpt lat="47.32587" lon="-1.09042">
        <ele>74.6395264</ele>
        <time>2011-09-25T09:04:31Z</time>
      </trkpt>
      <trkpt lat="47.32642" lon="-1.0902">
        <ele>73.6782227</ele>
        <time>2011-09-25T09:04:44Z</time>
      </trkpt>
      <trkpt lat="47.32699" lon="-1.09002">
        <ele>72.2362061</ele>
        <time>2011-09-25T09:04:56Z</time>
      </trkpt>
      <trkpt lat="47.32738" lon="-1.0899">
        <ele>69.8328857</ele>
        <time>2011-09-25T09:05:03Z</time>
      </trkpt>
      <trkpt lat="47.32778" lon="-1.08978">
        <ele>69.3522949</ele>
        <time>2011-09-25T09:05:10Z</time>
      </trkpt>
      <trkpt lat="47.32819" lon="-1.08971">
        <ele>69.8328857</ele>
        <time>2011-09-25T09:05:17Z</time>
      </trkpt>
      <trkpt lat="47.32862" lon="-1.08962">
        <ele>70.7941895</ele>
        <time>2011-09-25T09:05:26Z</time>
      </trkpt>
      <trkpt lat="47.32906" lon="-1.0896">
        <ele>74.1588135</ele>
        <time>2011-09-25T09:05:36Z</time>
      </trkpt>
      <trkpt lat="47.32959" lon="-1.08966">
        <ele>76.0814209</ele>
        <time>2011-09-25T09:05:47Z</time>
      </trkpt>
      <trkpt lat="47.32986" lon="-1.0897">
        <ele>76.5621338</ele>
        <time>2011-09-25T09:05:55Z</time>
      </trkpt>
      <trkpt lat="47.32988" lon="-1.08984">
        <ele>76.0814209</ele>
        <time>2011-09-25T09:05:58Z</time>
      </trkpt>
      <trkpt lat="47.32991" lon="-1.09031">
        <ele>76.0814209</ele>
        <time>2011-09-25T09:06:05Z</time>
      </trkpt>
      <trkpt lat="47.32991" lon="-1.09056">
        <ele>76.5621338</ele>
        <time>2011-09-25T09:06:08Z</time>
      </trkpt>
      <trkpt lat="47.32997" lon="-1.09105">
        <ele>76.5621338</ele>
        <time>2011-09-25T09:06:16Z</time>
      </trkpt>
      <trkpt lat="47.33003" lon="-1.0917">
        <ele>77.0428467</ele>
        <time>2011-09-25T09:06:24Z</time>
      </trkpt>
      <trkpt lat="47.33007" lon="-1.09217">
        <ele>78.0040283</ele>
        <time>2011-09-25T09:06:30Z</time>
      </trkpt>
      <trkpt lat="47.33053" lon="-1.09319">
        <ele>78.4847412</ele>
        <time>2011-09-25T09:06:46Z</time>
      </trkpt>
      <trkpt lat="47.33069" lon="-1.09349">
        <ele>78.4847412</ele>
        <time>2011-09-25T09:06:51Z</time>
      </trkpt>
      <trkpt lat="47.3308" lon="-1.09369">
        <ele>78.4847412</ele>
        <time>2011-09-25T09:06:55Z</time>
      </trkpt>
      <trkpt lat="47.33092" lon="-1.09383">
        <ele>78.9654541</ele>
        <time>2011-09-25T09:07:03Z</time>
      </trkpt>
      <trkpt lat="47.33096" lon="-1.09388">
        <ele>78.9654541</ele>
        <time>2011-09-25T09:08:10Z</time>
      </trkpt>
      <trkpt lat="47.33098" lon="-1.09387">
        <ele>78.4847412</ele>
        <time>2011-09-25T09:08:28Z</time>
      </trkpt>
      <trkpt lat="47.33098" lon="-1.09389">
        <ele>78.4847412</ele>
        <time>2011-09-25T09:09:03Z</time>
      </trkpt>
      <trkpt lat="47.33117" lon="-1.09397">
        <ele>77.5234375</ele>
        <time>2011-09-25T09:09:13Z</time>
      </trkpt>
      <trkpt lat="47.33145" lon="-1.09402">
        <ele>75.1202393</ele>
        <time>2011-09-25T09:09:20Z</time>
      </trkpt>
      <trkpt lat="47.33181" lon="-1.09405">
        <ele>74.6395264</ele>
        <time>2011-09-25T09:09:28Z</time>
      </trkpt>
      <trkpt lat="47.33216" lon="-1.09403">
        <ele>73.1976318</ele>
        <time>2011-09-25T09:09:37Z</time>
      </trkpt>
      <trkpt lat="47.33246" lon="-1.09396">
        <ele>74.6395264</ele>
        <time>2011-09-25T09:09:46Z</time>
      </trkpt>
      <trkpt lat="47.33283" lon="-1.09397">
        <ele>72.7169189</ele>
        <time>2011-09-25T09:10:00Z</time>
      </trkpt>
      <trkpt lat="47.3334" lon="-1.09395">
        <ele>71.2749023</ele>
        <time>2011-09-25T09:10:16Z</time>
      </trkpt>
      <trkpt lat="47.33344" lon="-1.09395">
        <ele>71.7554932</ele>
        <time>2011-09-25T09:11:04Z</time>
      </trkpt>
      <trkpt lat="47.33345" lon="-1.09395">
        <ele>71.2749023</ele>
        <time>2011-09-25T09:11:11Z</time>
      </trkpt>
      <trkpt lat="47.3335" lon="-1.09393">
        <ele>70.7941895</ele>
        <time>2011-09-25T09:11:23Z</time>
      </trkpt>
      <trkpt lat="47.3335" lon="-1.09391">
        <ele>70.3134766</ele>
        <time>2011-09-25T09:11:38Z</time>
      </trkpt>
      <trkpt lat="47.33351" lon="-1.09394">
        <ele>70.3134766</ele>
        <time>2011-09-25T09:11:51Z</time>
      </trkpt>
      <trkpt lat="47.33353" lon="-1.09395">
        <ele>69.3522949</ele>
        <time>2011-09-25T09:12:09Z</time>
      </trkpt>
      <trkpt lat="47.33353" lon="-1.09395">
        <ele>69.8328857</ele>
        <time>2011-09-25T09:12:30Z</time>
      </trkpt>
      <trkpt lat="47.33358" lon="-1.09396">
        <ele>69.8328857</ele>
        <time>2011-09-25T09:12:55Z</time>
      </trkpt>
      <trkpt lat="47.33361" lon="-1.09402">
        <ele>69.8328857</ele>
        <time>2011-09-25T09:13:22Z</time>
      </trkpt>
      <trkpt lat="47.33362" lon="-1.094">
        <ele>70.3134766</ele>
        <time>2011-09-25T09:13:28Z</time>
      </trkpt>
      <trkpt lat="47.33393" lon="-1.09393">
        <ele>67.4296875</ele>
        <time>2011-09-25T09:13:42Z</time>
      </trkpt>
      <trkpt lat="47.33438" lon="-1.0939">
        <ele>63.5843506</ele>
        <time>2011-09-25T09:13:51Z</time>
      </trkpt>
      <trkpt lat="47.33476" lon="-1.09388">
        <ele>61.1810303</ele>
        <time>2011-09-25T09:13:59Z</time>
      </trkpt>
      <trkpt lat="47.33505" lon="-1.09386">
        <ele>57.3358154</ele>
        <time>2011-09-25T09:14:05Z</time>
      </trkpt>
      <trkpt lat="47.3351" lon="-1.09386">
        <ele>57.3358154</ele>
        <time>2011-09-25T09:14:06Z</time>
      </trkpt>
      <trkpt lat="47.33548" lon="-1.09384">
        <ele>53.9711914</ele>
        <time>2011-09-25T09:14:14Z</time>
      </trkpt>
      <trkpt lat="47.33567" lon="-1.09389">
        <ele>52.048584</ele>
        <time>2011-09-25T09:14:17Z</time>
      </trkpt>
      <trkpt lat="47.33572" lon="-1.09392">
        <ele>51.5678711</ele>
        <time>2011-09-25T09:14:18Z</time>
      </trkpt>
      <trkpt lat="47.33584" lon="-1.09399">
        <ele>50.1259766</ele>
        <time>2011-09-25T09:14:20Z</time>
      </trkpt>
      <trkpt lat="47.33594" lon="-1.09404">
        <ele>48.68396</ele>
        <time>2011-09-25T09:14:22Z</time>
      </trkpt>
      <trkpt lat="47.33601" lon="-1.09409">
        <ele>47.2418213</ele>
        <time>2011-09-25T09:14:24Z</time>
      </trkpt>
      <trkpt lat="47.33605" lon="-1.09418">
        <ele>47.2418213</ele>
        <time>2011-09-25T09:14:31Z</time>
      </trkpt>
      <trkpt lat="47.33605" lon="-1.09414">
        <ele>45.7999268</ele>
        <time>2011-09-25T09:14:44Z</time>
      </trkpt>
      <trkpt lat="47.33607" lon="-1.09414">
        <ele>46.2806396</ele>
        <time>2011-09-25T09:15:00Z</time>
      </trkpt>
      <trkpt lat="47.33621" lon="-1.09386">
        <ele>44.838623</ele>
        <time>2011-09-25T09:15:08Z</time>
      </trkpt>
      <trkpt lat="47.33635" lon="-1.09366">
        <ele>43.8773193</ele>
        <time>2011-09-25T09:15:12Z</time>
      </trkpt>
      <trkpt lat="47.33649" lon="-1.09341">
        <ele>43.3966064</ele>
        <time>2011-09-25T09:15:16Z</time>
      </trkpt>
      <trkpt lat="47.33666" lon="-1.09311">
        <ele>42.9160156</ele>
        <time>2011-09-25T09:15:21Z</time>
      </trkpt>
      <trkpt lat="47.3368" lon="-1.0929">
        <ele>43.3966064</ele>
        <time>2011-09-25T09:15:25Z</time>
      </trkpt>
      <trkpt lat="47.33721" lon="-1.09204">
        <ele>42.4354248</ele>
        <time>2011-09-25T09:15:39Z</time>
      </trkpt>
      <trkpt lat="47.33727" lon="-1.09191">
        <ele>41.9547119</ele>
        <time>2011-09-25T09:15:41Z</time>
      </trkpt>
      <trkpt lat="47.3374" lon="-1.09168">
        <ele>42.9160156</ele>
        <time>2011-09-25T09:15:45Z</time>
      </trkpt>
      <trkpt lat="47.33754" lon="-1.09142">
        <ele>44.3580322</ele>
        <time>2011-09-25T09:15:50Z</time>
      </trkpt>
      <trkpt lat="47.33759" lon="-1.09132">
        <ele>43.8773193</ele>
        <time>2011-09-25T09:15:52Z</time>
      </trkpt>
      <trkpt lat="47.33774" lon="-1.09131">
        <ele>42.4354248</ele>
        <time>2011-09-25T09:15:56Z</time>
      </trkpt>
      <trkpt lat="47.33781" lon="-1.09141">
        <ele>40.9934082</ele>
        <time>2011-09-25T09:15:58Z</time>
      </trkpt>
      <trkpt lat="47.33796" lon="-1.09157">
        <ele>40.9934082</ele>
        <time>2011-09-25T09:16:01Z</time>
      </trkpt>
      <trkpt lat="47.33837" lon="-1.09188">
        <ele>40.9934082</ele>
        <time>2011-09-25T09:16:09Z</time>
      </trkpt>
      <trkpt lat="47.33855" lon="-1.09214">
        <ele>43.8773193</ele>
        <time>2011-09-25T09:16:15Z</time>
      </trkpt>
      <trkpt lat="47.3388" lon="-1.09213">
        <ele>46.7612305</ele>
        <time>2011-09-25T09:16:24Z</time>
      </trkpt>
      <trkpt lat="47.33916" lon="-1.09195">
        <ele>49.6452637</ele>
        <time>2011-09-25T09:16:37Z</time>
      </trkpt>
      <trkpt lat="47.33962" lon="-1.0916">
        <ele>50.6065674</ele>
        <time>2011-09-25T09:16:51Z</time>
      </trkpt>
      <trkpt lat="47.34052" lon="-1.09113">
        <ele>49.1645508</ele>
        <time>2011-09-25T09:17:10Z</time>
      </trkpt>
      <trkpt lat="47.34098" lon="-1.09072">
        <ele>47.7225342</ele>
        <time>2011-09-25T09:17:19Z</time>
      </trkpt>
      <trkpt lat="47.34109" lon="-1.09066">
        <ele>47.2418213</ele>
        <time>2011-09-25T09:17:21Z</time>
      </trkpt>
      <trkpt lat="47.34144" lon="-1.09084">
        <ele>47.2418213</ele>
        <time>2011-09-25T09:17:29Z</time>
      </trkpt>
      <trkpt lat="47.34143" lon="-1.09097">
        <ele>46.7612305</ele>
        <time>2011-09-25T09:17:31Z</time>
      </trkpt>
      <trkpt lat="47.34136" lon="-1.0919">
        <ele>49.6452637</ele>
        <time>2011-09-25T09:17:45Z</time>
      </trkpt>
      <trkpt lat="47.34138" lon="-1.09293">
        <ele>53.0097656</ele>
        <time>2011-09-25T09:17:59Z</time>
      </trkpt>
      <trkpt lat="47.34129" lon="-1.0938">
        <ele>54.932373</ele>
        <time>2011-09-25T09:18:13Z</time>
      </trkpt>
      <trkpt lat="47.34089" lon="-1.0939">
        <ele>55.4130859</ele>
        <time>2011-09-25T09:18:24Z</time>
      </trkpt>
      <trkpt lat="47.34031" lon="-1.09401">
        <ele>56.8551025</ele>
        <time>2011-09-25T09:18:39Z</time>
      </trkpt>
      <trkpt lat="47.34019" lon="-1.09423">
        <ele>57.8165283</ele>
        <time>2011-09-25T09:18:44Z</time>
      </trkpt>
      <trkpt lat="47.34" lon="-1.09571">
        <ele>60.2197266</ele>
        <time>2011-09-25T09:19:09Z</time>
      </trkpt>
      <trkpt lat="47.33985" lon="-1.09739">
        <ele>63.5843506</ele>
        <time>2011-09-25T09:19:37Z</time>
      </trkpt>
      <trkpt lat="47.3397" lon="-1.09864">
        <ele>65.0263672</ele>
        <time>2011-09-25T09:19:58Z</time>
      </trkpt>
      <trkpt lat="47.33957" lon="-1.09871">
        <ele>64.5456543</ele>
        <time>2011-09-25T09:20:02Z</time>
      </trkpt>
      <trkpt lat="47.3395" lon="-1.09934">
        <ele>65.5070801</ele>
        <time>2011-09-25T09:20:13Z</time>
      </trkpt>
      <trkpt lat="47.33948" lon="-1.09952">
        <ele>65.5070801</ele>
        <time>2011-09-25T09:20:16Z</time>
      </trkpt>
      <trkpt lat="47.33909" lon="-1.09957">
        <ele>67.4296875</ele>
        <time>2011-09-25T09:20:28Z</time>
      </trkpt>
      <trkpt lat="47.33882" lon="-1.09956">
        <ele>69.3522949</ele>
        <time>2011-09-25T09:20:36Z</time>
      </trkpt>
      <trkpt lat="47.33857" lon="-1.09963">
        <ele>70.7941895</ele>
        <time>2011-09-25T09:20:44Z</time>
      </trkpt>
      <trkpt lat="47.33855" lon="-1.09977">
        <ele>70.7941895</ele>
        <time>2011-09-25T09:20:47Z</time>
      </trkpt>
      <trkpt lat="47.33841" lon="-1.09989">
        <ele>70.3134766</ele>
        <time>2011-09-25T09:20:52Z</time>
      </trkpt>
      <trkpt lat="47.33753" lon="-1.09986">
        <ele>72.2362061</ele>
        <time>2011-09-25T09:21:15Z</time>
      </trkpt>
      <trkpt lat="47.3375" lon="-1.09988">
        <ele>72.7169189</ele>
        <time>2011-09-25T09:21:17Z</time>
      </trkpt>
      <trkpt lat="47.33755" lon="-1.10005">
        <ele>72.7169189</ele>
        <time>2011-09-25T09:21:22Z</time>
      </trkpt>
      <trkpt lat="47.3376" lon="-1.10109">
        <ele>73.6782227</ele>
        <time>2011-09-25T09:21:39Z</time>
      </trkpt>
      <trkpt lat="47.33773" lon="-1.10281">
        <ele>73.6782227</ele>
        <time>2011-09-25T09:22:04Z</time>
      </trkpt>
      <trkpt lat="47.33772" lon="-1.10357">
        <ele>73.6782227</ele>
        <time>2011-09-25T09:22:14Z</time>
      </trkpt>
      <trkpt lat="47.33788" lon="-1.10474">
        <ele>72.2362061</ele>
        <time>2011-09-25T09:22:30Z</time>
      </trkpt>
      <trkpt lat="47.33772" lon="-1.10649">
        <ele>74.6395264</ele>
        <time>2011-09-25T09:22:55Z</time>
      </trkpt>
      <trkpt lat="47.33768" lon="-1.10782">
        <ele>75.1202393</ele>
        <time>2011-09-25T09:23:16Z</time>
      </trkpt>
      <trkpt lat="47.3377" lon="-1.10805">
        <ele>75.1202393</ele>
        <time>2011-09-25T09:23:20Z</time>
      </trkpt>
      <trkpt lat="47.33786" lon="-1.10825">
        <ele>75.1202393</ele>
        <time>2011-09-25T09:23:26Z</time>
      </trkpt>
      <trkpt lat="47.33806" lon="-1.10828">
        <ele>75.6008301</ele>
        <time>2011-09-25T09:23:31Z</time>
      </trkpt>
      <trkpt lat="47.33817" lon="-1.10848">
        <ele>75.1202393</ele>
        <time>2011-09-25T09:23:37Z</time>
      </trkpt>
      <trkpt lat="47.33809" lon="-1.10896">
        <ele>75.1202393</ele>
        <time>2011-09-25T09:23:47Z</time>
      </trkpt>
      <trkpt lat="47.33799" lon="-1.10954">
        <ele>74.1588135</ele>
        <time>2011-09-25T09:23:59Z</time>
      </trkpt>
      <trkpt lat="47.33799" lon="-1.10957">
        <ele>74.1588135</ele>
        <time>2011-09-25T09:24:02Z</time>
      </trkpt>
      <trkpt lat="47.33808" lon="-1.10961">
        <ele>74.1588135</ele>
        <time>2011-09-25T09:24:06Z</time>
      </trkpt>
      <trkpt lat="47.33826" lon="-1.10964">
        <ele>72.7169189</ele>
        <time>2011-09-25T09:24:16Z</time>
      </trkpt>
      <trkpt lat="47.33826" lon="-1.10964">
        <ele>72.7169189</ele>
        <time>2011-09-25T09:24:27Z</time>
      </trkpt>
      <trkpt lat="47.33828" lon="-1.10972">
        <ele>72.7169189</ele>
        <time>2011-09-25T09:24:31Z</time>
      </trkpt>
      <trkpt lat="47.33815" lon="-1.11066">
        <ele>70.7941895</ele>
        <time>2011-09-25T09:24:49Z</time>
      </trkpt>
      <trkpt lat="47.33813" lon="-1.11081">
        <ele>70.3134766</ele>
        <time>2011-09-25T09:24:51Z</time>
      </trkpt>
      <trkpt lat="47.33812" lon="-1.11096">
        <ele>69.3522949</ele>
        <time>2011-09-25T09:24:53Z</time>
      </trkpt>
      <trkpt lat="47.33816" lon="-1.11146">
        <ele>65.5070801</ele>
        <time>2011-09-25T09:24:59Z</time>
      </trkpt>
      <trkpt lat="47.33825" lon="-1.11179">
        <ele>64.5456543</ele>
        <time>2011-09-25T09:25:06Z</time>
      </trkpt>
      <trkpt lat="47.33825" lon="-1.11196">
        <ele>64.5456543</ele>
        <time>2011-09-25T09:25:09Z</time>
      </trkpt>
      <trkpt lat="47.33819" lon="-1.11221">
        <ele>62.6229248</ele>
        <time>2011-09-25T09:25:13Z</time>
      </trkpt>
      <trkpt lat="47.33816" lon="-1.11226">
        <ele>62.6229248</ele>
        <time>2011-09-25T09:25:14Z</time>
      </trkpt>
      <trkpt lat="47.33803" lon="-1.11249">
        <ele>63.5843506</ele>
        <time>2011-09-25T09:25:19Z</time>
      </trkpt>
      <trkpt lat="47.33804" lon="-1.11271">
        <ele>65.0263672</ele>
        <time>2011-09-25T09:25:23Z</time>
      </trkpt>
      <trkpt lat="47.33807" lon="-1.11291">
        <ele>66.9489746</ele>
        <time>2011-09-25T09:25:27Z</time>
      </trkpt>
      <trkpt lat="47.33807" lon="-1.11351">
        <ele>70.3134766</ele>
        <time>2011-09-25T09:25:37Z</time>
      </trkpt>
      <trkpt lat="47.33799" lon="-1.11515">
        <ele>71.7554932</ele>
        <time>2011-09-25T09:26:03Z</time>
      </trkpt>
      <trkpt lat="47.33775" lon="-1.11641">
        <ele>69.3522949</ele>
        <time>2011-09-25T09:26:21Z</time>
      </trkpt>
      <trkpt lat="47.3377" lon="-1.1166">
        <ele>69.3522949</ele>
        <time>2011-09-25T09:26:24Z</time>
      </trkpt>
      <trkpt lat="47.33783" lon="-1.11678">
        <ele>67.9102783</ele>
        <time>2011-09-25T09:26:28Z</time>
      </trkpt>
      <trkpt lat="47.33794" lon="-1.11685">
        <ele>66.4682617</ele>
        <time>2011-09-25T09:26:30Z</time>
      </trkpt>
      <trkpt lat="47.33799" lon="-1.11712">
        <ele>65.0263672</ele>
        <time>2011-09-25T09:26:34Z</time>
      </trkpt>
      <trkpt lat="47.33799" lon="-1.11729">
        <ele>64.5456543</ele>
        <time>2011-09-25T09:26:36Z</time>
      </trkpt>
      <trkpt lat="47.3381" lon="-1.11758">
        <ele>63.5843506</ele>
        <time>2011-09-25T09:26:40Z</time>
      </trkpt>
      <trkpt lat="47.3382" lon="-1.11768">
        <ele>63.1036377</ele>
        <time>2011-09-25T09:26:42Z</time>
      </trkpt>
      <trkpt lat="47.33834" lon="-1.11797">
        <ele>63.1036377</ele>
        <time>2011-09-25T09:26:46Z</time>
      </trkpt>
      <trkpt lat="47.33852" lon="-1.11933">
        <ele>64.0650635</ele>
        <time>2011-09-25T09:27:02Z</time>
      </trkpt>
      <trkpt lat="47.33848" lon="-1.12083">
        <ele>63.1036377</ele>
        <time>2011-09-25T09:27:20Z</time>
      </trkpt>
      <trkpt lat="47.33847" lon="-1.121">
        <ele>62.6229248</ele>
        <time>2011-09-25T09:27:22Z</time>
      </trkpt>
      <trkpt lat="47.33853" lon="-1.12132">
        <ele>61.6617432</ele>
        <time>2011-09-25T09:27:26Z</time>
      </trkpt>
      <trkpt lat="47.33861" lon="-1.12192">
        <ele>62.6229248</ele>
        <time>2011-09-25T09:27:36Z</time>
      </trkpt>
      <trkpt lat="47.33876" lon="-1.1227">
        <ele>65.5070801</ele>
        <time>2011-09-25T09:27:49Z</time>
      </trkpt>
      <trkpt lat="47.33888" lon="-1.12317">
        <ele>65.0263672</ele>
        <time>2011-09-25T09:27:57Z</time>
      </trkpt>
      <trkpt lat="47.33899" lon="-1.12337">
        <ele>64.0650635</ele>
        <time>2011-09-25T09:28:01Z</time>
      </trkpt>
      <trkpt lat="47.3391" lon="-1.12407">
        <ele>62.6229248</ele>
        <time>2011-09-25T09:28:11Z</time>
      </trkpt>
      <trkpt lat="47.33889" lon="-1.12538">
        <ele>59.7391357</ele>
        <time>2011-09-25T09:28:29Z</time>
      </trkpt>
      <trkpt lat="47.33878" lon="-1.12615">
        <ele>56.8551025</ele>
        <time>2011-09-25T09:28:38Z</time>
      </trkpt>
      <trkpt lat="47.33877" lon="-1.12624">
        <ele>56.8551025</ele>
        <time>2011-09-25T09:28:39Z</time>
      </trkpt>
      <trkpt lat="47.33878" lon="-1.12687">
        <ele>56.8551025</ele>
        <time>2011-09-25T09:28:47Z</time>
      </trkpt>
      <trkpt lat="47.33888" lon="-1.12697">
        <ele>55.4130859</ele>
        <time>2011-09-25T09:28:51Z</time>
      </trkpt>
      <trkpt lat="47.33896" lon="-1.12697">
        <ele>54.4517822</ele>
        <time>2011-09-25T09:28:53Z</time>
      </trkpt>
      <trkpt lat="47.33911" lon="-1.12697">
        <ele>53.0097656</ele>
        <time>2011-09-25T09:28:56Z</time>
      </trkpt>
      <trkpt lat="47.33929" lon="-1.12699">
        <ele>51.0871582</ele>
        <time>2011-09-25T09:28:59Z</time>
      </trkpt>
      <trkpt lat="47.3395" lon="-1.12701">
        <ele>48.2033691</ele>
        <time>2011-09-25T09:29:02Z</time>
      </trkpt>
      <trkpt lat="47.33963" lon="-1.12703">
        <ele>46.7612305</ele>
        <time>2011-09-25T09:29:04Z</time>
      </trkpt>
      <trkpt lat="47.33976" lon="-1.12705">
        <ele>45.3192139</ele>
        <time>2011-09-25T09:29:06Z</time>
      </trkpt>
      <trkpt lat="47.33984" lon="-1.12703">
        <ele>44.838623</ele>
        <time>2011-09-25T09:29:08Z</time>
      </trkpt>
      <trkpt lat="47.33996" lon="-1.12711">
        <ele>44.3580322</ele>
        <time>2011-09-25T09:29:11Z</time>
      </trkpt>
      <trkpt lat="47.34007" lon="-1.12714">
        <ele>42.4354248</ele>
        <time>2011-09-25T09:29:13Z</time>
      </trkpt>
      <trkpt lat="47.34039" lon="-1.12718">
        <ele>40.5128174</ele>
        <time>2011-09-25T09:29:18Z</time>
      </trkpt>
      <trkpt lat="47.34051" lon="-1.12718">
        <ele>39.5512695</ele>
        <time>2011-09-25T09:29:20Z</time>
      </trkpt>
      <trkpt lat="47.34068" lon="-1.1274">
        <ele>40.0321045</ele>
        <time>2011-09-25T09:29:27Z</time>
      </trkpt>
      <trkpt lat="47.34071" lon="-1.12773">
        <ele>40.9934082</ele>
        <time>2011-09-25T09:29:34Z</time>
      </trkpt>
      <trkpt lat="47.34061" lon="-1.12841">
        <ele>44.838623</ele>
        <time>2011-09-25T09:29:45Z</time>
      </trkpt>
      <trkpt lat="47.34052" lon="-1.12888">
        <ele>47.2418213</ele>
        <time>2011-09-25T09:29:53Z</time>
      </trkpt>
      <trkpt lat="47.34036" lon="-1.12983">
        <ele>49.6452637</ele>
        <time>2011-09-25T09:30:11Z</time>
      </trkpt>
      <trkpt lat="47.34023" lon="-1.13114">
        <ele>47.2418213</ele>
        <time>2011-09-25T09:30:34Z</time>
      </trkpt>
      <trkpt lat="47.3402" lon="-1.13157">
        <ele>46.7612305</ele>
        <time>2011-09-25T09:30:41Z</time>
      </trkpt>
      <trkpt lat="47.34018" lon="-1.13179">
        <ele>45.7999268</ele>
        <time>2011-09-25T09:30:44Z</time>
      </trkpt>
      <trkpt lat="47.34026" lon="-1.13209">
        <ele>43.8773193</ele>
        <time>2011-09-25T09:30:49Z</time>
      </trkpt>
      <trkpt lat="47.34034" lon="-1.13216">
        <ele>42.9160156</ele>
        <time>2011-09-25T09:30:51Z</time>
      </trkpt>
      <trkpt lat="47.34044" lon="-1.13224">
        <ele>41.473999</ele>
        <time>2011-09-25T09:30:53Z</time>
      </trkpt>
      <trkpt lat="47.34055" lon="-1.13229">
        <ele>40.5128174</ele>
        <time>2011-09-25T09:30:55Z</time>
      </trkpt>
      <trkpt lat="47.3408" lon="-1.13235">
        <ele>36.1867676</ele>
        <time>2011-09-25T09:31:01Z</time>
      </trkpt>
      <trkpt lat="47.34099" lon="-1.13233">
        <ele>31.380127</ele>
        <time>2011-09-25T09:31:04Z</time>
      </trkpt>
      <trkpt lat="47.34106" lon="-1.1323">
        <ele>31.380127</ele>
        <time>2011-09-25T09:31:05Z</time>
      </trkpt>
      <trkpt lat="47.34149" lon="-1.13196">
        <ele>25.6123047</ele>
        <time>2011-09-25T09:31:13Z</time>
      </trkpt>
      <trkpt lat="47.34177" lon="-1.13171">
        <ele>24.1702881</ele>
        <time>2011-09-25T09:31:22Z</time>
      </trkpt>
      <trkpt lat="47.34179" lon="-1.13191">
        <ele>23.2089844</ele>
        <time>2011-09-25T09:31:27Z</time>
      </trkpt>
      <trkpt lat="47.34159" lon="-1.1331">
        <ele>25.6123047</ele>
        <time>2011-09-25T09:31:47Z</time>
      </trkpt>
      <trkpt lat="47.34156" lon="-1.13327">
        <ele>26.0928955</ele>
        <time>2011-09-25T09:31:50Z</time>
      </trkpt>
      <trkpt lat="47.34148" lon="-1.13384">
        <ele>28.4962158</ele>
        <time>2011-09-25T09:32:00Z</time>
      </trkpt>
      <trkpt lat="47.34142" lon="-1.13424">
        <ele>29.4575195</ele>
        <time>2011-09-25T09:32:08Z</time>
      </trkpt>
      <trkpt lat="47.3413" lon="-1.1342">
        <ele>30.8995361</ele>
        <time>2011-09-25T09:32:13Z</time>
      </trkpt>
      <trkpt lat="47.34099" lon="-1.13386">
        <ele>34.744873</ele>
        <time>2011-09-25T09:32:28Z</time>
      </trkpt>
      <trkpt lat="47.34073" lon="-1.13379">
        <ele>38.109375</ele>
        <time>2011-09-25T09:32:39Z</time>
      </trkpt>
      <trkpt lat="47.34041" lon="-1.13373">
        <ele>41.473999</ele>
        <time>2011-09-25T09:32:52Z</time>
      </trkpt>
      <trkpt lat="47.34014" lon="-1.13384">
        <ele>43.8773193</ele>
        <time>2011-09-25T09:33:04Z</time>
      </trkpt>
      <trkpt lat="47.34006" lon="-1.13454">
        <ele>47.2418213</ele>
        <time>2011-09-25T09:33:23Z</time>
      </trkpt>
      <trkpt lat="47.33993" lon="-1.13543">
        <ele>50.6065674</ele>
        <time>2011-09-25T09:33:45Z</time>
      </trkpt>
      <trkpt lat="47.33983" lon="-1.13637">
        <ele>50.1259766</ele>
        <time>2011-09-25T09:34:05Z</time>
      </trkpt>
      <trkpt lat="47.33976" lon="-1.13676">
        <ele>50.1259766</ele>
        <time>2011-09-25T09:34:12Z</time>
      </trkpt>
      <trkpt lat="47.33977" lon="-1.13733">
        <ele>48.68396</ele>
        <time>2011-09-25T09:34:21Z</time>
      </trkpt>
      <trkpt lat="47.3397" lon="-1.13761">
        <ele>47.7225342</ele>
        <time>2011-09-25T09:34:26Z</time>
      </trkpt>
      <trkpt lat="47.33957" lon="-1.13778">
        <ele>48.2033691</ele>
        <time>2011-09-25T09:34:30Z</time>
      </trkpt>
      <trkpt lat="47.33949" lon="-1.13792">
        <ele>48.2033691</ele>
        <time>2011-09-25T09:34:33Z</time>
      </trkpt>
      <trkpt lat="47.33932" lon="-1.13852">
        <ele>46.2806396</ele>
        <time>2011-09-25T09:34:43Z</time>
      </trkpt>
      <trkpt lat="47.3393" lon="-1.13891">
        <ele>44.3580322</ele>
        <time>2011-09-25T09:34:48Z</time>
      </trkpt>
      <trkpt lat="47.33934" lon="-1.13905">
        <ele>44.838623</ele>
        <time>2011-09-25T09:34:50Z</time>
      </trkpt>
      <trkpt lat="47.33938" lon="-1.13918">
        <ele>44.838623</ele>
        <time>2011-09-25T09:34:52Z</time>
      </trkpt>
      <trkpt lat="47.33937" lon="-1.13941">
        <ele>45.7999268</ele>
        <time>2011-09-25T09:34:56Z</time>
      </trkpt>
      <trkpt lat="47.33932" lon="-1.13984">
        <ele>45.3192139</ele>
        <time>2011-09-25T09:35:03Z</time>
      </trkpt>
      <trkpt lat="47.33929" lon="-1.13996">
        <ele>44.838623</ele>
        <time>2011-09-25T09:35:05Z</time>
      </trkpt>
      <trkpt lat="47.33921" lon="-1.14019">
        <ele>44.3580322</ele>
        <time>2011-09-25T09:35:09Z</time>
      </trkpt>
      <trkpt lat="47.33898" lon="-1.14132">
        <ele>43.3966064</ele>
        <time>2011-09-25T09:35:26Z</time>
      </trkpt>
      <trkpt lat="47.3389" lon="-1.14169">
        <ele>43.3966064</ele>
        <time>2011-09-25T09:35:32Z</time>
      </trkpt>
      <trkpt lat="47.33903" lon="-1.14188">
        <ele>44.838623</ele>
        <time>2011-09-25T09:35:38Z</time>
      </trkpt>
      <trkpt lat="47.3391" lon="-1.14187">
        <ele>44.3580322</ele>
        <time>2011-09-25T09:35:40Z</time>
      </trkpt>
      <trkpt lat="47.33923" lon="-1.14206">
        <ele>44.3580322</ele>
        <time>2011-09-25T09:35:45Z</time>
      </trkpt>
      <trkpt lat="47.3393" lon="-1.14265">
        <ele>40.9934082</ele>
        <time>2011-09-25T09:35:53Z</time>
      </trkpt>
      <trkpt lat="47.33932" lon="-1.14274">
        <ele>39.0706787</ele>
        <time>2011-09-25T09:35:54Z</time>
      </trkpt>
      <trkpt lat="47.33953" lon="-1.14312">
        <ele>36.6674805</ele>
        <time>2011-09-25T09:35:59Z</time>
      </trkpt>
      <trkpt lat="47.33974" lon="-1.14323">
        <ele>34.2641602</ele>
        <time>2011-09-25T09:36:02Z</time>
      </trkpt>
      <trkpt lat="47.33988" lon="-1.14321">
        <ele>33.7834473</ele>
        <time>2011-09-25T09:36:04Z</time>
      </trkpt>
      <trkpt lat="47.34015" lon="-1.14311">
        <ele>32.8222656</ele>
        <time>2011-09-25T09:36:08Z</time>
      </trkpt>
      <trkpt lat="47.34024" lon="-1.14287">
        <ele>33.7834473</ele>
        <time>2011-09-25T09:36:13Z</time>
      </trkpt>
      <trkpt lat="47.34019" lon="-1.14277">
        <ele>35.2254639</ele>
        <time>2011-09-25T09:36:15Z</time>
      </trkpt>
      <trkpt lat="47.3403" lon="-1.1427">
        <ele>34.2641602</ele>
        <time>2011-09-25T09:36:19Z</time>
      </trkpt>
      <trkpt lat="47.34048" lon="-1.1428">
        <ele>29.9381104</ele>
        <time>2011-09-25T09:36:22Z</time>
      </trkpt>
      <trkpt lat="47.34055" lon="-1.14284">
        <ele>29.9381104</ele>
        <time>2011-09-25T09:36:23Z</time>
      </trkpt>
      <trkpt lat="47.3407" lon="-1.14285">
        <ele>27.5349121</ele>
        <time>2011-09-25T09:36:25Z</time>
      </trkpt>
      <trkpt lat="47.34085" lon="-1.14281">
        <ele>26.0928955</ele>
        <time>2011-09-25T09:36:27Z</time>
      </trkpt>
      <trkpt lat="47.34101" lon="-1.14276">
        <ele>22.2475586</ele>
        <time>2011-09-25T09:36:29Z</time>
      </trkpt>
      <trkpt lat="47.34132" lon="-1.14293">
        <ele>22.2475586</ele>
        <time>2011-09-25T09:36:36Z</time>
      </trkpt>
      <trkpt lat="47.34133" lon="-1.14299">
        <ele>21.7669678</ele>
        <time>2011-09-25T09:36:37Z</time>
      </trkpt>
      <trkpt lat="47.34135" lon="-1.14315">
        <ele>20.8056641</ele>
        <time>2011-09-25T09:36:39Z</time>
      </trkpt>
      <trkpt lat="47.34137" lon="-1.14331">
        <ele>20.3249512</ele>
        <time>2011-09-25T09:36:41Z</time>
      </trkpt>
      <trkpt lat="47.34141" lon="-1.14383">
        <ele>18.8830566</ele>
        <time>2011-09-25T09:36:47Z</time>
      </trkpt>
      <trkpt lat="47.34145" lon="-1.14443">
        <ele>19.3637695</ele>
        <time>2011-09-25T09:36:56Z</time>
      </trkpt>
      <trkpt lat="47.34141" lon="-1.14502">
        <ele>21.286377</ele>
        <time>2011-09-25T09:37:08Z</time>
      </trkpt>
      <trkpt lat="47.34139" lon="-1.1451">
        <ele>22.7282715</ele>
        <time>2011-09-25T09:37:11Z</time>
      </trkpt>
      <trkpt lat="47.34125" lon="-1.14566">
        <ele>24.651001</ele>
        <time>2011-09-25T09:37:27Z</time>
      </trkpt>
      <trkpt lat="47.34121" lon="-1.14572">
        <ele>26.0928955</ele>
        <time>2011-09-25T09:37:29Z</time>
      </trkpt>
      <trkpt lat="47.34114" lon="-1.14645">
        <ele>29.4575195</ele>
        <time>2011-09-25T09:37:47Z</time>
      </trkpt>
      <trkpt lat="47.34099" lon="-1.14709">
        <ele>31.380127</ele>
        <time>2011-09-25T09:38:02Z</time>
      </trkpt>
      <trkpt lat="47.34087" lon="-1.14771">
        <ele>34.2641602</ele>
        <time>2011-09-25T09:38:17Z</time>
      </trkpt>
      <trkpt lat="47.34092" lon="-1.14869">
        <ele>32.8222656</ele>
        <time>2011-09-25T09:38:36Z</time>
      </trkpt>
      <trkpt lat="47.34096" lon="-1.14941">
        <ele>31.8607178</ele>
        <time>2011-09-25T09:38:48Z</time>
      </trkpt>
      <trkpt lat="47.34089" lon="-1.14967">
        <ele>32.8222656</ele>
        <time>2011-09-25T09:38:53Z</time>
      </trkpt>
      <trkpt lat="47.34079" lon="-1.14981">
        <ele>34.2641602</ele>
        <time>2011-09-25T09:38:57Z</time>
      </trkpt>
      <trkpt lat="47.34077" lon="-1.14986">
        <ele>34.744873</ele>
        <time>2011-09-25T09:38:59Z</time>
      </trkpt>
      <trkpt lat="47.3408" lon="-1.15012">
        <ele>33.7834473</ele>
        <time>2011-09-25T09:39:05Z</time>
      </trkpt>
      <trkpt lat="47.34083" lon="-1.15024">
        <ele>34.2641602</ele>
        <time>2011-09-25T09:39:07Z</time>
      </trkpt>
      <trkpt lat="47.34095" lon="-1.15104">
        <ele>36.1867676</ele>
        <time>2011-09-25T09:39:22Z</time>
      </trkpt>
      <trkpt lat="47.34087" lon="-1.15115">
        <ele>35.7060547</ele>
        <time>2011-09-25T09:39:27Z</time>
      </trkpt>
      <trkpt lat="47.34069" lon="-1.15122">
        <ele>37.6286621</ele>
        <time>2011-09-25T09:39:33Z</time>
      </trkpt>
      <trkpt lat="47.34069" lon="-1.15153">
        <ele>36.1867676</ele>
        <time>2011-09-25T09:39:42Z</time>
      </trkpt>
      <trkpt lat="47.34079" lon="-1.1522">
        <ele>35.7060547</ele>
        <time>2011-09-25T09:39:55Z</time>
      </trkpt>
      <trkpt lat="47.34071" lon="-1.15231">
        <ele>36.1867676</ele>
        <time>2011-09-25T09:40:00Z</time>
      </trkpt>
      <trkpt lat="47.34068" lon="-1.15247">
        <ele>37.6286621</ele>
        <time>2011-09-25T09:40:04Z</time>
      </trkpt>
      <trkpt lat="47.34084" lon="-1.15322">
        <ele>40.0321045</ele>
        <time>2011-09-25T09:40:24Z</time>
      </trkpt>
      <trkpt lat="47.34084" lon="-1.15327">
        <ele>39.5512695</ele>
        <time>2011-09-25T09:40:26Z</time>
      </trkpt>
      <trkpt lat="47.34056" lon="-1.15354">
        <ele>40.9934082</ele>
        <time>2011-09-25T09:40:39Z</time>
      </trkpt>
      <trkpt lat="47.34026" lon="-1.15365">
        <ele>43.8773193</ele>
        <time>2011-09-25T09:40:51Z</time>
      </trkpt>
      <trkpt lat="47.33981" lon="-1.15373">
        <ele>47.2418213</ele>
        <time>2011-09-25T09:41:08Z</time>
      </trkpt>
      <trkpt lat="47.33934" lon="-1.15373">
        <ele>50.6065674</ele>
        <time>2011-09-25T09:41:26Z</time>
      </trkpt>
      <trkpt lat="47.33929" lon="-1.15372">
        <ele>51.5678711</ele>
        <time>2011-09-25T09:41:28Z</time>
      </trkpt>
      <trkpt lat="47.33881" lon="-1.15373">
        <ele>55.4130859</ele>
        <time>2011-09-25T09:41:45Z</time>
      </trkpt>
      <trkpt lat="47.33856" lon="-1.1543">
        <ele>56.8551025</ele>
        <time>2011-09-25T09:42:01Z</time>
      </trkpt>
      <trkpt lat="47.33816" lon="-1.15528">
        <ele>57.8165283</ele>
        <time>2011-09-25T09:42:24Z</time>
      </trkpt>
      <trkpt lat="47.33775" lon="-1.15576">
        <ele>56.8551025</ele>
        <time>2011-09-25T09:42:38Z</time>
      </trkpt>
      <trkpt lat="47.33718" lon="-1.15598">
        <ele>55.8937988</ele>
        <time>2011-09-25T09:42:53Z</time>
      </trkpt>
      <trkpt lat="47.33647" lon="-1.15625">
        <ele>55.4130859</ele>
        <time>2011-09-25T09:43:13Z</time>
      </trkpt>
      <trkpt lat="47.33615" lon="-1.15615">
        <ele>55.4130859</ele>
        <time>2011-09-25T09:43:21Z</time>
      </trkpt>
      <trkpt lat="47.33592" lon="-1.1564">
        <ele>56.3745117</ele>
        <time>2011-09-25T09:43:29Z</time>
      </trkpt>
      <trkpt lat="47.33591" lon="-1.15652">
        <ele>56.3745117</ele>
        <time>2011-09-25T09:43:31Z</time>
      </trkpt>
      <trkpt lat="47.33593" lon="-1.1572">
        <ele>55.4130859</ele>
        <time>2011-09-25T09:43:43Z</time>
      </trkpt>
      <trkpt lat="47.336" lon="-1.15739">
        <ele>54.4517822</ele>
        <time>2011-09-25T09:43:46Z</time>
      </trkpt>
      <trkpt lat="47.33608" lon="-1.15765">
        <ele>51.0871582</ele>
        <time>2011-09-25T09:43:49Z</time>
      </trkpt>
      <trkpt lat="47.33612" lon="-1.15785">
        <ele>50.1259766</ele>
        <time>2011-09-25T09:43:51Z</time>
      </trkpt>
      <trkpt lat="47.3362" lon="-1.15839">
        <ele>46.7612305</ele>
        <time>2011-09-25T09:43:56Z</time>
      </trkpt>
      <trkpt lat="47.33627" lon="-1.15882">
        <ele>44.838623</ele>
        <time>2011-09-25T09:44:00Z</time>
      </trkpt>
      <trkpt lat="47.3363" lon="-1.15915">
        <ele>43.3966064</ele>
        <time>2011-09-25T09:44:03Z</time>
      </trkpt>
      <trkpt lat="47.33632" lon="-1.15984">
        <ele>40.0321045</ele>
        <time>2011-09-25T09:44:09Z</time>
      </trkpt>
      <trkpt lat="47.33631" lon="-1.16018">
        <ele>38.109375</ele>
        <time>2011-09-25T09:44:12Z</time>
      </trkpt>
      <trkpt lat="47.33631" lon="-1.16042">
        <ele>35.7060547</ele>
        <time>2011-09-25T09:44:14Z</time>
      </trkpt>
      <trkpt lat="47.33631" lon="-1.16051">
        <ele>35.2254639</ele>
        <time>2011-09-25T09:44:15Z</time>
      </trkpt>
      <trkpt lat="47.33622" lon="-1.16081">
        <ele>32.8222656</ele>
        <time>2011-09-25T09:44:19Z</time>
      </trkpt>
      <trkpt lat="47.33613" lon="-1.16102">
        <ele>30.8995361</ele>
        <time>2011-09-25T09:44:22Z</time>
      </trkpt>
      <trkpt lat="47.33608" lon="-1.16117">
        <ele>29.9381104</ele>
        <time>2011-09-25T09:44:24Z</time>
      </trkpt>
      <trkpt lat="47.33607" lon="-1.16131">
        <ele>28.9769287</ele>
        <time>2011-09-25T09:44:26Z</time>
      </trkpt>
      <trkpt lat="47.33634" lon="-1.16142">
        <ele>28.9769287</ele>
        <time>2011-09-25T09:44:33Z</time>
      </trkpt>
      <trkpt lat="47.33639" lon="-1.16141">
        <ele>29.4575195</ele>
        <time>2011-09-25T09:44:34Z</time>
      </trkpt>
      <trkpt lat="47.33657" lon="-1.16129">
        <ele>29.9381104</ele>
        <time>2011-09-25T09:44:38Z</time>
      </trkpt>
      <trkpt lat="47.3369" lon="-1.16123">
        <ele>29.9381104</ele>
        <time>2011-09-25T09:44:44Z</time>
      </trkpt>
      <trkpt lat="47.33705" lon="-1.16119">
        <ele>33.3028564</ele>
        <time>2011-09-25T09:44:47Z</time>
      </trkpt>
      <trkpt lat="47.33714" lon="-1.16117">
        <ele>34.2641602</ele>
        <time>2011-09-25T09:44:49Z</time>
      </trkpt>
      <trkpt lat="47.3378" lon="-1.16102">
        <ele>35.2254639</ele>
        <time>2011-09-25T09:45:06Z</time>
      </trkpt>
      <trkpt lat="47.33802" lon="-1.16099">
        <ele>33.7834473</ele>
        <time>2011-09-25T09:45:11Z</time>
      </trkpt>
      <trkpt lat="47.33824" lon="-1.16082">
        <ele>30.4188232</ele>
        <time>2011-09-25T09:45:16Z</time>
      </trkpt>
      <trkpt lat="47.33836" lon="-1.16093">
        <ele>28.0155029</ele>
        <time>2011-09-25T09:45:21Z</time>
      </trkpt>
      <trkpt lat="47.33836" lon="-1.16099">
        <ele>27.5349121</ele>
        <time>2011-09-25T09:45:22Z</time>
      </trkpt>
      <trkpt lat="47.33835" lon="-1.1611">
        <ele>26.5736084</ele>
        <time>2011-09-25T09:45:24Z</time>
      </trkpt>
      <trkpt lat="47.33829" lon="-1.16168">
        <ele>24.651001</ele>
        <time>2011-09-25T09:45:33Z</time>
      </trkpt>
      <trkpt lat="47.33824" lon="-1.16181">
        <ele>24.651001</ele>
        <time>2011-09-25T09:45:35Z</time>
      </trkpt>
      <trkpt lat="47.33816" lon="-1.162">
        <ele>23.2089844</ele>
        <time>2011-09-25T09:45:38Z</time>
      </trkpt>
      <trkpt lat="47.3381" lon="-1.16215">
        <ele>21.286377</ele>
        <time>2011-09-25T09:45:40Z</time>
      </trkpt>
      <trkpt lat="47.33799" lon="-1.16252">
        <ele>18.4023438</ele>
        <time>2011-09-25T09:45:45Z</time>
      </trkpt>
      <trkpt lat="47.33793" lon="-1.16286">
        <ele>15.5184326</ele>
        <time>2011-09-25T09:45:52Z</time>
      </trkpt>
      <trkpt lat="47.33789" lon="-1.16319">
        <ele>12.6343994</ele>
        <time>2011-09-25T09:46:00Z</time>
      </trkpt>
      <trkpt lat="47.33791" lon="-1.16327">
        <ele>10.711792</ele>
        <time>2011-09-25T09:46:03Z</time>
      </trkpt>
      <trkpt lat="47.33795" lon="-1.16346">
        <ele>9.2698975</ele>
        <time>2011-09-25T09:46:07Z</time>
      </trkpt>
      <trkpt lat="47.33795" lon="-1.16354">
        <ele>7.8278809</ele>
        <time>2011-09-25T09:46:10Z</time>
      </trkpt>
      <trkpt lat="47.33759" lon="-1.1637">
        <ele>7.347168</ele>
        <time>2011-09-25T09:46:21Z</time>
      </trkpt>
      <trkpt lat="47.3374" lon="-1.16369">
        <ele>9.7506104</ele>
        <time>2011-09-25T09:46:26Z</time>
      </trkpt>
      <trkpt lat="47.33698" lon="-1.16362">
        <ele>8.3085938</ele>
        <time>2011-09-25T09:46:36Z</time>
      </trkpt>
      <trkpt lat="47.33659" lon="-1.16342">
        <ele>8.3085938</ele>
        <time>2011-09-25T09:46:47Z</time>
      </trkpt>
      <trkpt lat="47.33639" lon="-1.16325">
        <ele>8.7891846</ele>
        <time>2011-09-25T09:46:53Z</time>
      </trkpt>
      <trkpt lat="47.33622" lon="-1.16319">
        <ele>10.711792</ele>
        <time>2011-09-25T09:46:59Z</time>
      </trkpt>
      <trkpt lat="47.33588" lon="-1.16339">
        <ele>9.7506104</ele>
        <time>2011-09-25T09:47:08Z</time>
      </trkpt>
      <trkpt lat="47.33535" lon="-1.16357">
        <ele>8.7891846</ele>
        <time>2011-09-25T09:47:20Z</time>
      </trkpt>
      <trkpt lat="47.33508" lon="-1.16368">
        <ele>8.7891846</ele>
        <time>2011-09-25T09:47:26Z</time>
      </trkpt>
      <trkpt lat="47.33494" lon="-1.16368">
        <ele>8.3085938</ele>
        <time>2011-09-25T09:47:29Z</time>
      </trkpt>
      <trkpt lat="47.33475" lon="-1.16365">
        <ele>9.2698975</ele>
        <time>2011-09-25T09:47:33Z</time>
      </trkpt>
      <trkpt lat="47.33463" lon="-1.16376">
        <ele>11.6732178</ele>
        <time>2011-09-25T09:47:37Z</time>
      </trkpt>
      <trkpt lat="47.33429" lon="-1.16401">
        <ele>11.1925049</ele>
        <time>2011-09-25T09:47:49Z</time>
      </trkpt>
      <trkpt lat="47.33428" lon="-1.16402">
        <ele>11.1925049</ele>
        <time>2011-09-25T09:47:50Z</time>
      </trkpt>
      <trkpt lat="47.33425" lon="-1.1641">
        <ele>10.2312012</ele>
        <time>2011-09-25T09:47:58Z</time>
      </trkpt>
      <trkpt lat="47.33426" lon="-1.16414">
        <ele>10.711792</ele>
        <time>2011-09-25T09:48:00Z</time>
      </trkpt>
      <trkpt lat="47.33409" lon="-1.16433">
        <ele>10.2312012</ele>
        <time>2011-09-25T09:48:10Z</time>
      </trkpt>
      <trkpt lat="47.33411" lon="-1.16482">
        <ele>12.1538086</ele>
        <time>2011-09-25T09:48:24Z</time>
      </trkpt>
      <trkpt lat="47.33412" lon="-1.16516">
        <ele>14.076416</ele>
        <time>2011-09-25T09:48:36Z</time>
      </trkpt>
      <trkpt lat="47.33414" lon="-1.16522">
        <ele>15.5184326</ele>
        <time>2011-09-25T09:48:39Z</time>
      </trkpt>
      <trkpt lat="47.33417" lon="-1.16532">
        <ele>16.4797363</ele>
        <time>2011-09-25T09:48:44Z</time>
      </trkpt>
      <trkpt lat="47.33429" lon="-1.16564">
        <ele>17.9217529</ele>
        <time>2011-09-25T09:48:57Z</time>
      </trkpt>
      <trkpt lat="47.3344" lon="-1.16601">
        <ele>19.3637695</ele>
        <time>2011-09-25T09:49:10Z</time>
      </trkpt>
      <trkpt lat="47.33451" lon="-1.16629">
        <ele>21.7669678</ele>
        <time>2011-09-25T09:49:23Z</time>
      </trkpt>
      <trkpt lat="47.33452" lon="-1.16642">
        <ele>23.6895752</ele>
        <time>2011-09-25T09:49:29Z</time>
      </trkpt>
      <trkpt lat="47.33453" lon="-1.16648">
        <ele>23.6895752</ele>
        <time>2011-09-25T09:49:32Z</time>
      </trkpt>
      <trkpt lat="47.33454" lon="-1.16667">
        <ele>26.0928955</ele>
        <time>2011-09-25T09:49:39Z</time>
      </trkpt>
      <trkpt lat="47.33458" lon="-1.1669">
        <ele>30.4188232</ele>
        <time>2011-09-25T09:49:52Z</time>
      </trkpt>
      <trkpt lat="47.33459" lon="-1.16696">
        <ele>31.380127</ele>
        <time>2011-09-25T09:50:07Z</time>
      </trkpt>
      <trkpt lat="47.33459" lon="-1.16698">
        <ele>31.8607178</ele>
        <time>2011-09-25T09:50:27Z</time>
      </trkpt>
      <trkpt lat="47.33462" lon="-1.1671">
        <ele>31.8607178</ele>
        <time>2011-09-25T09:50:33Z</time>
      </trkpt>
      <trkpt lat="47.33466" lon="-1.16738">
        <ele>36.1867676</ele>
        <time>2011-09-25T09:50:45Z</time>
      </trkpt>
      <trkpt lat="47.33469" lon="-1.16749">
        <ele>36.6674805</ele>
        <time>2011-09-25T09:50:49Z</time>
      </trkpt>
      <trkpt lat="47.33471" lon="-1.16775">
        <ele>38.109375</ele>
        <time>2011-09-25T09:50:57Z</time>
      </trkpt>
      <trkpt lat="47.33485" lon="-1.16796">
        <ele>37.6286621</ele>
        <time>2011-09-25T09:51:03Z</time>
      </trkpt>
      <trkpt lat="47.33485" lon="-1.168">
        <ele>37.1480713</ele>
        <time>2011-09-25T09:51:04Z</time>
      </trkpt>
      <trkpt lat="47.33481" lon="-1.16847">
        <ele>41.473999</ele>
        <time>2011-09-25T09:51:18Z</time>
      </trkpt>
      <trkpt lat="47.33474" lon="-1.16888">
        <ele>44.3580322</ele>
        <time>2011-09-25T09:51:31Z</time>
      </trkpt>
      <trkpt lat="47.33473" lon="-1.16894">
        <ele>44.838623</ele>
        <time>2011-09-25T09:51:33Z</time>
      </trkpt>
      <trkpt lat="47.33469" lon="-1.16929">
        <ele>45.3192139</ele>
        <time>2011-09-25T09:51:44Z</time>
      </trkpt>
      <trkpt lat="47.33461" lon="-1.16981">
        <ele>46.7612305</ele>
        <time>2011-09-25T09:51:58Z</time>
      </trkpt>
      <trkpt lat="47.33459" lon="-1.16997">
        <ele>47.7225342</ele>
        <time>2011-09-25T09:52:10Z</time>
      </trkpt>
      <trkpt lat="47.33459" lon="-1.16997">
        <ele>47.7225342</ele>
        <time>2011-09-25T09:53:37Z</time>
      </trkpt>
      <trkpt lat="47.33458" lon="-1.17">
        <ele>48.2033691</ele>
        <time>2011-09-25T09:55:20Z</time>
      </trkpt>
      <trkpt lat="47.33458" lon="-1.16997">
        <ele>47.7225342</ele>
        <time>2011-09-25T09:56:08Z</time>
      </trkpt>
      <trkpt lat="47.33454" lon="-1.1703">
        <ele>47.2418213</ele>
        <time>2011-09-25T09:56:22Z</time>
      </trkpt>
      <trkpt lat="47.3344" lon="-1.1712">
        <ele>49.6452637</ele>
        <time>2011-09-25T09:56:40Z</time>
      </trkpt>
      <trkpt lat="47.33416" lon="-1.1725">
        <ele>52.048584</ele>
        <time>2011-09-25T09:57:06Z</time>
      </trkpt>
      <trkpt lat="47.33404" lon="-1.17297">
        <ele>53.0097656</ele>
        <time>2011-09-25T09:57:17Z</time>
      </trkpt>
      <trkpt lat="47.33395" lon="-1.17304">
        <ele>52.5291748</ele>
        <time>2011-09-25T09:57:21Z</time>
      </trkpt>
      <trkpt lat="47.33388" lon="-1.17309">
        <ele>52.5291748</ele>
        <time>2011-09-25T09:57:24Z</time>
      </trkpt>
      <trkpt lat="47.33372" lon="-1.17306">
        <ele>53.4904785</ele>
        <time>2011-09-25T09:57:35Z</time>
      </trkpt>
      <trkpt lat="47.33372" lon="-1.17305">
        <ele>53.4904785</ele>
        <time>2011-09-25T09:57:37Z</time>
      </trkpt>
      <trkpt lat="47.33379" lon="-1.17304">
        <ele>53.4904785</ele>
        <time>2011-09-25T09:57:51Z</time>
      </trkpt>
      <trkpt lat="47.33382" lon="-1.17301">
        <ele>53.4904785</ele>
        <time>2011-09-25T09:57:55Z</time>
      </trkpt>
      <trkpt lat="47.3338" lon="-1.173">
        <ele>53.4904785</ele>
        <time>2011-09-25T09:58:13Z</time>
      </trkpt>
      <trkpt lat="47.3338" lon="-1.17298">
        <ele>53.4904785</ele>
        <time>2011-09-25T09:58:19Z</time>
      </trkpt>
    </trkseg>
  </trk>
</gpx>